Darstellungsparameter: Aktuell verwendete Einstellungen:
Skalierung der Graphiken ... ?
xyx+y,   Skalierungsfaktor:      Skalierung: Modus: x, Faktor: 1
Darstellungszeitraum ... ?
Vom - - bis: - -   Zeitraum: 26.09.2010 - 26.10.2010
Min/Max/Avg-Anzeige ... ?
Zeige MMA aktuell
Zeige MMA Monat
Zeige MMA alles
Zeige --A aktuell
Zeige --A Monat
Zeige --A alles
Keine MMA-Anzeige
MMA:
Average (ber die Originaldaten)
MMA-Basis: 26.09.2010 - 26.10.2010
Quicknavigation für Darstellung... ?
Tage:      1T, 2T, 3T, 5T -1T -2T -3T -5T +1T +2T +3T +5T
Wochen: 1W, 2W, 3W -1W -2W -3W +1W +2W +3W
Monate: 1M, 3M, 6M -1M -3M -6M +1M +3M +6M
Jahre:    1J, 3J, 5J, 10J -1J -3J -5J -10J +1J +3J +5J +10J
Nutze für die Darstellung ... ?
Originaldaten oder Mittelwerte auf ...
Stundenbasis Tagesbasis Wochenbasis
Monatsbasis Jahresbasis      Datenbasis: Original-Daten
Darstellen als:
Statistik (Auto) Statistik J:M      Darstellung:
Zur Graphik,    zurück zur Übersicht aller Sensoren.
 
Tabellarische Datenbersicht: ?
 
Sensor: Nr:Datum:Temp:Abs-Feuchte:Windchill:Wind:
Aussen-T/F 1 26-09-2010 00:10:01 9.1 C 7.63 g/m*3 9.1 C 0 km/h
2 26-09-2010 00:22:02 9.5 C 7.92 g/m*3 9.5 C 0 km/h
3 26-09-2010 00:34:02 9.5 C 7.92 g/m*3 9.5 C 0 km/h
4 26-09-2010 00:46:02 9.6 C 7.79 g/m*3 9.6 C 0 km/h
5 26-09-2010 00:58:02 9.5 C 7.55 g/m*3 9.5 C 0 km/h
6 26-09-2010 01:10:02 9.5 C 7.37 g/m*3 9.5 C 0 km/h
7 26-09-2010 01:22:02 9.5 C 7.28 g/m*3 9.5 C 0 km/h
8 26-09-2010 01:34:02 9.4 C 7.15 g/m*3 9.4 C 0 km/h
9 26-09-2010 01:46:01 9.5 C 7.19 g/m*3 9.5 C 0 km/h
10 26-09-2010 01:58:01 9.5 C 7.19 g/m*3 9.5 C 0 km/h
11 26-09-2010 02:10:02 9.5 C 7.19 g/m*3 9.5 C 0 km/h
12 26-09-2010 02:22:01 9.5 C 7.1 g/m*3 9.5 C 0 km/h
13 26-09-2010 02:34:01 9.3 C 7.01 g/m*3 9.3 C 0 km/h
14 26-09-2010 02:46:01 9.4 C 6.96 g/m*3 9.4 C 0 km/h
15 26-09-2010 02:58:01 9.4 C 6.96 g/m*3 9.4 C 0 km/h
16 26-09-2010 03:10:01 9.3 C 6.92 g/m*3 9.3 C 0 km/h
17 26-09-2010 03:22:01 9.3 C 7.01 g/m*3 9.3 C 0 km/h
18 26-09-2010 03:34:01 9.3 C 7.1 g/m*3 9.3 C 0 km/h
19 26-09-2010 03:46:01 9.1 C 7.1 g/m*3 9.1 C 0 km/h
20 26-09-2010 03:58:01 9 C 7.23 g/m*3 9 C 0 km/h
21 26-09-2010 04:10:01 9 C 7.32 g/m*3 9 C 0 km/h
22 26-09-2010 04:22:01 9 C 7.23 g/m*3 9 C 0 km/h
23 26-09-2010 04:34:02 8.9 C 7.27 g/m*3 8.9 C 0 km/h
24 26-09-2010 04:46:01 8.7 C 7.26 g/m*3 8.7 C 0 km/h
25 26-09-2010 04:58:01 8.8 C 7.31 g/m*3 8.8 C 0 km/h
Sensor: Nr:Datum:Temp:Abs-Feuchte:Windchill:Wind:
Aussen-T/F 26 26-09-2010 05:10:02 9 C 7.32 g/m*3 9 C 0 km/h
27 26-09-2010 05:22:01 9.1 C 7.36 g/m*3 9.1 C 0 km/h
28 26-09-2010 05:34:01 9 C 7.32 g/m*3 9 C 0 km/h
29 26-09-2010 05:46:01 9 C 7.32 g/m*3 9 C 0 km/h
30 26-09-2010 05:58:01 9 C 7.32 g/m*3 9 C 0 km/h
31 26-09-2010 06:10:02 9 C 7.32 g/m*3 9 C 0 km/h
32 26-09-2010 06:22:01 9.1 C 7.36 g/m*3 9.1 C 0 km/h
33 26-09-2010 06:34:01 8.8 C 7.31 g/m*3 8.8 C 0 km/h
34 26-09-2010 06:46:01 8.8 C 7.4 g/m*3 8.8 C 0 km/h
35 26-09-2010 06:58:01 8.8 C 7.49 g/m*3 8.8 C 0 km/h
36 26-09-2010 07:10:01 8.8 C 7.49 g/m*3 8.8 C 0 km/h
37 26-09-2010 07:22:02 8.5 C 7.26 g/m*3 8.5 C 0 km/h
38 26-09-2010 07:34:01 8.6 C 7.39 g/m*3 8.6 C 0 km/h
39 26-09-2010 07:46:02 8.9 C 7.62 g/m*3 8.9 C 0 km/h
40 26-09-2010 07:58:02 9.2 C 7.5 g/m*3 9.2 C 0 km/h
41 26-09-2010 08:10:01 9.5 C 7.55 g/m*3 9.5 C 0 km/h
42 26-09-2010 08:22:02 9.6 C 7.33 g/m*3 9.6 C 0 km/h
43 26-09-2010 08:34:01 9.7 C 7.19 g/m*3 9.7 C 0 km/h
44 26-09-2010 08:46:02 9.7 C 7.19 g/m*3 9.7 C 0 km/h
45 26-09-2010 08:58:02 9.6 C 7.24 g/m*3 9.6 C 0 km/h
46 26-09-2010 09:10:01 9.4 C 7.24 g/m*3 9.4 C 0 km/h
47 26-09-2010 09:22:01 9.4 C 7.33 g/m*3 9.4 C 0 km/h
48 26-09-2010 09:34:02 10.5 C 7.57 g/m*3 10.5 C 0 km/h
49 26-09-2010 09:46:01 11 C 7.11 g/m*3 11 C 0 km/h
50 26-09-2010 09:58:01 11 C 6.61 g/m*3 11 C 0 km/h
Sensor: Nr:Datum:Temp:Abs-Feuchte:Windchill:Wind:
Aussen-T/F 51 26-09-2010 10:10:02 11 C 6.61 g/m*3 11 C 0 km/h
52 26-09-2010 10:22:01 11.6 C 6.76 g/m*3 11.6 C 0 km/h
53 26-09-2010 10:34:02 12 C 6.61 g/m*3 12 C 0 km/h
54 26-09-2010 10:46:01 11.9 C 6.78 g/m*3 11.9 C 0 km/h
55 26-09-2010 10:58:01 12.7 C 7.01 g/m*3 12.7 C 0 km/h
56 26-09-2010 11:10:02 12.9 C 6.42 g/m*3 12.9 C 0 km/h
57 26-09-2010 11:22:01 13.1 C 6.5 g/m*3 13.1 C 0 km/h
58 26-09-2010 11:34:02 13.2 C 6.66 g/m*3 13.2 C 0 km/h
59 26-09-2010 11:46:02 13.5 C 6.32 g/m*3 13.5 C 0 km/h
60 26-09-2010 11:58:02 13.4 C 6.28 g/m*3 13.4 C 0 km/h
61 26-09-2010 12:10:01 14 C 6.39 g/m*3 14 C 0 km/h
62 26-09-2010 12:22:02 14.3 C 6.51 g/m*3 14.3 C 0 km/h
63 26-09-2010 12:34:01 14.6 C 6.51 g/m*3 14.6 C 0 km/h
64 26-09-2010 12:46:01 15 C 6.28 g/m*3 15 C 0 km/h
65 26-09-2010 12:58:01 14.5 C 6.22 g/m*3 14.5 C 0 km/h
66 26-09-2010 13:10:02 14.5 C 6.34 g/m*3 14.5 C 0 km/h
67 26-09-2010 13:22:01 13.2 C 7.12 g/m*3 13.2 C 0 km/h
68 26-09-2010 13:34:01 12.6 C 7.63 g/m*3 12.6 C 0 km/h
69 26-09-2010 13:46:01 12.4 C 8.3 g/m*3 12.4 C 0 km/h
70 26-09-2010 13:58:01 12.3 C 8.25 g/m*3 12.3 C 0 km/h
71 26-09-2010 14:10:01 13.2 C 8.61 g/m*3 13.2 C 0 km/h
72 26-09-2010 14:22:01 13.4 C 8.37 g/m*3 13.4 C 0 km/h
73 26-09-2010 14:34:01 13.3 C 8.43 g/m*3 13.3 C 0 km/h
74 26-09-2010 14:46:01 13.2 C 8.15 g/m*3 13.2 C 0 km/h
75 26-09-2010 14:58:01 13.4 C 7.9 g/m*3 13.4 C 0 km/h
Sensor: Nr:Datum:Temp:Abs-Feuchte:Windchill:Wind:
Aussen-T/F 76 26-09-2010 15:10:01 13.6 C 7.89 g/m*3 13.6 C 0 km/h
77 26-09-2010 15:22:02 13.9 C 8.39 g/m*3 13.9 C 0 km/h
78 26-09-2010 15:34:01 14.4 C 8.16 g/m*3 14.4 C 0 km/h
79 26-09-2010 15:46:02 14.5 C 7.96 g/m*3 14.5 C 0 km/h
80 26-09-2010 15:58:02 14.5 C 8.21 g/m*3 14.5 C 0 km/h
81 26-09-2010 16:10:01 13.7 C 7.7 g/m*3 13.7 C 0 km/h
82 26-09-2010 16:22:02 13.8 C 7.51 g/m*3 13.8 C 0 km/h
83 26-09-2010 16:34:01 15.7 C 7.09 g/m*3 15.7 C 0 km/h
84 26-09-2010 16:46:01 15.5 C 6.21 g/m*3 15.5 C 0 km/h
85 26-09-2010 16:58:01 15.9 C 6.5 g/m*3 15.9 C 0 km/h
86 26-09-2010 17:10:01 16.1 C 6.44 g/m*3 16.1 C 0 km/h
87 26-09-2010 17:22:01 15.6 C 6.38 g/m*3 15.6 C 0 km/h
88 26-09-2010 17:34:02 15.4 C 6.7 g/m*3 15.4 C 0 km/h
89 26-09-2010 17:46:01 14.6 C 6.76 g/m*3 14.6 C 0 km/h
90 26-09-2010 17:58:01 14.2 C 6.72 g/m*3 14.2 C 0 km/h
91 26-09-2010 18:10:02 13.6 C 6.83 g/m*3 13.6 C 0 km/h
92 26-09-2010 18:22:01 13.1 C 6.85 g/m*3 13.1 C 0 km/h
93 26-09-2010 18:34:01 12.9 C 6.99 g/m*3 12.9 C 0 km/h
94 26-09-2010 18:46:01 12.7 C 7.01 g/m*3 12.7 C 0 km/h
95 26-09-2010 18:58:01 12.5 C 7.04 g/m*3 12.5 C 0 km/h
96 26-09-2010 19:10:02 12.4 C 7.1 g/m*3 12.4 C 0 km/h
97 26-09-2010 19:22:01 12.4 C 7.1 g/m*3 12.4 C 0 km/h
98 26-09-2010 19:34:01 12.2 C 7.01 g/m*3 12.2 C 0 km/h
99 26-09-2010 19:46:01 12.1 C 7.18 g/m*3 12.1 C 0 km/h
100 26-09-2010 19:58:01 12.1 C 7.08 g/m*3 12.1 C 0 km/h
Sensor: Nr:Datum:Temp:Abs-Feuchte:Windchill:Wind:
Aussen-T/F 101 26-09-2010 20:10:02 12 C 7.25 g/m*3 12 C 0 km/h
102 26-09-2010 20:22:01 11.9 C 7.31 g/m*3 11.9 C 0 km/h
103 26-09-2010 20:34:01 11.7 C 7.22 g/m*3 11.7 C 0 km/h
104 26-09-2010 20:46:01 11.7 C 7.22 g/m*3 11.7 C 0 km/h
105 26-09-2010 20:58:01 11.6 C 7.07 g/m*3 11.6 C 0 km/h
106 26-09-2010 21:10:01 11.6 C 7.07 g/m*3 11.6 C 0 km/h
107 26-09-2010 21:22:01 11.4 C 7.08 g/m*3 11.4 C 0 km/h
108 26-09-2010 21:34:01 11.2 C 7.1 g/m*3 11.2 C 0 km/h
109 26-09-2010 21:46:01 10.9 C 7.16 g/m*3 10.9 C 0 km/h
110 26-09-2010 21:58:01 10.7 C 7.17 g/m*3 10.7 C 0 km/h
111 26-09-2010 22:10:01 10.3 C 6.99 g/m*3 10.3 C 0 km/h
112 26-09-2010 22:22:01 10 C 7.05 g/m*3 10 C 0 km/h
113 26-09-2010 22:34:01 9.7 C 7.1 g/m*3 9.7 C 0 km/h
114 26-09-2010 22:47:04 9.3 C 7.1 g/m*3 9.3 C 0 km/h
115 26-09-2010 22:59:04 9.2 C 7.05 g/m*3 9.2 C 0 km/h
116 26-09-2010 23:11:04 9 C 7.05 g/m*3 9 C 0 km/h
117 26-09-2010 23:23:04 8.9 C 7.18 g/m*3 8.9 C 0 km/h
118 26-09-2010 23:35:04 8.9 C 7.27 g/m*3 8.9 C 0 km/h
119 26-09-2010 23:47:04 8.8 C 7.22 g/m*3 8.8 C 0 km/h
120 26-09-2010 23:59:04 8.6 C 7.13 g/m*3 8.6 C 0 km/h
121 27-09-2010 00:11:04 8.5 C 7.17 g/m*3 8.5 C 0 km/h
122 27-09-2010 00:23:04 8.2 C 7.03 g/m*3 8.2 C 0 km/h
123 27-09-2010 00:35:04 8.1 C 6.99 g/m*3 8.1 C 0 km/h
124 27-09-2010 00:47:04 7.9 C 6.98 g/m*3 7.9 C 0 km/h
125 27-09-2010 00:59:04 7.9 C 7.15 g/m*3 7.9 C 0 km/h
Sensor: Nr:Datum:Temp:Abs-Feuchte:Windchill:Wind:
Aussen-T/F 126 27-09-2010 01:11:04 7.8 C 7.18 g/m*3 7.8 C 0 km/h
127 27-09-2010 01:23:04 7.6 C 7.09 g/m*3 7.6 C 0 km/h
128 27-09-2010 01:35:04 7.5 C 7.04 g/m*3 7.5 C 0 km/h
129 27-09-2010 01:47:04 7.3 C 6.95 g/m*3 7.3 C 0 km/h
130 27-09-2010 01:59:04 7.1 C 6.94 g/m*3 7.1 C 0 km/h
131 27-09-2010 02:11:04 7 C 6.9 g/m*3 7 C 0 km/h
132 27-09-2010 02:23:04 7 C 6.9 g/m*3 7 C 0 km/h
133 27-09-2010 02:35:05 6.8 C 6.81 g/m*3 6.8 C 0 km/h
134 27-09-2010 02:47:05 6.7 C 6.84 g/m*3 6.7 C 0 km/h
135 27-09-2010 02:59:05 6.7 C 6.84 g/m*3 6.7 C 0 km/h
136 27-09-2010 03:11:05 6.5 C 6.75 g/m*3 6.5 C 0 km/h
137 27-09-2010 03:23:05 6.7 C 6.84 g/m*3 6.7 C 0 km/h
138 27-09-2010 03:35:05 6.4 C 6.71 g/m*3 6.4 C 0 km/h
139 27-09-2010 03:47:05 6.3 C 6.66 g/m*3 6.3 C 0 km/h
140 27-09-2010 03:59:05 6.4 C 6.78 g/m*3 6.4 C 0 km/h
141 27-09-2010 04:11:05 6.5 C 6.9 g/m*3 6.5 C 0 km/h
142 27-09-2010 04:23:05 6.4 C 6.85 g/m*3 6.4 C 0 km/h
143 27-09-2010 04:35:05 6.3 C 6.81 g/m*3 6.3 C 0 km/h
144 27-09-2010 04:47:05 6.1 C 6.72 g/m*3 6.1 C 0 km/h
145 27-09-2010 04:59:05 5.9 C 6.71 g/m*3 5.9 C 0 km/h
146 27-09-2010 05:11:05 5.9 C 6.71 g/m*3 5.9 C 0 km/h
147 27-09-2010 05:23:05 6.1 C 6.72 g/m*3 6.1 C 0 km/h
148 27-09-2010 05:35:05 6.3 C 6.81 g/m*3 6.3 C 0 km/h
149 27-09-2010 05:47:05 6.4 C 6.93 g/m*3 6.4 C 0 km/h
150 27-09-2010 05:59:05 6.5 C 6.97 g/m*3 6.5 C 0 km/h
Sensor: Nr:Datum:Temp:Abs-Feuchte:Windchill:Wind:
Aussen-T/F 151 27-09-2010 06:11:05 6.5 C 6.97 g/m*3 6.5 C 0 km/h
152 27-09-2010 06:23:05 6.4 C 6.93 g/m*3 6.4 C 0 km/h
153 27-09-2010 06:35:05 6.2 C 6.84 g/m*3 6.2 C 0 km/h
154 27-09-2010 06:47:06 6.2 C 6.84 g/m*3 6.2 C 0 km/h
155 27-09-2010 06:59:06 6.3 C 6.88 g/m*3 6.3 C 0 km/h
156 27-09-2010 07:11:04 6.3 C 6.88 g/m*3 6.3 C 0 km/h
157 27-09-2010 07:23:04 6.6 C 7.02 g/m*3 6.6 C 0 km/h
158 27-09-2010 07:35:04 6.7 C 7.14 g/m*3 6.7 C 0 km/h
159 27-09-2010 07:47:02 6.9 C 7.24 g/m*3 6.9 C 0 km/h
160 27-09-2010 07:59:02 7.2 C 7.38 g/m*3 7.2 C 0 km/h
161 27-09-2010 08:11:02 7.5 C 7.52 g/m*3 7.5 C 0 km/h
162 27-09-2010 08:23:02 7.5 C 7.52 g/m*3 7.5 C 0 km/h
163 27-09-2010 08:35:02 7.6 C 7.57 g/m*3 7.6 C 0 km/h
164 27-09-2010 08:47:02 7.8 C 7.67 g/m*3 7.8 C 0 km/h
165 27-09-2010 08:59:02 8.1 C 7.74 g/m*3 8.1 C 0 km/h
166 27-09-2010 09:11:02 8.5 C 7.94 g/m*3 8.5 C 0 km/h
167 27-09-2010 09:23:02 8.8 C 8.09 g/m*3 8.8 C 0 km/h
168 27-09-2010 09:35:02 9.2 C 8.22 g/m*3 9.2 C 0 km/h
169 27-09-2010 09:47:01 9.6 C 8.34 g/m*3 9.6 C 0 km/h
170 27-09-2010 09:59:01 10.1 C 8.42 g/m*3 10.1 C 0 km/h
171 27-09-2010 10:11:02 10.4 C 8.29 g/m*3 10.4 C 0 km/h
172 27-09-2010 10:23:01 10.4 C 7.9 g/m*3 10.4 C 0 km/h
173 27-09-2010 10:35:02 10.8 C 7.51 g/m*3 10.8 C 0 km/h
174 27-09-2010 10:47:01 11 C 7.11 g/m*3 11 C 0 km/h
175 27-09-2010 10:59:01 11.2 C 6.99 g/m*3 11.2 C 0 km/h
Sensor: Nr:Datum:Temp:Abs-Feuchte:Windchill:Wind:
Aussen-T/F 176 27-09-2010 11:11:02 11.7 C 7.01 g/m*3 11.7 C 0 km/h
177 27-09-2010 11:23:01 11.8 C 6.74 g/m*3 11.8 C 0 km/h
178 27-09-2010 11:35:02 12.2 C 6.8 g/m*3 12.2 C 0 km/h
179 27-09-2010 11:47:01 12 C 6.61 g/m*3 12 C 0 km/h
180 27-09-2010 11:59:01 12.2 C 6.8 g/m*3 12.2 C 0 km/h
181 27-09-2010 12:11:02 12.4 C 6.77 g/m*3 12.4 C 0 km/h
182 27-09-2010 12:23:01 12.8 C 6.94 g/m*3 12.8 C 0 km/h
183 27-09-2010 12:35:02 12.8 C 6.83 g/m*3 12.8 C 0 km/h
184 27-09-2010 12:47:01 13 C 6.8 g/m*3 13 C 0 km/h
185 27-09-2010 12:59:01 12.9 C 6.76 g/m*3 12.9 C 0 km/h
186 27-09-2010 13:11:02 13.1 C 6.73 g/m*3 13.1 C 0 km/h
187 27-09-2010 13:23:02 13.4 C 6.97 g/m*3 13.4 C 0 km/h
188 27-09-2010 13:35:01 13.6 C 6.71 g/m*3 13.6 C 0 km/h
189 27-09-2010 13:47:02 13.6 C 6.71 g/m*3 13.6 C 0 km/h
190 27-09-2010 13:59:02 13.7 C 6.51 g/m*3 13.7 C 0 km/h
191 27-09-2010 14:11:01 13.4 C 6.51 g/m*3 13.4 C 0 km/h
192 27-09-2010 14:23:02 13.3 C 6.7 g/m*3 13.3 C 0 km/h
193 27-09-2010 14:35:01 13.4 C 6.74 g/m*3 13.4 C 0 km/h
194 27-09-2010 14:47:03 13.2 C 6.77 g/m*3 13.2 C 0 km/h
195 27-09-2010 14:59:03 13 C 6.58 g/m*3 13 C 0 km/h
196 27-09-2010 15:11:02 13.4 C 6.74 g/m*3 13.4 C 0 km/h
197 27-09-2010 15:23:02 13.6 C 6.59 g/m*3 13.6 C 0 km/h
198 27-09-2010 15:35:02 13.6 C 6.47 g/m*3 13.6 C 0 km/h
199 27-09-2010 15:47:02 13.2 C 6.66 g/m*3 13.2 C 0 km/h
200 27-09-2010 15:59:02 13.2 C 6.77 g/m*3 13.2 C 0 km/h
Sensor: Nr:Datum:Temp:Abs-Feuchte:Windchill:Wind:
Aussen-T/F 201 27-09-2010 16:11:01 13.4 C 6.97 g/m*3 13.4 C 0 km/h
202 27-09-2010 16:23:02 13.4 C 7.44 g/m*3 13.4 C 0 km/h
203 27-09-2010 16:35:02 13.4 C 7.44 g/m*3 13.4 C 0 km/h
204 27-09-2010 16:47:01 13.3 C 7.05 g/m*3 13.3 C 0 km/h
205 27-09-2010 16:59:01 13.4 C 7.09 g/m*3 13.4 C 0 km/h
206 27-09-2010 17:11:01 13.2 C 7.58 g/m*3 13.2 C 0 km/h
207 27-09-2010 17:23:01 13 C 7.6 g/m*3 13 C 0 km/h
208 27-09-2010 17:35:02 12.8 C 7.73 g/m*3 12.8 C 0 km/h
209 27-09-2010 17:47:02 12.8 C 7.84 g/m*3 12.8 C 0 km/h
210 27-09-2010 17:59:02 12.7 C 7.68 g/m*3 12.7 C 0 km/h
211 27-09-2010 18:11:02 12.5 C 7.59 g/m*3 12.5 C 0 km/h
212 27-09-2010 18:23:01 12.3 C 7.71 g/m*3 12.3 C 0 km/h
213 27-09-2010 18:35:02 11.9 C 7.73 g/m*3 11.9 C 0 km/h
214 27-09-2010 18:47:02 11.7 C 7.74 g/m*3 11.7 C 0 km/h
215 27-09-2010 18:59:02 11.3 C 7.85 g/m*3 11.3 C 0 km/h
216 27-09-2010 19:11:02 10.8 C 8.01 g/m*3 10.8 C 0 km/h
217 27-09-2010 19:23:02 10.7 C 8.15 g/m*3 10.7 C 0 km/h
218 27-09-2010 19:35:02 10.5 C 8.15 g/m*3 10.5 C 0 km/h
219 27-09-2010 19:47:02 10.5 C 8.15 g/m*3 10.5 C 0 km/h
220 27-09-2010 19:59:02 10.4 C 8.19 g/m*3 10.4 C 0 km/h
221 27-09-2010 20:11:02 10.3 C 8.24 g/m*3 10.3 C 0 km/h
222 27-09-2010 20:23:02 10.3 C 8.33 g/m*3 10.3 C 0 km/h
223 27-09-2010 20:35:02 10.3 C 8.43 g/m*3 10.3 C 0 km/h
224 27-09-2010 20:47:01 10.3 C 8.43 g/m*3 10.3 C 0 km/h
225 27-09-2010 20:59:01 10.3 C 8.52 g/m*3 10.3 C 0 km/h
Sensor: Nr:Datum:Temp:Abs-Feuchte:Windchill:Wind:
Aussen-T/F 226 27-09-2010 21:11:02 10.4 C 8.58 g/m*3 10.4 C 0 km/h
227 27-09-2010 21:23:01 10.2 C 8.47 g/m*3 10.2 C 0 km/h
228 27-09-2010 21:35:02 10.3 C 8.52 g/m*3 10.3 C 0 km/h
229 27-09-2010 21:47:02 10.4 C 8.58 g/m*3 10.4 C 0 km/h
230 27-09-2010 21:59:03 10.4 C 8.58 g/m*3 10.4 C 0 km/h
231 27-09-2010 22:11:02 10.4 C 8.58 g/m*3 10.4 C 0 km/h
232 27-09-2010 22:24:10 10.4 C 8.67 g/m*3 10.4 C 0 km/h
233 27-09-2010 22:36:10 10.2 C 8.56 g/m*3 10.2 C 0 km/h
234 27-09-2010 22:48:10 10.2 C 8.56 g/m*3 10.2 C 0 km/h
235 27-09-2010 23:00:10 10.2 C 8.56 g/m*3 10.2 C 0 km/h
236 27-09-2010 23:12:10 10.2 C 8.66 g/m*3 10.2 C 0 km/h
237 27-09-2010 23:24:10 10.2 C 8.66 g/m*3 10.2 C 0 km/h
238 27-09-2010 23:36:10 10.1 C 8.61 g/m*3 10.1 C 0 km/h
239 27-09-2010 23:48:10 10.1 C 8.7 g/m*3 10.1 C 0 km/h
240 28-09-2010 00:00:10 10.1 C 8.7 g/m*3 10.1 C 0 km/h
241 28-09-2010 00:12:10 10 C 8.64 g/m*3 10 C 0 km/h
242 28-09-2010 00:24:10 10 C 8.64 g/m*3 10 C 0 km/h
243 28-09-2010 00:36:10 10 C 8.64 g/m*3 10 C 0 km/h
244 28-09-2010 00:48:10 9.9 C 8.78 g/m*3 9.9 C 0 km/h
245 28-09-2010 01:00:10 10 C 8.74 g/m*3 10 C 0 km/h
246 28-09-2010 01:12:11 10 C 8.74 g/m*3 10 C 0 km/h
247 28-09-2010 01:24:11 10 C 8.74 g/m*3 10 C 0 km/h
248 28-09-2010 01:36:11 10 C 8.74 g/m*3 10 C 0 km/h
249 28-09-2010 01:48:11 9.9 C 8.78 g/m*3 9.9 C 0 km/h
250 28-09-2010 02:00:11 9.9 C 8.78 g/m*3 9.9 C 0 km/h
Sensor: Nr:Datum:Temp:Abs-Feuchte:Windchill:Wind:
Aussen-T/F 251 28-09-2010 02:12:11 9.9 C 8.78 g/m*3 9.9 C 0 km/h
252 28-09-2010 02:24:11 9.9 C 8.78 g/m*3 9.9 C 0 km/h
253 28-09-2010 02:36:11 9.9 C 8.78 g/m*3 9.9 C 0 km/h
254 28-09-2010 02:48:11 9.9 C 8.78 g/m*3 9.9 C 0 km/h
255 28-09-2010 03:00:11 9.9 C 8.87 g/m*3 9.9 C 0 km/h
256 28-09-2010 03:12:11 9.9 C 8.87 g/m*3 9.9 C 0 km/h
257 28-09-2010 03:24:11 9.9 C 8.87 g/m*3 9.9 C 0 km/h
258 28-09-2010 03:36:12 9.9 C 8.87 g/m*3 9.9 C 0 km/h
259 28-09-2010 03:48:12 9.9 C 8.87 g/m*3 9.9 C 0 km/h
260 28-09-2010 04:00:12 9.9 C 8.87 g/m*3 9.9 C 0 km/h
261 28-09-2010 04:12:12 9.9 C 8.87 g/m*3 9.9 C 0 km/h
262 28-09-2010 04:24:12 9.9 C 8.87 g/m*3 9.9 C 0 km/h
263 28-09-2010 04:36:12 9.9 C 8.87 g/m*3 9.9 C 0 km/h
264 28-09-2010 04:48:12 10 C 8.83 g/m*3 10 C 0 km/h
265 28-09-2010 05:00:12 10 C 8.93 g/m*3 10 C 0 km/h
266 28-09-2010 05:12:12 10 C 8.93 g/m*3 10 C 0 km/h
267 28-09-2010 05:24:12 10 C 8.93 g/m*3 10 C 0 km/h
268 28-09-2010 05:36:12 10 C 8.93 g/m*3 10 C 0 km/h
269 28-09-2010 05:48:12 10 C 8.93 g/m*3 10 C 0 km/h
270 28-09-2010 06:00:12 10.1 C 8.98 g/m*3 10.1 C 0 km/h
271 28-09-2010 06:12:12 10.1 C 8.98 g/m*3 10.1 C 0 km/h
272 28-09-2010 06:24:12 10.1 C 8.98 g/m*3 10.1 C 0 km/h
273 28-09-2010 06:36:12 10.1 C 8.98 g/m*3 10.1 C 0 km/h
274 28-09-2010 06:48:12 10 C 8.93 g/m*3 10 C 0 km/h
275 28-09-2010 07:00:12 10 C 8.93 g/m*3 10 C 0 km/h
Sensor: Nr:Datum:Temp:Abs-Feuchte:Windchill:Wind:
Aussen-T/F 276 28-09-2010 07:12:12 10 C 8.93 g/m*3 10 C 0 km/h
277 28-09-2010 07:24:12 10 C 8.93 g/m*3 10 C 0 km/h
278 28-09-2010 07:36:13 10 C 8.93 g/m*3 10 C 0 km/h
279 28-09-2010 07:48:01 10 C 8.93 g/m*3 10 C 0 km/h
280 28-09-2010 08:00:01 10 C 8.93 g/m*3 10 C 0 km/h
281 28-09-2010 08:12:02 10 C 8.93 g/m*3 10 C 0 km/h
282 28-09-2010 08:24:02 10 C 8.93 g/m*3 10 C 0 km/h
283 28-09-2010 08:36:02 10.1 C 8.98 g/m*3 10.1 C 0 km/h
284 28-09-2010 08:48:03 10.1 C 8.98 g/m*3 10.1 C 0 km/h
285 28-09-2010 09:00:03 10.1 C 8.98 g/m*3 10.1 C 0 km/h
286 28-09-2010 09:12:03 10.2 C 9.04 g/m*3 10.2 C 0 km/h
287 28-09-2010 09:24:02 10.2 C 9.04 g/m*3 10.2 C 0 km/h
288 28-09-2010 09:36:02 10.3 C 9.1 g/m*3 10.3 C 0 km/h
289 28-09-2010 09:48:02 10.4 C 9.16 g/m*3 10.4 C 0 km/h
290 28-09-2010 10:00:02 10.4 C 9.16 g/m*3 10.4 C 0 km/h
291 28-09-2010 10:12:02 10.5 C 9.21 g/m*3 10.5 C 0 km/h
292 28-09-2010 10:24:01 10.5 C 9.21 g/m*3 10.5 C 0 km/h
293 28-09-2010 10:36:02 10.7 C 9.33 g/m*3 10.7 C 0 km/h
294 28-09-2010 10:48:02 10.8 C 9.39 g/m*3 10.8 C 0 km/h
295 28-09-2010 11:00:02 11 C 9.51 g/m*3 11 C 0 km/h
296 28-09-2010 11:12:02 11 C 9.51 g/m*3 11 C 0 km/h
297 28-09-2010 11:24:02 11.2 C 9.63 g/m*3 11.2 C 0 km/h
298 28-09-2010 11:36:02 11.3 C 9.69 g/m*3 11.3 C 0 km/h
299 28-09-2010 11:48:02 11.4 C 9.75 g/m*3 11.4 C 0 km/h
300 28-09-2010 12:00:02 11.4 C 9.75 g/m*3 11.4 C 0 km/h
Sensor: Nr:Datum:Temp:Abs-Feuchte:Windchill:Wind:
Aussen-T/F 301 28-09-2010 12:12:02 11.4 C 9.65 g/m*3 11.4 C 0 km/h
302 28-09-2010 12:24:02 11.4 C 9.65 g/m*3 11.4 C 0 km/h
303 28-09-2010 12:36:02 11.5 C 9.71 g/m*3 11.5 C 0 km/h
304 28-09-2010 12:48:02 11.7 C 9.83 g/m*3 11.7 C 0 km/h
305 28-09-2010 13:00:02 11.6 C 9.67 g/m*3 11.6 C 0 km/h
306 28-09-2010 13:12:02 11.6 C 9.67 g/m*3 11.6 C 0 km/h
307 28-09-2010 13:24:03 11.8 C 9.79 g/m*3 11.8 C 0 km/h
308 28-09-2010 13:36:02 11.8 C 9.68 g/m*3 11.8 C 0 km/h
309 28-09-2010 13:48:03 11.9 C 9.74 g/m*3 11.9 C 0 km/h
310 28-09-2010 14:00:03 11.9 C 9.74 g/m*3 11.9 C 0 km/h
311 28-09-2010 14:12:02 11.8 C 9.68 g/m*3 11.8 C 0 km/h
312 28-09-2010 14:24:02 11.7 C 9.62 g/m*3 11.7 C 0 km/h
313 28-09-2010 14:36:02 11.7 C 9.62 g/m*3 11.7 C 0 km/h
314 28-09-2010 14:48:02 11.7 C 9.62 g/m*3 11.7 C 0 km/h
315 28-09-2010 15:00:02 11.7 C 9.62 g/m*3 11.7 C 0 km/h
316 28-09-2010 15:12:02 11.7 C 9.73 g/m*3 11.7 C 0 km/h
317 28-09-2010 15:24:02 11.7 C 9.73 g/m*3 11.7 C 0 km/h
318 28-09-2010 15:36:02 11.8 C 9.79 g/m*3 11.8 C 0 km/h
319 28-09-2010 15:48:02 11.8 C 9.79 g/m*3 11.8 C 0 km/h
320 28-09-2010 16:00:02 11.8 C 9.79 g/m*3 11.8 C 0 km/h
321 28-09-2010 16:12:01 11.8 C 9.79 g/m*3 11.8 C 0 km/h
322 28-09-2010 16:24:01 11.8 C 9.79 g/m*3 11.8 C 0 km/h
323 28-09-2010 16:36:02 11.9 C 9.96 g/m*3 11.9 C 0 km/h
324 28-09-2010 16:48:02 11.9 C 9.96 g/m*3 11.9 C 0 km/h
325 28-09-2010 17:00:02 11.9 C 9.96 g/m*3 11.9 C 0 km/h
Sensor: Nr:Datum:Temp:Abs-Feuchte:Windchill:Wind:
Aussen-T/F 326 28-09-2010 17:12:02 12 C 10.02 g/m*3 12 C 0 km/h
327 28-09-2010 17:24:02 12 C 10.02 g/m*3 12 C 0 km/h
328 28-09-2010 17:36:02 12 C 10.02 g/m*3 12 C 0 km/h
329 28-09-2010 17:48:02 12 C 10.02 g/m*3 12 C 0 km/h
330 28-09-2010 18:00:02 11.9 C 9.96 g/m*3 11.9 C 0 km/h
331 28-09-2010 18:12:02 11.9 C 9.96 g/m*3 11.9 C 0 km/h
332 28-09-2010 18:24:02 11.9 C 10.06 g/m*3 11.9 C 0 km/h
333 28-09-2010 18:36:02 11.8 C 10 g/m*3 11.8 C 0 km/h
334 28-09-2010 18:48:01 11.8 C 10 g/m*3 11.8 C 0 km/h
335 28-09-2010 19:00:01 11.8 C 10 g/m*3 11.8 C 0 km/h
336 28-09-2010 19:12:02 11.7 C 9.94 g/m*3 11.7 C 0 km/h
337 28-09-2010 19:24:01 11.7 C 9.94 g/m*3 11.7 C 0 km/h
338 28-09-2010 19:36:01 11.7 C 9.94 g/m*3 11.7 C 0 km/h
339 28-09-2010 19:48:01 11.7 C 9.94 g/m*3 11.7 C 0 km/h
340 28-09-2010 20:00:01 11.6 C 9.87 g/m*3 11.6 C 0 km/h
341 28-09-2010 20:12:02 11.6 C 9.87 g/m*3 11.6 C 0 km/h
342 28-09-2010 20:24:02 11.6 C 9.87 g/m*3 11.6 C 0 km/h
343 28-09-2010 20:36:01 11.6 C 9.87 g/m*3 11.6 C 0 km/h
344 28-09-2010 20:48:01 11.6 C 9.87 g/m*3 11.6 C 0 km/h
345 28-09-2010 21:00:01 11.6 C 9.87 g/m*3 11.6 C 0 km/h
346 28-09-2010 21:12:01 11.6 C 9.87 g/m*3 11.6 C 0 km/h
347 28-09-2010 21:24:02 11.6 C 9.87 g/m*3 11.6 C 0 km/h
348 28-09-2010 21:36:01 11.5 C 9.81 g/m*3 11.5 C 0 km/h
349 28-09-2010 21:48:03 11.6 C 9.87 g/m*3 11.6 C 0 km/h
350 28-09-2010 22:00:03 11.6 C 9.87 g/m*3 11.6 C 0 km/h
Sensor: Nr:Datum:Temp:Abs-Feuchte:Windchill:Wind:
Aussen-T/F 351 28-09-2010 22:12:02 11.6 C 9.87 g/m*3 11.6 C 0 km/h
352 28-09-2010 22:24:03 11.6 C 9.87 g/m*3 11.6 C 0 km/h
353 28-09-2010 22:36:02 11.7 C 9.94 g/m*3 11.7 C 0 km/h
354 28-09-2010 22:48:03 11.6 C 9.87 g/m*3 11.6 C 0 km/h
355 28-09-2010 23:00:03 11.6 C 9.87 g/m*3 11.6 C 0 km/h
356 28-09-2010 23:12:02 11.6 C 9.87 g/m*3 11.6 C 0 km/h
357 28-09-2010 23:24:02 11.6 C 9.87 g/m*3 11.6 C 0 km/h
358 28-09-2010 23:36:02 11.6 C 9.87 g/m*3 11.6 C 0 km/h
359 28-09-2010 23:48:02 11.6 C 9.87 g/m*3 11.6 C 0 km/h
360 29-09-2010 00:00:02 11.6 C 9.87 g/m*3 11.6 C 0 km/h
361 29-09-2010 00:12:02 11.7 C 9.94 g/m*3 11.7 C 0 km/h
362 29-09-2010 00:24:02 11.6 C 9.87 g/m*3 11.6 C 0 km/h
363 29-09-2010 00:36:02 11.7 C 9.94 g/m*3 11.7 C 0 km/h
364 29-09-2010 00:48:02 11.6 C 9.87 g/m*3 11.6 C 0 km/h
365 29-09-2010 01:00:02 11.7 C 9.94 g/m*3 11.7 C 0 km/h
366 29-09-2010 01:12:03 11.6 C 9.87 g/m*3 11.6 C 0 km/h
367 29-09-2010 01:24:02 11.6 C 9.87 g/m*3 11.6 C 0 km/h
368 29-09-2010 01:36:02 11.6 C 9.87 g/m*3 11.6 C 0 km/h
369 29-09-2010 01:48:01 11.6 C 9.87 g/m*3 11.6 C 0 km/h
370 29-09-2010 02:00:01 11.6 C 9.87 g/m*3 11.6 C 0 km/h
371 29-09-2010 02:12:02 11.6 C 9.87 g/m*3 11.6 C 0 km/h
372 29-09-2010 02:24:01 11.5 C 9.81 g/m*3 11.5 C 0 km/h
373 29-09-2010 02:36:02 11.5 C 9.81 g/m*3 11.5 C 0 km/h
374 29-09-2010 02:48:01 11.6 C 9.87 g/m*3 11.6 C 0 km/h
375 29-09-2010 03:00:01 11.4 C 9.75 g/m*3 11.4 C 0 km/h
Sensor: Nr:Datum:Temp:Abs-Feuchte:Windchill:Wind:
Aussen-T/F 376 29-09-2010 03:12:01 11.3 C 9.69 g/m*3 11.3 C 0 km/h
377 29-09-2010 03:24:02 11.4 C 9.75 g/m*3 11.4 C 0 km/h
378 29-09-2010 03:36:01 11.7 C 9.94 g/m*3 11.7 C 0 km/h
379 29-09-2010 03:48:01 11.6 C 9.87 g/m*3 11.6 C 0 km/h
380 29-09-2010 04:00:01 11.6 C 9.87 g/m*3 11.6 C 0 km/h
381 29-09-2010 04:12:02 11.6 C 9.87 g/m*3 11.6 C 0 km/h
382 29-09-2010 04:24:01 11.6 C 9.87 g/m*3 11.6 C 0 km/h
383 29-09-2010 04:36:01 11.3 C 9.69 g/m*3 11.3 C 0 km/h
384 29-09-2010 04:48:01 11.3 C 9.69 g/m*3 11.3 C 0 km/h
385 29-09-2010 05:00:01 11.4 C 9.75 g/m*3 11.4 C 0 km/h
386 29-09-2010 05:12:02 11.4 C 9.75 g/m*3 11.4 C 0 km/h
387 29-09-2010 05:24:01 11.4 C 9.75 g/m*3 11.4 C 0 km/h
388 29-09-2010 05:36:01 11.4 C 9.75 g/m*3 11.4 C 0 km/h
389 29-09-2010 05:48:01 11.4 C 9.75 g/m*3 11.4 C 0 km/h
390 29-09-2010 06:00:01 11.7 C 9.94 g/m*3 11.7 C 0 km/h
391 29-09-2010 06:12:01 11.6 C 9.87 g/m*3 11.6 C 0 km/h
392 29-09-2010 06:24:02 11.5 C 9.81 g/m*3 11.5 C 0 km/h
393 29-09-2010 06:36:01 11.5 C 9.81 g/m*3 11.5 C 0 km/h
394 29-09-2010 06:48:02 11.3 C 9.69 g/m*3 11.3 C 0 km/h
395 29-09-2010 07:00:02 11.1 C 9.57 g/m*3 11.1 C 0 km/h
396 29-09-2010 07:12:01 10.8 C 9.39 g/m*3 10.8 C 0 km/h
397 29-09-2010 07:24:02 11 C 9.51 g/m*3 11 C 0 km/h
398 29-09-2010 07:36:01 11.2 C 9.63 g/m*3 11.2 C 0 km/h
399 29-09-2010 07:48:02 11.1 C 9.57 g/m*3 11.1 C 0 km/h
400 29-09-2010 08:00:02 11 C 9.51 g/m*3 11 C 0 km/h
Sensor: Nr:Datum:Temp:Abs-Feuchte:Windchill:Wind:
Aussen-T/F 401 29-09-2010 08:12:01 11.2 C 9.63 g/m*3 11.2 C 0 km/h
402 29-09-2010 08:24:01 11.2 C 9.63 g/m*3 11.2 C 0 km/h
403 29-09-2010 08:36:01 11.1 C 9.57 g/m*3 11.1 C 0 km/h
404 29-09-2010 08:48:02 11.4 C 9.75 g/m*3 11.4 C 0 km/h
405 29-09-2010 09:00:02 11.6 C 9.87 g/m*3 11.6 C 0 km/h
406 29-09-2010 09:12:01 11.2 C 9.53 g/m*3 11.2 C 0 km/h
407 29-09-2010 09:24:01 10.8 C 9.19 g/m*3 10.8 C 0 km/h
408 29-09-2010 09:36:02 11.7 C 9.62 g/m*3 11.7 C 0 km/h
409 29-09-2010 09:48:01 11.9 C 9.64 g/m*3 11.9 C 0 km/h
410 29-09-2010 10:00:01 12.1 C 9.22 g/m*3 12.1 C 0 km/h
411 29-09-2010 10:12:02 12.5 C 8.91 g/m*3 12.5 C 0 km/h
412 29-09-2010 10:24:01 12.9 C 8.79 g/m*3 12.9 C 0 km/h
413 29-09-2010 10:36:02 13.4 C 8.95 g/m*3 13.4 C 0 km/h
414 29-09-2010 10:48:01 13.7 C 9 g/m*3 13.7 C 0 km/h
415 29-09-2010 11:00:01 13.8 C 8.94 g/m*3 13.8 C 0 km/h
416 29-09-2010 11:12:02 13.7 C 8.53 g/m*3 13.7 C 0 km/h
417 29-09-2010 11:24:01 13.8 C 8.46 g/m*3 13.8 C 0 km/h
418 29-09-2010 11:36:01 14.1 C 8.01 g/m*3 14.1 C 0 km/h
419 29-09-2010 11:48:01 14.4 C 8.16 g/m*3 14.4 C 0 km/h
420 29-09-2010 12:00:01 14.5 C 8.21 g/m*3 14.5 C 0 km/h
421 29-09-2010 12:12:01 14.6 C 8.01 g/m*3 14.6 C 0 km/h
422 29-09-2010 12:24:01 14.1 C 7.52 g/m*3 14.1 C 0 km/h
423 29-09-2010 12:36:01 14 C 8.08 g/m*3 14 C 0 km/h
424 29-09-2010 12:48:01 14.8 C 8.36 g/m*3 14.8 C 0 km/h
425 29-09-2010 13:00:01 15.4 C 8.15 g/m*3 15.4 C 0 km/h
Sensor: Nr:Datum:Temp:Abs-Feuchte:Windchill:Wind:
Aussen-T/F 426 29-09-2010 13:12:01 15.7 C 7.89 g/m*3 15.7 C 0 km/h
427 29-09-2010 13:24:02 15.8 C 7.81 g/m*3 15.8 C 0 km/h
428 29-09-2010 13:36:01 15.9 C 7.99 g/m*3 15.9 C 0 km/h
429 29-09-2010 13:48:02 15.9 C 7.58 g/m*3 15.9 C 0 km/h
430 29-09-2010 14:00:02 16.3 C 7.35 g/m*3 16.3 C 0 km/h
431 29-09-2010 14:12:01 15.6 C 7.58 g/m*3 15.6 C 0 km/h
432 29-09-2010 14:24:02 15.8 C 7.94 g/m*3 15.8 C 0 km/h
433 29-09-2010 14:36:01 17.4 C 7.85 g/m*3 17.4 C 0 km/h
434 29-09-2010 14:48:02 19 C 7.33 g/m*3 19 C 0 km/h
435 29-09-2010 15:00:02 18.8 C 6.76 g/m*3 18.8 C 0 km/h
436 29-09-2010 15:12:01 18.8 C 6.93 g/m*3 18.8 C 0 km/h
437 29-09-2010 15:24:01 18.9 C 6.97 g/m*3 18.9 C 0 km/h
438 29-09-2010 15:36:02 19.6 C 6.92 g/m*3 19.6 C 0 km/h
439 29-09-2010 15:48:01 19.7 C 6.79 g/m*3 19.7 C 0 km/h
440 29-09-2010 16:00:02 18.8 C 7.41 g/m*3 18.8 C 0 km/h
441 29-09-2010 16:12:01 18.1 C 7.26 g/m*3 18.1 C 0 km/h
442 29-09-2010 16:24:01 18.1 C 7.57 g/m*3 18.1 C 0 km/h
443 29-09-2010 16:36:02 17.6 C 7.95 g/m*3 17.6 C 0 km/h
444 29-09-2010 16:48:01 18.1 C 7.88 g/m*3 18.1 C 0 km/h
445 29-09-2010 17:00:02 19 C 7.33 g/m*3 19 C 0 km/h
446 29-09-2010 17:12:01 19.4 C 7.01 g/m*3 19.4 C 0 km/h
447 29-09-2010 17:24:01 18.6 C 7.16 g/m*3 18.6 C 0 km/h
448 29-09-2010 17:36:02 17.6 C 7.95 g/m*3 17.6 C 0 km/h
449 29-09-2010 17:48:01 16.9 C 8.05 g/m*3 16.9 C 0 km/h
450 29-09-2010 18:00:01 15.9 C 7.58 g/m*3 15.9 C 0 km/h
Sensor: Nr:Datum:Temp:Abs-Feuchte:Windchill:Wind:
Aussen-T/F 451 29-09-2010 18:12:04 15.2 C 7.92 g/m*3 15.2 C 0 km/h
452 29-09-2010 18:24:02 14.4 C 7.91 g/m*3 14.4 C 0 km/h
453 29-09-2010 18:36:02 14 C 7.84 g/m*3 14 C 0 km/h
454 29-09-2010 18:48:01 13.6 C 7.89 g/m*3 13.6 C 0 km/h
455 29-09-2010 19:00:01 13.2 C 7.81 g/m*3 13.2 C 0 km/h
456 29-09-2010 19:12:01 13.1 C 7.76 g/m*3 13.1 C 0 km/h
457 29-09-2010 19:24:01 13 C 7.71 g/m*3 13 C 0 km/h
458 29-09-2010 19:36:02 13 C 7.6 g/m*3 13 C 0 km/h
459 29-09-2010 19:48:01 13.1 C 7.53 g/m*3 13.1 C 0 km/h
460 29-09-2010 20:00:01 13.3 C 7.63 g/m*3 13.3 C 0 km/h
461 29-09-2010 20:12:02 13.2 C 7.81 g/m*3 13.2 C 0 km/h
462 29-09-2010 20:24:01 13.2 C 7.81 g/m*3 13.2 C 0 km/h
463 29-09-2010 20:36:02 13 C 7.6 g/m*3 13 C 0 km/h
464 29-09-2010 20:48:01 12.9 C 7.66 g/m*3 12.9 C 0 km/h
465 29-09-2010 21:00:01 12.9 C 7.66 g/m*3 12.9 C 0 km/h
466 29-09-2010 21:12:02 12.8 C 7.84 g/m*3 12.8 C 0 km/h
467 29-09-2010 21:24:01 12.4 C 7.98 g/m*3 12.4 C 0 km/h
468 29-09-2010 21:38:05 12.2 C 8.09 g/m*3 12.2 C 0 km/h
469 29-09-2010 21:50:05 12.2 C 8.09 g/m*3 12.2 C 0 km/h
470 29-09-2010 22:02:05 12.3 C 8.25 g/m*3 12.3 C 0 km/h
471 29-09-2010 22:14:05 12.4 C 8.3 g/m*3 12.4 C 0 km/h
472 29-09-2010 22:26:05 12.4 C 8.41 g/m*3 12.4 C 0 km/h
473 29-09-2010 22:38:06 12.5 C 8.47 g/m*3 12.5 C 0 km/h
474 29-09-2010 22:50:06 12.3 C 8.36 g/m*3 12.3 C 0 km/h
475 29-09-2010 23:02:06 12 C 8.21 g/m*3 12 C 0 km/h
Sensor: Nr:Datum:Temp:Abs-Feuchte:Windchill:Wind:
Aussen-T/F 476 29-09-2010 23:14:06 11.8 C 8.31 g/m*3 11.8 C 0 km/h
477 29-09-2010 23:26:06 11.8 C 8.42 g/m*3 11.8 C 0 km/h
478 29-09-2010 23:38:06 12 C 8.31 g/m*3 12 C 0 km/h
479 29-09-2010 23:50:06 12.2 C 8.42 g/m*3 12.2 C 0 km/h
480 30-09-2010 00:02:06 12.4 C 8.52 g/m*3 12.4 C 0 km/h
481 30-09-2010 00:14:06 12.3 C 8.47 g/m*3 12.3 C 0 km/h
482 30-09-2010 00:26:06 12.1 C 8.36 g/m*3 12.1 C 0 km/h
483 30-09-2010 00:38:06 12.1 C 8.47 g/m*3 12.1 C 0 km/h
484 30-09-2010 00:50:06 11.9 C 8.37 g/m*3 11.9 C 0 km/h
485 30-09-2010 01:02:06 11.7 C 8.37 g/m*3 11.7 C 0 km/h
486 30-09-2010 01:14:06 11.8 C 7.89 g/m*3 11.8 C 0 km/h
487 30-09-2010 01:26:06 11.8 C 7.79 g/m*3 11.8 C 0 km/h
488 30-09-2010 01:38:06 12 C 7.46 g/m*3 12 C 0 km/h
489 30-09-2010 01:50:06 12 C 7.25 g/m*3 12 C 0 km/h
490 30-09-2010 02:02:06 12.1 C 7.4 g/m*3 12.1 C 0 km/h
491 30-09-2010 02:14:06 11.5 C 7.54 g/m*3 11.5 C 0 km/h
492 30-09-2010 02:26:06 11.4 C 7.7 g/m*3 11.4 C 0 km/h
493 30-09-2010 02:38:06 11.1 C 7.66 g/m*3 11.1 C 0 km/h
494 30-09-2010 02:50:07 11.2 C 7.8 g/m*3 11.2 C 0 km/h
495 30-09-2010 03:02:07 11.3 C 7.85 g/m*3 11.3 C 0 km/h
496 30-09-2010 03:14:07 11.2 C 7.91 g/m*3 11.2 C 0 km/h
497 30-09-2010 03:26:07 11 C 7.81 g/m*3 11 C 0 km/h
498 30-09-2010 03:38:07 11.1 C 7.86 g/m*3 11.1 C 0 km/h
499 30-09-2010 03:50:07 11.2 C 7.91 g/m*3 11.2 C 0 km/h
500 30-09-2010 04:02:07 11.3 C 7.96 g/m*3 11.3 C 0 km/h
Sensor: Nr:Datum:Temp:Abs-Feuchte:Windchill:Wind:
Aussen-T/F 501 30-09-2010 04:14:07 11.2 C 7.91 g/m*3 11.2 C 0 km/h
502 30-09-2010 04:26:07 11 C 7.81 g/m*3 11 C 0 km/h
503 30-09-2010 04:38:07 10.8 C 7.81 g/m*3 10.8 C 0 km/h
504 30-09-2010 04:50:07 10.8 C 7.91 g/m*3 10.8 C 0 km/h
505 30-09-2010 05:02:07 10.8 C 7.91 g/m*3 10.8 C 0 km/h
506 30-09-2010 05:14:07 10.8 C 7.91 g/m*3 10.8 C 0 km/h
507 30-09-2010 05:26:07 10.8 C 7.81 g/m*3 10.8 C 0 km/h
508 30-09-2010 05:38:07 10.7 C 7.76 g/m*3 10.7 C 0 km/h
509 30-09-2010 05:50:07 10.7 C 7.56 g/m*3 10.7 C 0 km/h
510 30-09-2010 06:02:07 10.8 C 7.31 g/m*3 10.8 C 0 km/h
511 30-09-2010 06:14:07 10.8 C 7.31 g/m*3 10.8 C 0 km/h
512 30-09-2010 06:26:07 10.7 C 7.27 g/m*3 10.7 C 0 km/h
513 30-09-2010 06:38:05 10.6 C 7.32 g/m*3 10.6 C 0 km/h
514 30-09-2010 06:50:02 10.6 C 7.42 g/m*3 10.6 C 0 km/h
515 30-09-2010 07:02:02 10.7 C 7.56 g/m*3 10.7 C 0 km/h
516 30-09-2010 07:14:02 10.7 C 7.66 g/m*3 10.7 C 0 km/h
517 30-09-2010 07:26:02 10.6 C 7.61 g/m*3 10.6 C 0 km/h
518 30-09-2010 07:38:02 10.6 C 7.71 g/m*3 10.6 C 0 km/h
519 30-09-2010 07:50:01 10.7 C 7.76 g/m*3 10.7 C 0 km/h
520 30-09-2010 08:02:01 10.7 C 7.66 g/m*3 10.7 C 0 km/h
521 30-09-2010 08:14:02 10.9 C 7.76 g/m*3 10.9 C 0 km/h
522 30-09-2010 08:26:01 10.9 C 7.76 g/m*3 10.9 C 0 km/h
523 30-09-2010 08:38:01 11 C 7.81 g/m*3 11 C 0 km/h
524 30-09-2010 08:50:01 11 C 7.81 g/m*3 11 C 0 km/h
525 30-09-2010 09:02:01 11.2 C 7.91 g/m*3 11.2 C 0 km/h
Sensor: Nr:Datum:Temp:Abs-Feuchte:Windchill:Wind:
Aussen-T/F 526 30-09-2010 09:14:01 11.4 C 8.01 g/m*3 11.4 C 0 km/h
527 30-09-2010 09:26:01 11.4 C 7.8 g/m*3 11.4 C 0 km/h
528 30-09-2010 09:38:01 11.5 C 7.75 g/m*3 11.5 C 0 km/h
529 30-09-2010 09:50:02 11.5 C 7.85 g/m*3 11.5 C 0 km/h
530 30-09-2010 10:02:02 11.4 C 8.01 g/m*3 11.4 C 0 km/h
531 30-09-2010 10:14:02 11.4 C 8.11 g/m*3 11.4 C 0 km/h
532 30-09-2010 10:26:03 11.7 C 8.37 g/m*3 11.7 C 0 km/h
533 30-09-2010 10:38:02 11.8 C 8.42 g/m*3 11.8 C 0 km/h
534 30-09-2010 10:50:02 11.9 C 8.47 g/m*3 11.9 C 0 km/h
535 30-09-2010 11:02:02 12 C 8.42 g/m*3 12 C 0 km/h
536 30-09-2010 11:14:02 12 C 8.42 g/m*3 12 C 0 km/h
537 30-09-2010 11:26:02 11.8 C 8.42 g/m*3 11.8 C 0 km/h
538 30-09-2010 11:38:01 11.7 C 8.47 g/m*3 11.7 C 0 km/h
539 30-09-2010 11:50:02 11.8 C 8.63 g/m*3 11.8 C 0 km/h
540 30-09-2010 12:02:01 11.9 C 8.79 g/m*3 11.9 C 0 km/h
541 30-09-2010 12:14:01 11.9 C 8.9 g/m*3 11.9 C 0 km/h
542 30-09-2010 12:26:02 12 C 8.95 g/m*3 12 C 0 km/h
543 30-09-2010 12:38:02 12.1 C 9.01 g/m*3 12.1 C 0 km/h
544 30-09-2010 12:50:02 12 C 9.06 g/m*3 12 C 0 km/h
545 30-09-2010 13:02:02 12.4 C 9.4 g/m*3 12.4 C 0 km/h
546 30-09-2010 13:14:02 12.6 C 9.51 g/m*3 12.6 C 0 km/h
547 30-09-2010 13:26:02 12.6 C 9.51 g/m*3 12.6 C 0 km/h
548 30-09-2010 13:38:02 12.6 C 9.62 g/m*3 12.6 C 0 km/h
549 30-09-2010 13:50:01 12.7 C 9.68 g/m*3 12.7 C 0 km/h
550 30-09-2010 14:02:02 12.9 C 9.81 g/m*3 12.9 C 0 km/h
Sensor: Nr:Datum:Temp:Abs-Feuchte:Windchill:Wind:
Aussen-T/F 551 30-09-2010 14:14:02 13 C 9.87 g/m*3 13 C 0 km/h
552 30-09-2010 14:26:01 12.8 C 9.86 g/m*3 12.8 C 0 km/h
553 30-09-2010 14:38:01 12.9 C 9.92 g/m*3 12.9 C 0 km/h
554 30-09-2010 14:50:01 13.1 C 10.04 g/m*3 13.1 C 0 km/h
555 30-09-2010 15:02:02 13.2 C 10.1 g/m*3 13.2 C 0 km/h
556 30-09-2010 15:14:03 13.2 C 10.1 g/m*3 13.2 C 0 km/h
557 30-09-2010 15:26:01 13.4 C 10.23 g/m*3 13.4 C 0 km/h
558 30-09-2010 15:38:01 13.3 C 10.17 g/m*3 13.3 C 0 km/h
559 30-09-2010 15:50:01 13.2 C 9.99 g/m*3 13.2 C 0 km/h
560 30-09-2010 16:02:01 13.5 C 10.29 g/m*3 13.5 C 0 km/h
561 30-09-2010 16:14:01 13.5 C 10.29 g/m*3 13.5 C 0 km/h
562 30-09-2010 16:26:02 13.6 C 10.24 g/m*3 13.6 C 0 km/h
563 30-09-2010 16:38:01 13.3 C 10.05 g/m*3 13.3 C 0 km/h
564 30-09-2010 16:50:03 13.1 C 9.93 g/m*3 13.1 C 0 km/h
565 30-09-2010 17:02:02 13.1 C 9.93 g/m*3 13.1 C 0 km/h
566 30-09-2010 17:14:02 13 C 9.98 g/m*3 13 C 0 km/h
567 30-09-2010 17:26:02 13 C 9.98 g/m*3 13 C 0 km/h
568 30-09-2010 17:38:02 12.9 C 10.03 g/m*3 12.9 C 0 km/h
569 30-09-2010 17:50:02 12.8 C 9.97 g/m*3 12.8 C 0 km/h
570 30-09-2010 18:02:02 12.7 C 9.91 g/m*3 12.7 C 0 km/h
571 30-09-2010 18:14:02 12.5 C 9.78 g/m*3 12.5 C 0 km/h
572 30-09-2010 18:26:02 12.5 C 9.78 g/m*3 12.5 C 0 km/h
573 30-09-2010 18:38:02 12.4 C 9.83 g/m*3 12.4 C 0 km/h
574 30-09-2010 18:50:01 12.3 C 9.77 g/m*3 12.3 C 0 km/h
575 30-09-2010 19:02:02 12.2 C 9.71 g/m*3 12.2 C 0 km/h
Sensor: Nr:Datum:Temp:Abs-Feuchte:Windchill:Wind:
Aussen-T/F 576 30-09-2010 19:14:02 12.1 C 9.76 g/m*3 12.1 C 0 km/h
577 30-09-2010 19:26:02 12.1 C 9.76 g/m*3 12.1 C 0 km/h
578 30-09-2010 19:38:02 12.2 C 9.82 g/m*3 12.2 C 0 km/h
579 30-09-2010 19:50:02 12.1 C 9.87 g/m*3 12.1 C 0 km/h
580 30-09-2010 20:02:02 12.2 C 9.93 g/m*3 12.2 C 0 km/h
581 30-09-2010 20:14:02 12.2 C 9.93 g/m*3 12.2 C 0 km/h
582 30-09-2010 20:26:02 12.1 C 9.87 g/m*3 12.1 C 0 km/h
583 30-09-2010 20:38:01 12.1 C 9.87 g/m*3 12.1 C 0 km/h
584 30-09-2010 20:50:02 12.2 C 10.04 g/m*3 12.2 C 0 km/h
585 30-09-2010 21:02:01 12.1 C 9.97 g/m*3 12.1 C 0 km/h
586 30-09-2010 21:14:01 12.1 C 9.97 g/m*3 12.1 C 0 km/h
587 30-09-2010 21:26:02 12.1 C 9.97 g/m*3 12.1 C 0 km/h
588 30-09-2010 21:38:01 12.1 C 9.97 g/m*3 12.1 C 0 km/h
589 30-09-2010 21:50:02 12 C 9.91 g/m*3 12 C 0 km/h
590 30-09-2010 22:02:02 12 C 9.91 g/m*3 12 C 0 km/h
591 30-09-2010 22:14:02 12 C 9.91 g/m*3 12 C 0 km/h
592 30-09-2010 22:26:02 11.9 C 9.96 g/m*3 11.9 C 0 km/h
593 30-09-2010 22:38:02 11.9 C 9.96 g/m*3 11.9 C 0 km/h
594 30-09-2010 22:50:01 12 C 9.91 g/m*3 12 C 0 km/h
595 30-09-2010 23:03:03 12 C 9.91 g/m*3 12 C 0 km/h
596 30-09-2010 23:15:03 11.9 C 9.96 g/m*3 11.9 C 0 km/h
597 30-09-2010 23:27:03 12 C 10.02 g/m*3 12 C 0 km/h
598 30-09-2010 23:39:03 12.1 C 10.08 g/m*3 12.1 C 0 km/h
599 30-09-2010 23:51:03 12 C 10.02 g/m*3 12 C 0 km/h
600 01-10-2010 00:03:03 12.1 C 10.08 g/m*3 12.1 C 0 km/h
Sensor: Nr:Datum:Temp:Abs-Feuchte:Windchill:Wind:
Aussen-T/F 601 01-10-2010 00:15:03 12 C 10.02 g/m*3 12 C 0 km/h
602 01-10-2010 00:27:03 12.1 C 10.08 g/m*3 12.1 C 0 km/h
603 01-10-2010 00:39:03 12.1 C 10.08 g/m*3 12.1 C 0 km/h
604 01-10-2010 00:51:03 11.8 C 10 g/m*3 11.8 C 0 km/h
605 01-10-2010 01:03:03 11.6 C 9.87 g/m*3 11.6 C 0 km/h
606 01-10-2010 01:15:04 11.7 C 9.94 g/m*3 11.7 C 0 km/h
607 01-10-2010 01:27:04 11.6 C 9.87 g/m*3 11.6 C 0 km/h
608 01-10-2010 01:39:04 11.5 C 9.81 g/m*3 11.5 C 0 km/h
609 01-10-2010 01:51:04 11.5 C 9.81 g/m*3 11.5 C 0 km/h
610 01-10-2010 02:03:04 11.5 C 9.81 g/m*3 11.5 C 0 km/h
611 01-10-2010 02:15:04 11.4 C 9.75 g/m*3 11.4 C 0 km/h
612 01-10-2010 02:27:04 11.4 C 9.75 g/m*3 11.4 C 0 km/h
613 01-10-2010 02:39:04 11.4 C 9.75 g/m*3 11.4 C 0 km/h
614 01-10-2010 02:51:04 11.5 C 9.81 g/m*3 11.5 C 0 km/h
615 01-10-2010 03:03:04 11.5 C 9.81 g/m*3 11.5 C 0 km/h
616 01-10-2010 03:15:04 11.5 C 9.81 g/m*3 11.5 C 0 km/h
617 01-10-2010 03:27:04 11.5 C 9.81 g/m*3 11.5 C 0 km/h
618 01-10-2010 03:39:04 11.5 C 9.81 g/m*3 11.5 C 0 km/h
619 01-10-2010 03:51:04 11.8 C 10 g/m*3 11.8 C 0 km/h
620 01-10-2010 04:03:04 11.7 C 9.94 g/m*3 11.7 C 0 km/h
621 01-10-2010 04:15:04 11.7 C 9.94 g/m*3 11.7 C 0 km/h
622 01-10-2010 04:27:04 11.7 C 9.94 g/m*3 11.7 C 0 km/h
623 01-10-2010 04:39:04 11.7 C 9.94 g/m*3 11.7 C 0 km/h
624 01-10-2010 04:51:04 11.7 C 9.94 g/m*3 11.7 C 0 km/h
625 01-10-2010 05:03:04 11.7 C 9.94 g/m*3 11.7 C 0 km/h
Sensor: Nr:Datum:Temp:Abs-Feuchte:Windchill:Wind:
Aussen-T/F 626 01-10-2010 05:15:04 11.7 C 9.94 g/m*3 11.7 C 0 km/h
627 01-10-2010 05:27:04 11.7 C 9.94 g/m*3 11.7 C 0 km/h
628 01-10-2010 05:39:04 11.5 C 9.81 g/m*3 11.5 C 0 km/h
629 01-10-2010 05:51:05 11.5 C 9.81 g/m*3 11.5 C 0 km/h
630 01-10-2010 06:03:05 11.4 C 9.75 g/m*3 11.4 C 0 km/h
631 01-10-2010 06:15:05 11.4 C 9.75 g/m*3 11.4 C 0 km/h
632 01-10-2010 06:27:05 11.4 C 9.75 g/m*3 11.4 C 0 km/h
633 01-10-2010 06:39:05 11.4 C 9.75 g/m*3 11.4 C 0 km/h
634 01-10-2010 06:51:05 11.4 C 9.75 g/m*3 11.4 C 0 km/h
635 01-10-2010 07:03:05 11.3 C 9.69 g/m*3 11.3 C 0 km/h
636 01-10-2010 07:15:02 11.3 C 9.69 g/m*3 11.3 C 0 km/h
637 01-10-2010 07:27:02 11 C 9.51 g/m*3 11 C 0 km/h
638 01-10-2010 07:39:02 10.8 C 9.39 g/m*3 10.8 C 0 km/h
639 01-10-2010 07:51:02 10.6 C 9.27 g/m*3 10.6 C 0 km/h
640 01-10-2010 08:03:02 10.4 C 9.16 g/m*3 10.4 C 0 km/h
641 01-10-2010 08:15:02 10.3 C 9.1 g/m*3 10.3 C 0 km/h
642 01-10-2010 08:27:02 10.2 C 9.04 g/m*3 10.2 C 0 km/h
643 01-10-2010 08:39:02 10.2 C 9.04 g/m*3 10.2 C 0 km/h
644 01-10-2010 08:51:02 10.4 C 9.16 g/m*3 10.4 C 0 km/h
645 01-10-2010 09:03:02 10.7 C 9.33 g/m*3 10.7 C 0 km/h
646 01-10-2010 09:15:01 11.1 C 9.57 g/m*3 11.1 C 0 km/h
647 01-10-2010 09:27:01 11.3 C 9.69 g/m*3 11.3 C 0 km/h
648 01-10-2010 09:39:02 11.4 C 9.75 g/m*3 11.4 C 0 km/h
649 01-10-2010 09:51:02 11.7 C 9.94 g/m*3 11.7 C 0 km/h
650 01-10-2010 10:03:02 11.7 C 9.94 g/m*3 11.7 C 0 km/h
Sensor: Nr:Datum:Temp:Abs-Feuchte:Windchill:Wind:
Aussen-T/F 651 01-10-2010 10:15:02 11.7 C 9.83 g/m*3 11.7 C 0 km/h
652 01-10-2010 10:27:02 11.6 C 9.56 g/m*3 11.6 C 0 km/h
653 01-10-2010 10:39:02 11.7 C 9.52 g/m*3 11.7 C 0 km/h
654 01-10-2010 10:51:02 11.9 C 9.32 g/m*3 11.9 C 0 km/h
655 01-10-2010 11:03:02 12.1 C 9.12 g/m*3 12.1 C 0 km/h
656 01-10-2010 11:15:02 12.2 C 8.85 g/m*3 12.2 C 0 km/h
657 01-10-2010 11:27:02 12.5 C 8.91 g/m*3 12.5 C 0 km/h
658 01-10-2010 11:39:02 12.5 C 8.69 g/m*3 12.5 C 0 km/h
659 01-10-2010 11:51:02 13 C 8.62 g/m*3 13 C 0 km/h
660 01-10-2010 12:03:02 12.8 C 8.51 g/m*3 12.8 C 0 km/h
661 01-10-2010 12:15:02 12.8 C 8.62 g/m*3 12.8 C 0 km/h
662 01-10-2010 12:27:02 12.7 C 8.46 g/m*3 12.7 C 0 km/h
663 01-10-2010 12:39:02 12.4 C 8.41 g/m*3 12.4 C 0 km/h
664 01-10-2010 12:51:02 12.7 C 8.46 g/m*3 12.7 C 0 km/h
665 01-10-2010 13:03:01 12.8 C 8.4 g/m*3 12.8 C 0 km/h
666 01-10-2010 13:15:02 13.3 C 8.32 g/m*3 13.3 C 0 km/h
667 01-10-2010 13:27:02 13.4 C 8.14 g/m*3 13.4 C 0 km/h
668 01-10-2010 13:39:01 13.1 C 7.76 g/m*3 13.1 C 0 km/h
669 01-10-2010 13:51:02 13.3 C 7.97 g/m*3 13.3 C 0 km/h
670 01-10-2010 14:03:01 13.1 C 7.87 g/m*3 13.1 C 0 km/h
671 01-10-2010 14:15:01 13.2 C 8.04 g/m*3 13.2 C 0 km/h
672 01-10-2010 14:27:01 13.3 C 7.86 g/m*3 13.3 C 0 km/h
673 01-10-2010 14:39:02 13.2 C 7.92 g/m*3 13.2 C 0 km/h
674 01-10-2010 14:51:02 13.8 C 7.98 g/m*3 13.8 C 0 km/h
675 01-10-2010 15:03:02 14.4 C 7.91 g/m*3 14.4 C 0 km/h
Sensor: Nr:Datum:Temp:Abs-Feuchte:Windchill:Wind:
Aussen-T/F 676 01-10-2010 15:15:02 15.2 C 7.92 g/m*3 15.2 C 0 km/h
677 01-10-2010 15:27:02 15.3 C 7.7 g/m*3 15.3 C 0 km/h
678 01-10-2010 15:39:02 15.7 C 7.76 g/m*3 15.7 C 0 km/h
679 01-10-2010 15:51:02 15.9 C 7.58 g/m*3 15.9 C 0 km/h
680 01-10-2010 16:03:02 16 C 7.49 g/m*3 16 C 0 km/h
681 01-10-2010 16:15:02 16.2 C 7.17 g/m*3 16.2 C 0 km/h
682 01-10-2010 16:27:02 17.1 C 7.42 g/m*3 17.1 C 0 km/h
683 01-10-2010 16:39:02 17.2 C 7.91 g/m*3 17.2 C 0 km/h
684 01-10-2010 16:51:02 17.2 C 8.05 g/m*3 17.2 C 0 km/h
685 01-10-2010 17:03:02 17.5 C 7.9 g/m*3 17.5 C 0 km/h
686 01-10-2010 17:15:02 16.6 C 8.19 g/m*3 16.6 C 0 km/h
687 01-10-2010 17:27:02 16 C 8.31 g/m*3 16 C 0 km/h
688 01-10-2010 17:39:02 15.4 C 8.54 g/m*3 15.4 C 0 km/h
689 01-10-2010 17:51:02 15.2 C 8.7 g/m*3 15.2 C 0 km/h
690 01-10-2010 18:03:02 14.8 C 8.74 g/m*3 14.8 C 0 km/h
691 01-10-2010 18:15:02 14.7 C 8.94 g/m*3 14.7 C 0 km/h
692 01-10-2010 18:27:02 14.5 C 8.83 g/m*3 14.5 C 0 km/h
693 01-10-2010 18:39:01 14.1 C 8.74 g/m*3 14.1 C 0 km/h
694 01-10-2010 18:51:02 13.6 C 8.71 g/m*3 13.6 C 0 km/h
695 01-10-2010 19:03:01 12.8 C 8.62 g/m*3 12.8 C 0 km/h
696 01-10-2010 19:15:02 12.5 C 8.58 g/m*3 12.5 C 0 km/h
697 01-10-2010 19:27:02 12.2 C 8.52 g/m*3 12.2 C 0 km/h
698 01-10-2010 19:39:02 11.8 C 8.53 g/m*3 11.8 C 0 km/h
699 01-10-2010 19:51:02 11.6 C 8.52 g/m*3 11.6 C 0 km/h
700 01-10-2010 20:03:02 11.4 C 8.42 g/m*3 11.4 C 0 km/h
Sensor: Nr:Datum:Temp:Abs-Feuchte:Windchill:Wind:
Aussen-T/F 701 01-10-2010 20:15:02 11.3 C 8.47 g/m*3 11.3 C 0 km/h
702 01-10-2010 20:27:02 11.2 C 8.51 g/m*3 11.2 C 0 km/h
703 01-10-2010 20:39:02 11.2 C 8.51 g/m*3 11.2 C 0 km/h
704 01-10-2010 20:51:01 11.2 C 8.62 g/m*3 11.2 C 0 km/h
705 01-10-2010 21:03:02 11.1 C 8.56 g/m*3 11.1 C 0 km/h
706 01-10-2010 21:15:01 11 C 8.51 g/m*3 11 C 0 km/h
707 01-10-2010 21:27:01 10.8 C 8.5 g/m*3 10.8 C 0 km/h
708 01-10-2010 21:39:01 10.7 C 8.55 g/m*3 10.7 C 0 km/h
709 01-10-2010 21:51:01 10.7 C 8.55 g/m*3 10.7 C 0 km/h
710 01-10-2010 22:03:02 10.8 C 8.7 g/m*3 10.8 C 0 km/h
711 01-10-2010 22:15:02 10.9 C 8.75 g/m*3 10.9 C 0 km/h
712 01-10-2010 22:27:02 11 C 8.81 g/m*3 11 C 0 km/h
713 01-10-2010 22:39:01 11.1 C 8.76 g/m*3 11.1 C 0 km/h
714 01-10-2010 22:52:04 11.1 C 8.76 g/m*3 11.1 C 0 km/h
715 01-10-2010 23:04:04 11.1 C 8.76 g/m*3 11.1 C 0 km/h
716 01-10-2010 23:16:04 11.1 C 8.76 g/m*3 11.1 C 0 km/h
717 01-10-2010 23:28:04 11 C 8.71 g/m*3 11 C 0 km/h
718 01-10-2010 23:40:04 11 C 8.71 g/m*3 11 C 0 km/h
719 01-10-2010 23:52:04 11.1 C 8.76 g/m*3 11.1 C 0 km/h
720 02-10-2010 00:04:04 11.2 C 8.82 g/m*3 11.2 C 0 km/h
721 02-10-2010 00:16:04 11.2 C 8.72 g/m*3 11.2 C 0 km/h
722 02-10-2010 00:28:04 11.2 C 8.72 g/m*3 11.2 C 0 km/h
723 02-10-2010 00:40:04 11.1 C 8.66 g/m*3 11.1 C 0 km/h
724 02-10-2010 00:52:04 10.9 C 8.65 g/m*3 10.9 C 0 km/h
725 02-10-2010 01:04:04 10.9 C 8.65 g/m*3 10.9 C 0 km/h
Sensor: Nr:Datum:Temp:Abs-Feuchte:Windchill:Wind:
Aussen-T/F 726 02-10-2010 01:16:04 11 C 8.71 g/m*3 11 C 0 km/h
727 02-10-2010 01:28:05 10.9 C 8.75 g/m*3 10.9 C 0 km/h
728 02-10-2010 01:40:05 11 C 8.81 g/m*3 11 C 0 km/h
729 02-10-2010 01:52:05 10.8 C 8.8 g/m*3 10.8 C 0 km/h
730 02-10-2010 02:04:05 10.8 C 8.8 g/m*3 10.8 C 0 km/h
731 02-10-2010 02:16:05 10.8 C 8.9 g/m*3 10.8 C 0 km/h
732 02-10-2010 02:28:05 11 C 9.01 g/m*3 11 C 0 km/h
733 02-10-2010 02:40:05 11.1 C 9.07 g/m*3 11.1 C 0 km/h
734 02-10-2010 02:52:05 11.1 C 9.07 g/m*3 11.1 C 0 km/h
735 02-10-2010 03:04:05 11.1 C 9.07 g/m*3 11.1 C 0 km/h
736 02-10-2010 03:16:05 11.1 C 9.17 g/m*3 11.1 C 0 km/h
737 02-10-2010 03:28:05 11.1 C 9.17 g/m*3 11.1 C 0 km/h
738 02-10-2010 03:40:05 11.1 C 9.17 g/m*3 11.1 C 0 km/h
739 02-10-2010 03:52:05 11.1 C 9.17 g/m*3 11.1 C 0 km/h
740 02-10-2010 04:04:05 11.1 C 9.27 g/m*3 11.1 C 0 km/h
741 02-10-2010 04:16:05 11.1 C 9.27 g/m*3 11.1 C 0 km/h
742 02-10-2010 04:28:05 11.1 C 9.27 g/m*3 11.1 C 0 km/h
743 02-10-2010 04:40:05 11.1 C 9.27 g/m*3 11.1 C 0 km/h
744 02-10-2010 04:52:05 11 C 9.21 g/m*3 11 C 0 km/h
745 02-10-2010 05:04:05 11 C 9.21 g/m*3 11 C 0 km/h
746 02-10-2010 05:16:05 11 C 9.31 g/m*3 11 C 0 km/h
747 02-10-2010 05:28:05 11 C 9.31 g/m*3 11 C 0 km/h
748 02-10-2010 05:40:05 10.9 C 9.35 g/m*3 10.9 C 0 km/h
749 02-10-2010 05:52:05 11 C 9.31 g/m*3 11 C 0 km/h
750 02-10-2010 06:04:06 11 C 9.31 g/m*3 11 C 0 km/h
Sensor: Nr:Datum:Temp:Abs-Feuchte:Windchill:Wind:
Aussen-T/F 751 02-10-2010 06:16:06 11 C 9.41 g/m*3 11 C 0 km/h
752 02-10-2010 06:28:06 11 C 9.41 g/m*3 11 C 0 km/h
753 02-10-2010 06:40:06 11 C 9.41 g/m*3 11 C 0 km/h
754 02-10-2010 06:52:06 11 C 9.41 g/m*3 11 C 0 km/h
755 02-10-2010 07:04:06 11 C 9.41 g/m*3 11 C 0 km/h
756 02-10-2010 07:16:06 11.1 C 9.47 g/m*3 11.1 C 0 km/h
757 02-10-2010 07:28:06 11.2 C 9.63 g/m*3 11.2 C 0 km/h
758 02-10-2010 07:40:03 11.2 C 9.63 g/m*3 11.2 C 0 km/h
759 02-10-2010 07:52:02 11.2 C 9.63 g/m*3 11.2 C 0 km/h
760 02-10-2010 08:04:02 11.3 C 9.69 g/m*3 11.3 C 0 km/h
761 02-10-2010 08:16:03 11.3 C 9.69 g/m*3 11.3 C 0 km/h
762 02-10-2010 08:28:03 11.4 C 9.75 g/m*3 11.4 C 0 km/h
763 02-10-2010 08:40:02 11.5 C 9.81 g/m*3 11.5 C 0 km/h
764 02-10-2010 08:52:02 11.8 C 10 g/m*3 11.8 C 0 km/h
765 02-10-2010 09:04:02 11.8 C 10 g/m*3 11.8 C 0 km/h
766 02-10-2010 09:16:02 11.8 C 10 g/m*3 11.8 C 0 km/h
767 02-10-2010 09:28:02 12 C 10.12 g/m*3 12 C 0 km/h
768 02-10-2010 09:40:02 12.1 C 10.19 g/m*3 12.1 C 0 km/h
769 02-10-2010 09:52:02 12.3 C 10.32 g/m*3 12.3 C 0 km/h
770 02-10-2010 10:04:02 12.6 C 10.51 g/m*3 12.6 C 0 km/h
771 02-10-2010 10:16:02 13 C 10.66 g/m*3 13 C 0 km/h
772 02-10-2010 10:28:02 13 C 10.66 g/m*3 13 C 0 km/h
773 02-10-2010 10:40:01 13.3 C 10.86 g/m*3 13.3 C 0 km/h
774 02-10-2010 10:52:02 13.8 C 11.08 g/m*3 13.8 C 0 km/h
775 02-10-2010 11:04:01 14 C 11.1 g/m*3 14 C 0 km/h
Sensor: Nr:Datum:Temp:Abs-Feuchte:Windchill:Wind:
Aussen-T/F 776 02-10-2010 11:16:01 14.4 C 11.37 g/m*3 14.4 C 0 km/h
777 02-10-2010 11:28:01 14.4 C 11.37 g/m*3 14.4 C 0 km/h
778 02-10-2010 11:40:02 14.4 C 11.25 g/m*3 14.4 C 0 km/h
779 02-10-2010 11:52:02 14.4 C 11.25 g/m*3 14.4 C 0 km/h
780 02-10-2010 12:04:02 14.5 C 11.32 g/m*3 14.5 C 0 km/h
781 02-10-2010 12:16:02 14.7 C 11.46 g/m*3 14.7 C 0 km/h
782 02-10-2010 12:28:02 15.2 C 11.68 g/m*3 15.2 C 0 km/h
783 02-10-2010 12:40:02 15.4 C 11.69 g/m*3 15.4 C 0 km/h
784 02-10-2010 12:52:02 15.4 C 11.43 g/m*3 15.4 C 0 km/h
785 02-10-2010 13:04:02 15.5 C 11.5 g/m*3 15.5 C 0 km/h
786 02-10-2010 13:16:02 15.6 C 11.57 g/m*3 15.6 C 0 km/h
787 02-10-2010 13:28:02 15.7 C 11.64 g/m*3 15.7 C 0 km/h
788 02-10-2010 13:40:02 15.9 C 11.65 g/m*3 15.9 C 0 km/h
789 02-10-2010 13:52:01 16 C 11.31 g/m*3 16 C 0 km/h
790 02-10-2010 14:04:01 15.7 C 11.24 g/m*3 15.7 C 0 km/h
791 02-10-2010 14:16:02 15.4 C 11.17 g/m*3 15.4 C 0 km/h
792 02-10-2010 14:28:02 15.4 C 11.3 g/m*3 15.4 C 0 km/h
793 02-10-2010 14:40:01 15.7 C 11.64 g/m*3 15.7 C 0 km/h
794 02-10-2010 14:52:03 16 C 11.72 g/m*3 16 C 0 km/h
795 02-10-2010 15:04:02 15.8 C 11.71 g/m*3 15.8 C 0 km/h
796 02-10-2010 15:16:02 15.9 C 11.65 g/m*3 15.9 C 0 km/h
797 02-10-2010 15:28:02 16 C 11.44 g/m*3 16 C 0 km/h
798 02-10-2010 15:40:02 16.2 C 11.31 g/m*3 16.2 C 0 km/h
799 02-10-2010 15:52:02 16.1 C 11.24 g/m*3 16.1 C 0 km/h
800 02-10-2010 16:04:02 16.2 C 11.31 g/m*3 16.2 C 0 km/h
Sensor: Nr:Datum:Temp:Abs-Feuchte:Windchill:Wind:
Aussen-T/F 801 02-10-2010 16:16:02 16.1 C 10.97 g/m*3 16.1 C 0 km/h
802 02-10-2010 16:28:02 16.2 C 11.03 g/m*3 16.2 C 0 km/h
803 02-10-2010 16:40:02 16.4 C 11.17 g/m*3 16.4 C 0 km/h
804 02-10-2010 16:52:02 16.3 C 10.96 g/m*3 16.3 C 0 km/h
805 02-10-2010 17:04:01 16.4 C 11.03 g/m*3 16.4 C 0 km/h
806 02-10-2010 17:16:01 16.3 C 10.82 g/m*3 16.3 C 0 km/h
807 02-10-2010 17:28:01 16.3 C 10.96 g/m*3 16.3 C 0 km/h
808 02-10-2010 17:40:02 16.3 C 10.96 g/m*3 16.3 C 0 km/h
809 02-10-2010 17:52:02 16.1 C 10.83 g/m*3 16.1 C 0 km/h
810 02-10-2010 18:04:02 15.9 C 10.97 g/m*3 15.9 C 0 km/h
811 02-10-2010 18:16:02 15.6 C 10.91 g/m*3 15.6 C 0 km/h
812 02-10-2010 18:28:02 15.3 C 10.84 g/m*3 15.3 C 0 km/h
813 02-10-2010 18:40:02 15.2 C 10.9 g/m*3 15.2 C 0 km/h
814 02-10-2010 18:52:02 15.1 C 10.97 g/m*3 15.1 C 0 km/h
815 02-10-2010 19:04:02 15 C 10.9 g/m*3 15 C 0 km/h
816 02-10-2010 19:16:02 15 C 10.9 g/m*3 15 C 0 km/h
817 02-10-2010 19:28:02 15 C 10.9 g/m*3 15 C 0 km/h
818 02-10-2010 19:40:02 14.9 C 10.96 g/m*3 14.9 C 0 km/h
819 02-10-2010 19:52:01 14.8 C 11.02 g/m*3 14.8 C 0 km/h
820 02-10-2010 20:04:01 14.8 C 11.02 g/m*3 14.8 C 0 km/h
821 02-10-2010 20:16:02 14.9 C 11.22 g/m*3 14.9 C 0 km/h
822 02-10-2010 20:28:02 14.9 C 11.22 g/m*3 14.9 C 0 km/h
823 02-10-2010 20:40:01 14.8 C 11.02 g/m*3 14.8 C 0 km/h
824 02-10-2010 20:52:01 14.6 C 11.01 g/m*3 14.6 C 0 km/h
825 02-10-2010 21:04:01 14.6 C 11.01 g/m*3 14.6 C 0 km/h
Sensor: Nr:Datum:Temp:Abs-Feuchte:Windchill:Wind:
Aussen-T/F 826 02-10-2010 21:16:02 14.5 C 10.94 g/m*3 14.5 C 0 km/h
827 02-10-2010 21:28:02 14.5 C 11.07 g/m*3 14.5 C 0 km/h
828 02-10-2010 21:40:01 14.5 C 11.07 g/m*3 14.5 C 0 km/h
829 02-10-2010 21:53:02 14.4 C 11 g/m*3 14.4 C 0 km/h
830 02-10-2010 22:05:02 14.4 C 11 g/m*3 14.4 C 0 km/h
831 02-10-2010 22:17:02 14.4 C 11.13 g/m*3 14.4 C 0 km/h
832 02-10-2010 22:29:02 14.4 C 11.13 g/m*3 14.4 C 0 km/h
833 02-10-2010 22:41:02 14.5 C 11.19 g/m*3 14.5 C 0 km/h
834 02-10-2010 22:53:02 14.7 C 11.33 g/m*3 14.7 C 0 km/h
835 02-10-2010 23:05:02 14.7 C 11.33 g/m*3 14.7 C 0 km/h
836 02-10-2010 23:17:02 14.6 C 11.14 g/m*3 14.6 C 0 km/h
837 02-10-2010 23:29:03 14.5 C 11.07 g/m*3 14.5 C 0 km/h
838 02-10-2010 23:41:03 14.5 C 11.07 g/m*3 14.5 C 0 km/h
839 02-10-2010 23:53:03 14.5 C 11.07 g/m*3 14.5 C 0 km/h
840 03-10-2010 00:05:03 14.6 C 11.14 g/m*3 14.6 C 0 km/h
841 03-10-2010 00:17:03 14.4 C 11 g/m*3 14.4 C 0 km/h
842 03-10-2010 00:29:03 14.3 C 10.93 g/m*3 14.3 C 0 km/h
843 03-10-2010 00:41:03 14.4 C 11.13 g/m*3 14.4 C 0 km/h
844 03-10-2010 00:53:03 14.5 C 11.19 g/m*3 14.5 C 0 km/h
845 03-10-2010 01:05:03 14.5 C 11.07 g/m*3 14.5 C 0 km/h
846 03-10-2010 01:17:03 14.6 C 10.89 g/m*3 14.6 C 0 km/h
847 03-10-2010 01:29:03 14.7 C 10.58 g/m*3 14.7 C 0 km/h
848 03-10-2010 01:41:03 14.8 C 10.51 g/m*3 14.8 C 0 km/h
849 03-10-2010 01:53:03 14.9 C 10.45 g/m*3 14.9 C 0 km/h
850 03-10-2010 02:05:03 15 C 10.26 g/m*3 15 C 0 km/h
Sensor: Nr:Datum:Temp:Abs-Feuchte:Windchill:Wind:
Aussen-T/F 851 03-10-2010 02:17:03 14.8 C 10.39 g/m*3 14.8 C 0 km/h
852 03-10-2010 02:29:03 14.6 C 10.39 g/m*3 14.6 C 0 km/h
853 03-10-2010 02:41:03 14.4 C 10.26 g/m*3 14.4 C 0 km/h
854 03-10-2010 02:53:03 14.1 C 10.32 g/m*3 14.1 C 0 km/h
855 03-10-2010 03:05:03 14 C 10.37 g/m*3 14 C 0 km/h
856 03-10-2010 03:17:03 13.8 C 10.48 g/m*3 13.8 C 0 km/h
857 03-10-2010 03:29:04 13.8 C 10.6 g/m*3 13.8 C 0 km/h
858 03-10-2010 03:41:04 13.9 C 10.67 g/m*3 13.9 C 0 km/h
859 03-10-2010 03:53:04 14.1 C 10.8 g/m*3 14.1 C 0 km/h
860 03-10-2010 04:05:04 14 C 10.74 g/m*3 14 C 0 km/h
861 03-10-2010 04:17:04 14.1 C 10.68 g/m*3 14.1 C 0 km/h
862 03-10-2010 04:29:04 14 C 10.61 g/m*3 14 C 0 km/h
863 03-10-2010 04:41:04 14 C 10.49 g/m*3 14 C 0 km/h
864 03-10-2010 04:53:04 14.3 C 10.57 g/m*3 14.3 C 0 km/h
865 03-10-2010 05:05:04 14.3 C 10.44 g/m*3 14.3 C 0 km/h
866 03-10-2010 05:17:04 14.4 C 10.38 g/m*3 14.4 C 0 km/h
867 03-10-2010 05:29:04 14.4 C 10.38 g/m*3 14.4 C 0 km/h
868 03-10-2010 05:41:04 14.2 C 10.26 g/m*3 14.2 C 0 km/h
869 03-10-2010 05:53:04 14 C 10.25 g/m*3 14 C 0 km/h
870 03-10-2010 06:05:04 13.8 C 10.37 g/m*3 13.8 C 0 km/h
871 03-10-2010 06:17:04 13.5 C 10.18 g/m*3 13.5 C 0 km/h
872 03-10-2010 06:29:04 13.4 C 10.23 g/m*3 13.4 C 0 km/h
873 03-10-2010 06:41:04 13.3 C 10.17 g/m*3 13.3 C 0 km/h
874 03-10-2010 06:53:04 13.3 C 10.28 g/m*3 13.3 C 0 km/h
875 03-10-2010 07:05:04 13.3 C 10.28 g/m*3 13.3 C 0 km/h
Sensor: Nr:Datum:Temp:Abs-Feuchte:Windchill:Wind:
Aussen-T/F 876 03-10-2010 07:17:04 13.4 C 10.46 g/m*3 13.4 C 0 km/h
877 03-10-2010 07:29:04 13.4 C 10.46 g/m*3 13.4 C 0 km/h
878 03-10-2010 07:41:05 13.5 C 10.53 g/m*3 13.5 C 0 km/h
879 03-10-2010 07:53:02 13.5 C 10.41 g/m*3 13.5 C 0 km/h
880 03-10-2010 08:05:01 13.7 C 10.42 g/m*3 13.7 C 0 km/h
881 03-10-2010 08:17:02 13.9 C 10.43 g/m*3 13.9 C 0 km/h
882 03-10-2010 08:29:02 13.9 C 10.43 g/m*3 13.9 C 0 km/h
883 03-10-2010 08:41:01 14.1 C 10.44 g/m*3 14.1 C 0 km/h
884 03-10-2010 08:53:03 14.3 C 10.32 g/m*3 14.3 C 0 km/h
885 03-10-2010 09:05:02 14.8 C 10.26 g/m*3 14.8 C 0 km/h
886 03-10-2010 09:17:02 15 C 10 g/m*3 15 C 0 km/h
887 03-10-2010 09:29:03 15.1 C 9.93 g/m*3 15.1 C 0 km/h
888 03-10-2010 09:41:02 15.2 C 10.12 g/m*3 15.2 C 0 km/h
889 03-10-2010 09:53:02 15.5 C 10.05 g/m*3 15.5 C 0 km/h
890 03-10-2010 10:05:02 16.2 C 10.2 g/m*3 16.2 C 0 km/h
891 03-10-2010 10:17:02 16.9 C 9.92 g/m*3 16.9 C 0 km/h
892 03-10-2010 10:29:03 17 C 9.69 g/m*3 17 C 0 km/h
893 03-10-2010 10:41:01 17 C 9.84 g/m*3 17 C 0 km/h
894 03-10-2010 10:53:02 16.8 C 9.87 g/m*3 16.8 C 0 km/h
895 03-10-2010 11:05:01 17.2 C 9.81 g/m*3 17.2 C 0 km/h
896 03-10-2010 11:17:02 17.6 C 10.35 g/m*3 17.6 C 0 km/h
897 03-10-2010 11:29:02 17.9 C 10.23 g/m*3 17.9 C 0 km/h
898 03-10-2010 11:41:02 18.5 C 9.97 g/m*3 18.5 C 0 km/h
899 03-10-2010 11:53:02 19.5 C 10.24 g/m*3 19.5 C 0 km/h
900 03-10-2010 12:05:03 19.7 C 9.85 g/m*3 19.7 C 0 km/h
Sensor: Nr:Datum:Temp:Abs-Feuchte:Windchill:Wind:
Aussen-T/F 901 03-10-2010 12:17:02 19.7 C 10.02 g/m*3 19.7 C 0 km/h
902 03-10-2010 12:29:02 19.3 C 9.45 g/m*3 19.3 C 0 km/h
903 03-10-2010 12:41:02 19.7 C 9.68 g/m*3 19.7 C 0 km/h
904 03-10-2010 12:53:01 20 C 9.68 g/m*3 20 C 0 km/h
905 03-10-2010 13:05:02 20.7 C 9.9 g/m*3 20.7 C 0 km/h
906 03-10-2010 13:17:01 21.1 C 9.58 g/m*3 21.1 C 0 km/h
907 03-10-2010 13:29:01 21.5 C 9.62 g/m*3 21.5 C 0 km/h
908 03-10-2010 13:41:01 21.7 C 8.97 g/m*3 21.7 C 0 km/h
909 03-10-2010 13:53:01 21.8 C 9.02 g/m*3 21.8 C 0 km/h
910 03-10-2010 14:05:02 22.2 C 8.83 g/m*3 22.2 C 0 km/h
911 03-10-2010 14:17:01 22.7 C 9.5 g/m*3 22.7 C 0 km/h
912 03-10-2010 14:29:01 23.2 C 9.15 g/m*3 23.2 C 0 km/h
913 03-10-2010 14:41:01 24.4 C 9.12 g/m*3 24.4 C 0 km/h
914 03-10-2010 14:53:01 24.2 C 8.8 g/m*3 24.2 C 0 km/h
915 03-10-2010 15:05:02 24.4 C 8.68 g/m*3 24.4 C 0 km/h
916 03-10-2010 15:17:02 24.4 C 8.68 g/m*3 24.4 C 0 km/h
917 03-10-2010 15:29:02 24.5 C 8.5 g/m*3 24.5 C 0 km/h
918 03-10-2010 15:41:01 24.9 C 8.7 g/m*3 24.9 C 0 km/h
919 03-10-2010 15:53:02 25.4 C 8.48 g/m*3 25.4 C 0 km/h
920 03-10-2010 16:05:01 24.6 C 8.33 g/m*3 24.6 C 0 km/h
921 03-10-2010 16:17:02 24.7 C 8.37 g/m*3 24.7 C 0 km/h
922 03-10-2010 16:29:02 25.1 C 8.57 g/m*3 25.1 C 0 km/h
923 03-10-2010 16:41:01 25.4 C 8.95 g/m*3 25.4 C 0 km/h
924 03-10-2010 16:53:03 25.8 C 9.15 g/m*3 25.8 C 0 km/h
925 03-10-2010 17:05:02 26.1 C 9.3 g/m*3 26.1 C 0 km/h
Sensor: Nr:Datum:Temp:Abs-Feuchte:Windchill:Wind:
Aussen-T/F 926 03-10-2010 17:17:02 25.6 C 9.05 g/m*3 25.6 C 0 km/h
927 03-10-2010 17:29:02 25.6 C 9.52 g/m*3 25.6 C 0 km/h
928 03-10-2010 17:41:03 24.4 C 9.35 g/m*3 24.4 C 0 km/h
929 03-10-2010 17:53:02 24.4 C 9.57 g/m*3 24.4 C 0 km/h
930 03-10-2010 18:05:01 23.6 C 10.21 g/m*3 23.6 C 0 km/h
931 03-10-2010 18:17:02 22.5 C 10.39 g/m*3 22.5 C 0 km/h
932 03-10-2010 18:29:02 21.4 C 10.5 g/m*3 21.4 C 0 km/h
933 03-10-2010 18:41:02 20.4 C 10.61 g/m*3 20.4 C 0 km/h
934 03-10-2010 18:53:02 19.8 C 10.76 g/m*3 19.8 C 0 km/h
935 03-10-2010 19:05:03 19.3 C 10.95 g/m*3 19.3 C 0 km/h
936 03-10-2010 19:17:02 19 C 10.76 g/m*3 19 C 0 km/h
937 03-10-2010 19:29:02 18.9 C 10.85 g/m*3 18.9 C 0 km/h
938 03-10-2010 19:41:02 18.4 C 10.85 g/m*3 18.4 C 0 km/h
939 03-10-2010 19:53:01 18.3 C 10.79 g/m*3 18.3 C 0 km/h
940 03-10-2010 20:05:02 18.1 C 10.82 g/m*3 18.1 C 0 km/h
941 03-10-2010 20:17:01 18.5 C 10.92 g/m*3 18.5 C 0 km/h
942 03-10-2010 20:29:01 18.4 C 10.85 g/m*3 18.4 C 0 km/h
943 03-10-2010 20:41:02 18.4 C 10.85 g/m*3 18.4 C 0 km/h
944 03-10-2010 20:53:01 18.3 C 10.94 g/m*3 18.3 C 0 km/h
945 03-10-2010 21:05:02 18.3 C 10.94 g/m*3 18.3 C 0 km/h
946 03-10-2010 21:17:02 18.1 C 10.97 g/m*3 18.1 C 0 km/h
947 03-10-2010 21:29:02 17.9 C 11.15 g/m*3 17.9 C 0 km/h
948 03-10-2010 21:41:02 17.8 C 11.08 g/m*3 17.8 C 0 km/h
949 03-10-2010 21:53:01 17.7 C 11.01 g/m*3 17.7 C 0 km/h
950 03-10-2010 22:05:01 17.6 C 11.1 g/m*3 17.6 C 0 km/h
Sensor: Nr:Datum:Temp:Abs-Feuchte:Windchill:Wind:
Aussen-T/F 951 03-10-2010 22:17:02 17.5 C 11.03 g/m*3 17.5 C 0 km/h
952 03-10-2010 22:29:02 17.5 C 10.88 g/m*3 17.5 C 0 km/h
953 03-10-2010 22:41:01 17.6 C 10.8 g/m*3 17.6 C 0 km/h
954 03-10-2010 22:53:02 17.6 C 10.5 g/m*3 17.6 C 0 km/h
955 03-10-2010 23:05:01 17.5 C 10.44 g/m*3 17.5 C 0 km/h
956 03-10-2010 23:18:06 17.6 C 10.5 g/m*3 17.6 C 0 km/h
957 03-10-2010 23:30:07 17.6 C 10.35 g/m*3 17.6 C 0 km/h
958 03-10-2010 23:42:07 17.6 C 10.2 g/m*3 17.6 C 0 km/h
959 03-10-2010 23:54:07 17.5 C 10.14 g/m*3 17.5 C 0 km/h
960 04-10-2010 00:06:07 17.4 C 9.93 g/m*3 17.4 C 0 km/h
961 04-10-2010 00:18:07 17.4 C 9.93 g/m*3 17.4 C 0 km/h
962 04-10-2010 00:30:07 17.2 C 9.81 g/m*3 17.2 C 0 km/h
963 04-10-2010 00:42:07 17.2 C 9.81 g/m*3 17.2 C 0 km/h
964 04-10-2010 00:54:07 17.2 C 9.81 g/m*3 17.2 C 0 km/h
965 04-10-2010 01:06:07 17.2 C 9.81 g/m*3 17.2 C 0 km/h
966 04-10-2010 01:18:07 17.2 C 9.67 g/m*3 17.2 C 0 km/h
967 04-10-2010 01:30:07 17.2 C 9.52 g/m*3 17.2 C 0 km/h
968 04-10-2010 01:42:07 17.2 C 9.52 g/m*3 17.2 C 0 km/h
969 04-10-2010 01:54:07 17.1 C 9.46 g/m*3 17.1 C 0 km/h
970 04-10-2010 02:06:07 17 C 9.55 g/m*3 17 C 0 km/h
971 04-10-2010 02:18:07 16.9 C 9.64 g/m*3 16.9 C 0 km/h
972 04-10-2010 02:30:07 16.8 C 9.72 g/m*3 16.8 C 0 km/h
973 04-10-2010 02:42:07 16.8 C 9.58 g/m*3 16.8 C 0 km/h
974 04-10-2010 02:54:07 16.6 C 9.75 g/m*3 16.6 C 0 km/h
975 04-10-2010 03:06:07 16.4 C 9.77 g/m*3 16.4 C 0 km/h
Sensor: Nr:Datum:Temp:Abs-Feuchte:Windchill:Wind:
Aussen-T/F 976 04-10-2010 03:18:07 15.9 C 10.02 g/m*3 15.9 C 0 km/h
977 04-10-2010 03:30:08 15.6 C 9.97 g/m*3 15.6 C 0 km/h
978 04-10-2010 03:42:08 15.5 C 10.05 g/m*3 15.5 C 0 km/h
979 04-10-2010 03:54:08 15.4 C 9.99 g/m*3 15.4 C 0 km/h
980 04-10-2010 04:06:08 15.3 C 9.92 g/m*3 15.3 C 0 km/h
981 04-10-2010 04:18:08 15.2 C 9.99 g/m*3 15.2 C 0 km/h
982 04-10-2010 04:30:08 15.2 C 9.99 g/m*3 15.2 C 0 km/h
983 04-10-2010 04:42:08 15 C 10 g/m*3 15 C 0 km/h
984 04-10-2010 04:54:08 14.8 C 10.01 g/m*3 14.8 C 0 km/h
985 04-10-2010 05:06:08 14.6 C 10.01 g/m*3 14.6 C 0 km/h
986 04-10-2010 05:18:08 14.4 C 9.89 g/m*3 14.4 C 0 km/h
987 04-10-2010 05:30:08 14.3 C 9.95 g/m*3 14.3 C 0 km/h
988 04-10-2010 05:42:08 14.1 C 9.95 g/m*3 14.1 C 0 km/h
989 04-10-2010 05:54:08 14.1 C 9.95 g/m*3 14.1 C 0 km/h
990 04-10-2010 06:06:08 14.2 C 10.01 g/m*3 14.2 C 0 km/h
991 04-10-2010 06:18:08 13.9 C 10.07 g/m*3 13.9 C 0 km/h
992 04-10-2010 06:30:08 14 C 9.89 g/m*3 14 C 0 km/h
993 04-10-2010 06:42:08 13.8 C 9.89 g/m*3 13.8 C 0 km/h
994 04-10-2010 06:54:08 13.7 C 9.83 g/m*3 13.7 C 0 km/h
995 04-10-2010 07:06:03 13.8 C 10.01 g/m*3 13.8 C 0 km/h
996 04-10-2010 07:18:02 13.7 C 9.83 g/m*3 13.7 C 0 km/h
997 04-10-2010 07:30:02 13.5 C 9.71 g/m*3 13.5 C 0 km/h
998 04-10-2010 07:42:03 13.5 C 9.71 g/m*3 13.5 C 0 km/h
999 04-10-2010 07:54:02 13.6 C 9.89 g/m*3 13.6 C 0 km/h
1000 04-10-2010 08:06:02 13.8 C 9.89 g/m*3 13.8 C 0 km/h
Sensor: Nr:Datum:Temp:Abs-Feuchte:Windchill:Wind:
Aussen-T/F 1001 04-10-2010 08:18:02 14.1 C 9.95 g/m*3 14.1 C 0 km/h
1002 04-10-2010 08:30:02 14.3 C 9.83 g/m*3 14.3 C 0 km/h
1003 04-10-2010 08:42:03 14.4 C 9.64 g/m*3 14.4 C 0 km/h
1004 04-10-2010 08:54:02 14.7 C 9.69 g/m*3 14.7 C 0 km/h
1005 04-10-2010 09:06:02 14.9 C 9.56 g/m*3 14.9 C 0 km/h
1006 04-10-2010 09:18:02 15 C 9.23 g/m*3 15 C 0 km/h
1007 04-10-2010 09:30:02 15 C 9.1 g/m*3 15 C 0 km/h
1008 04-10-2010 09:42:02 15 C 9.1 g/m*3 15 C 0 km/h
1009 04-10-2010 09:54:02 15.1 C 9.16 g/m*3 15.1 C 0 km/h
1010 04-10-2010 10:06:02 15.2 C 9.09 g/m*3 15.2 C 0 km/h
1011 04-10-2010 10:18:02 15.3 C 9.01 g/m*3 15.3 C 0 km/h
1012 04-10-2010 10:30:02 15.4 C 9.07 g/m*3 15.4 C 0 km/h
1013 04-10-2010 10:42:02 16 C 8.86 g/m*3 16 C 0 km/h
1014 04-10-2010 10:54:01 16.4 C 8.79 g/m*3 16.4 C 0 km/h
1015 04-10-2010 11:06:02 17.1 C 8.88 g/m*3 17.1 C 0 km/h
1016 04-10-2010 11:18:01 17.1 C 8.88 g/m*3 17.1 C 0 km/h
1017 04-10-2010 11:30:01 17.6 C 9 g/m*3 17.6 C 0 km/h
1018 04-10-2010 11:42:01 18 C 8.91 g/m*3 18 C 0 km/h
1019 04-10-2010 11:54:01 18.3 C 8.91 g/m*3 18.3 C 0 km/h
1020 04-10-2010 12:06:01 18.5 C 8.86 g/m*3 18.5 C 0 km/h
1021 04-10-2010 12:18:02 18 C 8.91 g/m*3 18 C 0 km/h
1022 04-10-2010 12:30:02 17.8 C 8.8 g/m*3 17.8 C 0 km/h
1023 04-10-2010 12:42:01 17.5 C 8.65 g/m*3 17.5 C 0 km/h
1024 04-10-2010 12:54:02 17.4 C 8.6 g/m*3 17.4 C 0 km/h
1025 04-10-2010 13:06:01 17.9 C 8.7 g/m*3 17.9 C 0 km/h
Sensor: Nr:Datum:Temp:Abs-Feuchte:Windchill:Wind:
Aussen-T/F 1026 04-10-2010 13:18:02 18.3 C 8.6 g/m*3 18.3 C 0 km/h
1027 04-10-2010 13:30:02 18.9 C 8.59 g/m*3 18.9 C 0 km/h
1028 04-10-2010 13:42:01 19.1 C 8.52 g/m*3 19.1 C 0 km/h
1029 04-10-2010 13:54:02 19.4 C 8.68 g/m*3 19.4 C 0 km/h
1030 04-10-2010 14:06:02 19.3 C 8.63 g/m*3 19.3 C 0 km/h
1031 04-10-2010 14:18:02 19.5 C 8.73 g/m*3 19.5 C 0 km/h
1032 04-10-2010 14:30:02 19.7 C 8.66 g/m*3 19.7 C 0 km/h
1033 04-10-2010 14:42:02 19.9 C 8.59 g/m*3 19.9 C 0 km/h
1034 04-10-2010 14:54:02 20.4 C 9.02 g/m*3 20.4 C 0 km/h
1035 04-10-2010 15:06:01 21.2 C 8.9 g/m*3 21.2 C 0 km/h
1036 04-10-2010 15:18:02 22.3 C 8.29 g/m*3 22.3 C 0 km/h
1037 04-10-2010 15:30:02 22.7 C 8.69 g/m*3 22.7 C 0 km/h
1038 04-10-2010 15:42:02 23 C 8.63 g/m*3 23 C 0 km/h
1039 04-10-2010 15:54:02 23.3 C 8.57 g/m*3 23.3 C 0 km/h
1040 04-10-2010 16:06:02 23.1 C 8.27 g/m*3 23.1 C 0 km/h
1041 04-10-2010 16:18:02 23.4 C 8.2 g/m*3 23.4 C 0 km/h
1042 04-10-2010 16:30:02 23.9 C 8.44 g/m*3 23.9 C 0 km/h
1043 04-10-2010 16:42:02 23.9 C 8 g/m*3 23.9 C 0 km/h
1044 04-10-2010 16:54:01 23.9 C 8.22 g/m*3 23.9 C 0 km/h
1045 04-10-2010 17:06:02 23.3 C 8.15 g/m*3 23.3 C 0 km/h
1046 04-10-2010 17:18:01 22 C 8.54 g/m*3 22 C 0 km/h
1047 04-10-2010 17:30:01 20.4 C 9.38 g/m*3 20.4 C 0 km/h
1048 04-10-2010 17:42:01 19.5 C 9.73 g/m*3 19.5 C 0 km/h
1049 04-10-2010 17:54:01 20.5 C 9.61 g/m*3 20.5 C 0 km/h
1050 04-10-2010 18:06:02 20.2 C 9.44 g/m*3 20.2 C 0 km/h
Sensor: Nr:Datum:Temp:Abs-Feuchte:Windchill:Wind:
Aussen-T/F 1051 04-10-2010 18:18:02 19.5 C 9.57 g/m*3 19.5 C 0 km/h
1052 04-10-2010 18:30:02 18.7 C 9.61 g/m*3 18.7 C 0 km/h
1053 04-10-2010 18:42:01 17.8 C 9.71 g/m*3 17.8 C 0 km/h
1054 04-10-2010 18:54:01 17.2 C 9.81 g/m*3 17.2 C 0 km/h
1055 04-10-2010 19:06:01 16.9 C 10.07 g/m*3 16.9 C 0 km/h
1056 04-10-2010 19:18:02 16.8 C 10.15 g/m*3 16.8 C 0 km/h
1057 04-10-2010 19:30:02 16.5 C 10.11 g/m*3 16.5 C 0 km/h
1058 04-10-2010 19:42:01 16.2 C 10.07 g/m*3 16.2 C 0 km/h
1059 04-10-2010 19:54:03 16.2 C 10.07 g/m*3 16.2 C 0 km/h
1060 04-10-2010 20:06:02 16.4 C 10.19 g/m*3 16.4 C 0 km/h
1061 04-10-2010 20:18:02 16.5 C 10.11 g/m*3 16.5 C 0 km/h
1062 04-10-2010 20:30:03 16.4 C 10.05 g/m*3 16.4 C 0 km/h
1063 04-10-2010 20:42:02 16.1 C 9.87 g/m*3 16.1 C 0 km/h
1064 04-10-2010 20:54:02 15.7 C 9.9 g/m*3 15.7 C 0 km/h
1065 04-10-2010 21:06:01 15.6 C 9.97 g/m*3 15.6 C 0 km/h
1066 04-10-2010 21:18:02 15.5 C 10.05 g/m*3 15.5 C 0 km/h
1067 04-10-2010 21:30:02 15.6 C 9.97 g/m*3 15.6 C 0 km/h
1068 04-10-2010 21:42:02 15.4 C 9.85 g/m*3 15.4 C 0 km/h
1069 04-10-2010 21:54:01 15 C 9.87 g/m*3 15 C 0 km/h
1070 04-10-2010 22:06:02 14.8 C 9.88 g/m*3 14.8 C 0 km/h
1071 04-10-2010 22:19:04 14.7 C 9.95 g/m*3 14.7 C 0 km/h
1072 04-10-2010 22:31:04 14.5 C 9.95 g/m*3 14.5 C 0 km/h
1073 04-10-2010 22:43:04 14.5 C 9.95 g/m*3 14.5 C 0 km/h
1074 04-10-2010 22:55:04 14.3 C 9.83 g/m*3 14.3 C 0 km/h
1075 04-10-2010 23:07:04 14.2 C 9.89 g/m*3 14.2 C 0 km/h
Sensor: Nr:Datum:Temp:Abs-Feuchte:Windchill:Wind:
Aussen-T/F 1076 04-10-2010 23:19:04 14.2 C 9.89 g/m*3 14.2 C 0 km/h
1077 04-10-2010 23:31:04 14.3 C 9.95 g/m*3 14.3 C 0 km/h
1078 04-10-2010 23:43:05 14.2 C 9.89 g/m*3 14.2 C 0 km/h
1079 04-10-2010 23:55:05 14.1 C 9.95 g/m*3 14.1 C 0 km/h
1080 05-10-2010 00:07:05 14.1 C 9.95 g/m*3 14.1 C 0 km/h
1081 05-10-2010 00:19:05 14.1 C 9.95 g/m*3 14.1 C 0 km/h
1082 05-10-2010 00:31:05 14.2 C 10.01 g/m*3 14.2 C 0 km/h
1083 05-10-2010 00:43:05 14.3 C 10.07 g/m*3 14.3 C 0 km/h
1084 05-10-2010 00:55:05 14.3 C 10.07 g/m*3 14.3 C 0 km/h
1085 05-10-2010 01:07:05 14.2 C 10.01 g/m*3 14.2 C 0 km/h
1086 05-10-2010 01:19:05 14.1 C 9.95 g/m*3 14.1 C 0 km/h
1087 05-10-2010 01:31:05 13.8 C 9.77 g/m*3 13.8 C 0 km/h
1088 05-10-2010 01:43:05 13.8 C 9.89 g/m*3 13.8 C 0 km/h
1089 05-10-2010 01:55:05 13.8 C 9.89 g/m*3 13.8 C 0 km/h
1090 05-10-2010 02:07:05 13.4 C 9.65 g/m*3 13.4 C 0 km/h
1091 05-10-2010 02:19:05 13.5 C 9.71 g/m*3 13.5 C 0 km/h
1092 05-10-2010 02:31:05 13.5 C 9.83 g/m*3 13.5 C 0 km/h
1093 05-10-2010 02:43:05 13.6 C 10 g/m*3 13.6 C 0 km/h
1094 05-10-2010 02:55:05 13.6 C 10 g/m*3 13.6 C 0 km/h
1095 05-10-2010 03:07:05 13.6 C 10 g/m*3 13.6 C 0 km/h
1096 05-10-2010 03:19:05 13.6 C 10 g/m*3 13.6 C 0 km/h
1097 05-10-2010 03:31:05 13.7 C 10.07 g/m*3 13.7 C 0 km/h
1098 05-10-2010 03:43:05 13.6 C 10 g/m*3 13.6 C 0 km/h
1099 05-10-2010 03:55:06 13.5 C 9.94 g/m*3 13.5 C 0 km/h
1100 05-10-2010 04:07:06 13.5 C 9.94 g/m*3 13.5 C 0 km/h
Sensor: Nr:Datum:Temp:Abs-Feuchte:Windchill:Wind:
Aussen-T/F 1101 05-10-2010 04:19:06 13.6 C 10.12 g/m*3 13.6 C 0 km/h
1102 05-10-2010 04:31:06 13.6 C 10.12 g/m*3 13.6 C 0 km/h
1103 05-10-2010 04:43:06 13.6 C 10.12 g/m*3 13.6 C 0 km/h
1104 05-10-2010 04:55:06 13.7 C 10.18 g/m*3 13.7 C 0 km/h
1105 05-10-2010 05:07:06 13.7 C 10.18 g/m*3 13.7 C 0 km/h
1106 05-10-2010 05:19:06 13.7 C 10.18 g/m*3 13.7 C 0 km/h
1107 05-10-2010 05:31:06 13.6 C 10.12 g/m*3 13.6 C 0 km/h
1108 05-10-2010 05:43:06 13.5 C 10.06 g/m*3 13.5 C 0 km/h
1109 05-10-2010 05:55:06 13.5 C 10.18 g/m*3 13.5 C 0 km/h
1110 05-10-2010 06:07:06 13.4 C 10.23 g/m*3 13.4 C 0 km/h
1111 05-10-2010 06:19:06 13.4 C 10.35 g/m*3 13.4 C 0 km/h
1112 05-10-2010 06:31:06 13.4 C 10.35 g/m*3 13.4 C 0 km/h
1113 05-10-2010 06:43:06 13.4 C 10.46 g/m*3 13.4 C 0 km/h
1114 05-10-2010 06:55:06 13.5 C 10.53 g/m*3 13.5 C 0 km/h
1115 05-10-2010 07:07:01 13.4 C 10.46 g/m*3 13.4 C 0 km/h
1116 05-10-2010 07:19:02 13.4 C 10.58 g/m*3 13.4 C 0 km/h
1117 05-10-2010 07:31:02 13.4 C 10.58 g/m*3 13.4 C 0 km/h
1118 05-10-2010 07:43:02 13.4 C 10.58 g/m*3 13.4 C 0 km/h
1119 05-10-2010 07:55:02 13.4 C 10.58 g/m*3 13.4 C 0 km/h
1120 05-10-2010 08:07:02 13.4 C 10.58 g/m*3 13.4 C 0 km/h
1121 05-10-2010 08:19:02 13.2 C 10.45 g/m*3 13.2 C 0 km/h
1122 05-10-2010 08:31:02 13.1 C 10.38 g/m*3 13.1 C 0 km/h
1123 05-10-2010 08:43:02 13 C 10.32 g/m*3 13 C 0 km/h
1124 05-10-2010 08:55:02 13 C 10.32 g/m*3 13 C 0 km/h
1125 05-10-2010 09:07:02 13 C 10.43 g/m*3 13 C 0 km/h
Sensor: Nr:Datum:Temp:Abs-Feuchte:Windchill:Wind:
Aussen-T/F 1126 05-10-2010 09:19:02 13.2 C 10.56 g/m*3 13.2 C 0 km/h
1127 05-10-2010 09:31:01 13.4 C 10.69 g/m*3 13.4 C 0 km/h
1128 05-10-2010 09:43:01 13.4 C 10.81 g/m*3 13.4 C 0 km/h
1129 05-10-2010 09:55:02 13.5 C 10.88 g/m*3 13.5 C 0 km/h
1130 05-10-2010 10:07:01 13.8 C 11.08 g/m*3 13.8 C 0 km/h
1131 05-10-2010 10:19:02 14.3 C 11.43 g/m*3 14.3 C 0 km/h
1132 05-10-2010 10:31:02 14.7 C 11.83 g/m*3 14.7 C 0 km/h
1133 05-10-2010 10:43:02 15.2 C 12.07 g/m*3 15.2 C 0 km/h
1134 05-10-2010 10:55:02 16 C 12.67 g/m*3 16 C 0 km/h
1135 05-10-2010 11:07:02 17.2 C 13.62 g/m*3 17.2 C 0 km/h
1136 05-10-2010 11:19:02 17.3 C 13.7 g/m*3 17.3 C 0 km/h
1137 05-10-2010 11:31:02 17.4 C 13.34 g/m*3 17.4 C 0 km/h
1138 05-10-2010 11:43:02 17.3 C 12.37 g/m*3 17.3 C 0 km/h
1139 05-10-2010 11:55:01 18.2 C 11.97 g/m*3 18.2 C 0 km/h
1140 05-10-2010 12:07:02 18.3 C 11.73 g/m*3 18.3 C 0 km/h
1141 05-10-2010 12:19:02 17.9 C 11.45 g/m*3 17.9 C 0 km/h
1142 05-10-2010 12:31:01 18 C 11.37 g/m*3 18 C 0 km/h
1143 05-10-2010 12:43:01 17.9 C 11.3 g/m*3 17.9 C 0 km/h
1144 05-10-2010 12:55:02 18.4 C 11.32 g/m*3 18.4 C 0 km/h
1145 05-10-2010 13:07:01 18.7 C 11.37 g/m*3 18.7 C 0 km/h
1146 05-10-2010 13:19:02 18.9 C 11.18 g/m*3 18.9 C 0 km/h
1147 05-10-2010 13:31:01 19 C 11.08 g/m*3 19 C 0 km/h
1148 05-10-2010 13:43:01 19.3 C 11.44 g/m*3 19.3 C 0 km/h
1149 05-10-2010 13:55:02 20 C 11.06 g/m*3 20 C 0 km/h
1150 05-10-2010 14:07:02 19.9 C 10.31 g/m*3 19.9 C 0 km/h
Sensor: Nr:Datum:Temp:Abs-Feuchte:Windchill:Wind:
Aussen-T/F 1151 05-10-2010 14:19:02 19.5 C 10.57 g/m*3 19.5 C 0 km/h
1152 05-10-2010 14:31:02 19.6 C 10.8 g/m*3 19.6 C 0 km/h
1153 05-10-2010 14:43:02 18.7 C 11.05 g/m*3 18.7 C 0 km/h
1154 05-10-2010 14:55:02 18.6 C 11.94 g/m*3 18.6 C 0 km/h
1155 05-10-2010 15:07:01 19 C 12.22 g/m*3 19 C 0 km/h
1156 05-10-2010 15:19:02 17.9 C 12.06 g/m*3 17.9 C 0 km/h
1157 05-10-2010 15:31:02 18.3 C 12.51 g/m*3 18.3 C 0 km/h
1158 05-10-2010 15:43:02 19.3 C 13.27 g/m*3 19.3 C 0 km/h
1159 05-10-2010 15:55:01 19.5 C 13.09 g/m*3 19.5 C 0 km/h
1160 05-10-2010 16:07:02 19 C 12.55 g/m*3 19 C 0 km/h
1161 05-10-2010 16:19:01 18.7 C 12.65 g/m*3 18.7 C 0 km/h
1162 05-10-2010 16:31:02 18.4 C 12.43 g/m*3 18.4 C 0 km/h
1163 05-10-2010 16:43:02 18.3 C 12.51 g/m*3 18.3 C 0 km/h
1164 05-10-2010 16:55:02 18.1 C 12.21 g/m*3 18.1 C 0 km/h
1165 05-10-2010 17:07:02 17.7 C 11.92 g/m*3 17.7 C 0 km/h
1166 05-10-2010 17:19:01 17.2 C 11.42 g/m*3 17.2 C 0 km/h
1167 05-10-2010 17:31:02 16.8 C 11.58 g/m*3 16.8 C 0 km/h
1168 05-10-2010 17:43:02 16.8 C 11.72 g/m*3 16.8 C 0 km/h
1169 05-10-2010 17:55:02 17 C 11.72 g/m*3 17 C 0 km/h
1170 05-10-2010 18:07:02 17.1 C 11.65 g/m*3 17.1 C 0 km/h
1171 05-10-2010 18:19:02 17.1 C 11.65 g/m*3 17.1 C 0 km/h
1172 05-10-2010 18:31:02 17.1 C 11.35 g/m*3 17.1 C 0 km/h
1173 05-10-2010 18:43:02 17 C 11.29 g/m*3 17 C 0 km/h
1174 05-10-2010 18:55:02 16.8 C 11.29 g/m*3 16.8 C 0 km/h
1175 05-10-2010 19:07:02 16.6 C 11.3 g/m*3 16.6 C 0 km/h
Sensor: Nr:Datum:Temp:Abs-Feuchte:Windchill:Wind:
Aussen-T/F 1176 05-10-2010 19:19:03 16.5 C 11.23 g/m*3 16.5 C 0 km/h
1177 05-10-2010 19:31:02 16.5 C 11.37 g/m*3 16.5 C 0 km/h
1178 05-10-2010 19:43:02 17.3 C 11.64 g/m*3 17.3 C 0 km/h
1179 05-10-2010 19:55:02 16.4 C 11.03 g/m*3 16.4 C 0 km/h
1180 05-10-2010 20:07:02 16.4 C 11.03 g/m*3 16.4 C 0 km/h
1181 05-10-2010 20:19:02 16.4 C 11.03 g/m*3 16.4 C 0 km/h
1182 05-10-2010 20:31:02 16.4 C 11.03 g/m*3 16.4 C 0 km/h
1183 05-10-2010 20:43:02 16.3 C 10.96 g/m*3 16.3 C 0 km/h
1184 05-10-2010 20:55:02 16.3 C 10.68 g/m*3 16.3 C 0 km/h
1185 05-10-2010 21:07:02 16.1 C 10.55 g/m*3 16.1 C 0 km/h
1186 05-10-2010 21:19:02 16 C 10.35 g/m*3 16 C 0 km/h
1187 05-10-2010 21:31:01 15.6 C 10.24 g/m*3 15.6 C 0 km/h
1188 05-10-2010 21:43:01 15.4 C 10.12 g/m*3 15.4 C 0 km/h
1189 05-10-2010 21:55:02 15.3 C 10.06 g/m*3 15.3 C 0 km/h
1190 05-10-2010 22:07:01 15.2 C 9.99 g/m*3 15.2 C 0 km/h
1191 05-10-2010 22:19:02 15.3 C 9.92 g/m*3 15.3 C 0 km/h
1192 05-10-2010 22:31:01 15.4 C 9.99 g/m*3 15.4 C 0 km/h
1193 05-10-2010 22:43:01 15.2 C 9.99 g/m*3 15.2 C 0 km/h
1194 05-10-2010 22:55:02 15.4 C 9.99 g/m*3 15.4 C 0 km/h
1195 05-10-2010 23:07:01 15.6 C 9.97 g/m*3 15.6 C 0 km/h
1196 05-10-2010 23:19:02 15.6 C 9.97 g/m*3 15.6 C 0 km/h
1197 05-10-2010 23:31:01 15.6 C 9.97 g/m*3 15.6 C 0 km/h
1198 05-10-2010 23:43:01 15.6 C 9.97 g/m*3 15.6 C 0 km/h
1199 05-10-2010 23:55:02 15.6 C 9.97 g/m*3 15.6 C 0 km/h
1200 06-10-2010 00:07:01 15.6 C 9.97 g/m*3 15.6 C 0 km/h
Sensor: Nr:Datum:Temp:Abs-Feuchte:Windchill:Wind:
Aussen-T/F 1201 06-10-2010 00:19:02 15.6 C 9.97 g/m*3 15.6 C 0 km/h
1202 06-10-2010 00:31:01 15.6 C 9.97 g/m*3 15.6 C 0 km/h
1203 06-10-2010 00:43:01 15.6 C 9.97 g/m*3 15.6 C 0 km/h
1204 06-10-2010 00:55:02 15.6 C 9.97 g/m*3 15.6 C 0 km/h
1205 06-10-2010 01:07:02 15.5 C 9.91 g/m*3 15.5 C 0 km/h
1206 06-10-2010 01:19:02 15.5 C 9.91 g/m*3 15.5 C 0 km/h
1207 06-10-2010 01:31:03 15.5 C 10.05 g/m*3 15.5 C 0 km/h
1208 06-10-2010 01:43:03 15.5 C 10.05 g/m*3 15.5 C 0 km/h
1209 06-10-2010 01:55:02 15.5 C 10.05 g/m*3 15.5 C 0 km/h
1210 06-10-2010 02:07:01 15.5 C 10.05 g/m*3 15.5 C 0 km/h
1211 06-10-2010 02:19:02 15.5 C 10.18 g/m*3 15.5 C 0 km/h
1212 06-10-2010 02:31:02 15.4 C 10.25 g/m*3 15.4 C 0 km/h
1213 06-10-2010 02:43:02 15.4 C 10.25 g/m*3 15.4 C 0 km/h
1214 06-10-2010 02:55:01 15.4 C 10.12 g/m*3 15.4 C 0 km/h
1215 06-10-2010 03:07:01 15.3 C 10.19 g/m*3 15.3 C 0 km/h
1216 06-10-2010 03:19:02 15.3 C 10.06 g/m*3 15.3 C 0 km/h
1217 06-10-2010 03:31:01 15.3 C 10.06 g/m*3 15.3 C 0 km/h
1218 06-10-2010 03:43:02 15.3 C 10.06 g/m*3 15.3 C 0 km/h
1219 06-10-2010 03:55:02 15.2 C 10.12 g/m*3 15.2 C 0 km/h
1220 06-10-2010 04:07:01 15.2 C 10.12 g/m*3 15.2 C 0 km/h
1221 06-10-2010 04:19:01 15.2 C 10.12 g/m*3 15.2 C 0 km/h
1222 06-10-2010 04:31:02 15.1 C 10.06 g/m*3 15.1 C 0 km/h
1223 06-10-2010 04:43:02 15 C 10 g/m*3 15 C 0 km/h
1224 06-10-2010 04:55:01 15 C 10.13 g/m*3 15 C 0 km/h
1225 06-10-2010 05:07:02 14.9 C 10.2 g/m*3 14.9 C 0 km/h
Sensor: Nr:Datum:Temp:Abs-Feuchte:Windchill:Wind:
Aussen-T/F 1226 06-10-2010 05:19:01 15 C 10.13 g/m*3 15 C 0 km/h
1227 06-10-2010 05:31:02 14.9 C 10.32 g/m*3 14.9 C 0 km/h
1228 06-10-2010 05:43:02 14.9 C 10.32 g/m*3 14.9 C 0 km/h
1229 06-10-2010 05:55:01 14.9 C 10.32 g/m*3 14.9 C 0 km/h
1230 06-10-2010 06:07:02 14.8 C 10.26 g/m*3 14.8 C 0 km/h
1231 06-10-2010 06:19:01 14.9 C 10.32 g/m*3 14.9 C 0 km/h
1232 06-10-2010 06:31:01 14.8 C 10.01 g/m*3 14.8 C 0 km/h
1233 06-10-2010 06:43:01 14.8 C 10.01 g/m*3 14.8 C 0 km/h
1234 06-10-2010 06:55:01 14.8 C 9.88 g/m*3 14.8 C 0 km/h
1235 06-10-2010 07:07:01 14.7 C 9.82 g/m*3 14.7 C 0 km/h
1236 06-10-2010 07:19:01 14.7 C 9.95 g/m*3 14.7 C 0 km/h
1237 06-10-2010 07:31:01 14.7 C 9.95 g/m*3 14.7 C 0 km/h
1238 06-10-2010 07:43:02 14.6 C 10.01 g/m*3 14.6 C 0 km/h
1239 06-10-2010 07:55:02 14.6 C 10.01 g/m*3 14.6 C 0 km/h
1240 06-10-2010 08:07:01 14.5 C 10.07 g/m*3 14.5 C 0 km/h
1241 06-10-2010 08:19:02 14.3 C 9.95 g/m*3 14.3 C 0 km/h
1242 06-10-2010 08:31:01 14.1 C 9.95 g/m*3 14.1 C 0 km/h
1243 06-10-2010 08:43:01 14.5 C 10.32 g/m*3 14.5 C 0 km/h
1244 06-10-2010 08:55:01 15.2 C 10.64 g/m*3 15.2 C 0 km/h
1245 06-10-2010 09:07:01 15.6 C 10.64 g/m*3 15.6 C 0 km/h
1246 06-10-2010 09:19:02 15.5 C 10.31 g/m*3 15.5 C 0 km/h
1247 06-10-2010 09:31:01 15.3 C 10.06 g/m*3 15.3 C 0 km/h
1248 06-10-2010 09:43:01 15.6 C 9.84 g/m*3 15.6 C 0 km/h
1249 06-10-2010 09:55:02 15.7 C 9.77 g/m*3 15.7 C 0 km/h
1250 06-10-2010 10:07:01 15.9 C 10.16 g/m*3 15.9 C 0 km/h
Sensor: Nr:Datum:Temp:Abs-Feuchte:Windchill:Wind:
Aussen-T/F 1251 06-10-2010 10:19:01 16.2 C 9.93 g/m*3 16.2 C 0 km/h
1252 06-10-2010 10:31:01 16.3 C 9.99 g/m*3 16.3 C 0 km/h
1253 06-10-2010 10:43:01 16.4 C 9.63 g/m*3 16.4 C 0 km/h
1254 06-10-2010 10:55:02 16.4 C 9.91 g/m*3 16.4 C 0 km/h
1255 06-10-2010 11:07:01 17.1 C 9.46 g/m*3 17.1 C 0 km/h
1256 06-10-2010 11:19:01 17.2 C 9.37 g/m*3 17.2 C 0 km/h
1257 06-10-2010 11:31:02 17.7 C 9.35 g/m*3 17.7 C 0 km/h
1258 06-10-2010 11:43:02 18.2 C 9.01 g/m*3 18.2 C 0 km/h
1259 06-10-2010 11:55:01 18.6 C 9.07 g/m*3 18.6 C 0 km/h
1260 06-10-2010 12:07:02 18.9 C 8.91 g/m*3 18.9 C 0 km/h
1261 06-10-2010 12:19:01 18.8 C 8.7 g/m*3 18.8 C 0 km/h
1262 06-10-2010 12:31:02 19 C 8.64 g/m*3 19 C 0 km/h
1263 06-10-2010 12:43:02 19.2 C 8.57 g/m*3 19.2 C 0 km/h
1264 06-10-2010 12:55:01 19.3 C 8.63 g/m*3 19.3 C 0 km/h
1265 06-10-2010 13:07:02 19.8 C 8.71 g/m*3 19.8 C 0 km/h
1266 06-10-2010 13:19:01 20.2 C 8.39 g/m*3 20.2 C 0 km/h
1267 06-10-2010 13:31:01 20.4 C 8.67 g/m*3 20.4 C 0 km/h
1268 06-10-2010 13:43:01 20.3 C 8.27 g/m*3 20.3 C 0 km/h
1269 06-10-2010 13:55:01 20.3 C 8.44 g/m*3 20.3 C 0 km/h
1270 06-10-2010 14:07:01 20.4 C 8.31 g/m*3 20.4 C 0 km/h
1271 06-10-2010 14:19:01 21 C 8.43 g/m*3 21 C 0 km/h
1272 06-10-2010 14:31:01 21.6 C 8.35 g/m*3 21.6 C 0 km/h
1273 06-10-2010 14:43:01 22.2 C 8.25 g/m*3 22.2 C 0 km/h
1274 06-10-2010 14:55:01 22.9 C 7.77 g/m*3 22.9 C 0 km/h
1275 06-10-2010 15:07:01 23.3 C 8.15 g/m*3 23.3 C 0 km/h
Sensor: Nr:Datum:Temp:Abs-Feuchte:Windchill:Wind:
Aussen-T/F 1276 06-10-2010 15:19:02 23.4 C 8.41 g/m*3 23.4 C 0 km/h
1277 06-10-2010 15:31:01 23.3 C 8.15 g/m*3 23.3 C 0 km/h
1278 06-10-2010 15:43:01 22.9 C 8.17 g/m*3 22.9 C 0 km/h
1279 06-10-2010 15:55:02 22.4 C 8.34 g/m*3 22.4 C 0 km/h
1280 06-10-2010 16:07:01 22.8 C 8.53 g/m*3 22.8 C 0 km/h
1281 06-10-2010 16:19:02 23.2 C 8.32 g/m*3 23.2 C 0 km/h
1282 06-10-2010 16:31:01 22.8 C 9.14 g/m*3 22.8 C 0 km/h
1283 06-10-2010 16:43:01 22.7 C 9.7 g/m*3 22.7 C 0 km/h
1284 06-10-2010 16:55:02 22.7 C 9.09 g/m*3 22.7 C 0 km/h
1285 06-10-2010 17:07:01 21.9 C 9.84 g/m*3 21.9 C 0 km/h
1286 06-10-2010 17:19:01 21.5 C 10.18 g/m*3 21.5 C 0 km/h
1287 06-10-2010 17:31:02 21.1 C 10.32 g/m*3 21.1 C 0 km/h
1288 06-10-2010 17:43:02 20.7 C 10.26 g/m*3 20.7 C 0 km/h
1289 06-10-2010 17:55:01 20.2 C 10.14 g/m*3 20.2 C 0 km/h
1290 06-10-2010 18:07:01 19.7 C 10.02 g/m*3 19.7 C 0 km/h
1291 06-10-2010 18:19:01 19.4 C 10.34 g/m*3 19.4 C 0 km/h
1292 06-10-2010 18:31:02 18.9 C 10.21 g/m*3 18.9 C 0 km/h
1293 06-10-2010 18:43:02 18.6 C 10.35 g/m*3 18.6 C 0 km/h
1294 06-10-2010 18:55:01 18.1 C 10.2 g/m*3 18.1 C 0 km/h
1295 06-10-2010 19:07:02 17.9 C 10.23 g/m*3 17.9 C 0 km/h
1296 06-10-2010 19:19:01 17.5 C 10.14 g/m*3 17.5 C 0 km/h
1297 06-10-2010 19:31:01 17.2 C 10.25 g/m*3 17.2 C 0 km/h
1298 06-10-2010 19:43:01 17 C 10.13 g/m*3 17 C 0 km/h
1299 06-10-2010 19:55:01 16.9 C 10.21 g/m*3 16.9 C 0 km/h
1300 06-10-2010 20:07:01 16.9 C 10.07 g/m*3 16.9 C 0 km/h
Sensor: Nr:Datum:Temp:Abs-Feuchte:Windchill:Wind:
Aussen-T/F 1301 06-10-2010 20:19:01 17 C 9.98 g/m*3 17 C 0 km/h
1302 06-10-2010 20:31:01 17 C 9.98 g/m*3 17 C 0 km/h
1303 06-10-2010 20:43:01 16.8 C 10.29 g/m*3 16.8 C 0 km/h
1304 06-10-2010 20:55:01 16.8 C 10.29 g/m*3 16.8 C 0 km/h
1305 06-10-2010 21:07:01 16.6 C 10.45 g/m*3 16.6 C 0 km/h
1306 06-10-2010 21:19:02 16.5 C 10.39 g/m*3 16.5 C 0 km/h
1307 06-10-2010 21:31:01 16.4 C 10.47 g/m*3 16.4 C 0 km/h
1308 06-10-2010 21:43:01 16.2 C 10.34 g/m*3 16.2 C 0 km/h
1309 06-10-2010 21:55:02 16.1 C 10.42 g/m*3 16.1 C 0 km/h
1310 06-10-2010 22:07:02 16 C 10.49 g/m*3 16 C 0 km/h
1311 06-10-2010 22:19:01 15.8 C 10.5 g/m*3 15.8 C 0 km/h
1312 06-10-2010 22:31:01 15.8 C 10.63 g/m*3 15.8 C 0 km/h
1313 06-10-2010 22:43:01 15.7 C 10.57 g/m*3 15.7 C 0 km/h
1314 06-10-2010 22:55:01 15.4 C 10.38 g/m*3 15.4 C 0 km/h
1315 06-10-2010 23:07:01 15.2 C 10.38 g/m*3 15.2 C 0 km/h
1316 06-10-2010 23:19:01 15 C 10.26 g/m*3 15 C 0 km/h
1317 06-10-2010 23:31:01 14.9 C 10.32 g/m*3 14.9 C 0 km/h
1318 06-10-2010 23:43:01 14.8 C 10.39 g/m*3 14.8 C 0 km/h
1319 06-10-2010 23:55:01 14.6 C 10.26 g/m*3 14.6 C 0 km/h
1320 07-10-2010 00:07:01 14.5 C 10.2 g/m*3 14.5 C 0 km/h
1321 07-10-2010 00:19:01 14.3 C 10.2 g/m*3 14.3 C 0 km/h
1322 07-10-2010 00:31:02 14.2 C 10.14 g/m*3 14.2 C 0 km/h
1323 07-10-2010 00:43:02 14.1 C 10.19 g/m*3 14.1 C 0 km/h
1324 07-10-2010 00:55:01 14 C 10.13 g/m*3 14 C 0 km/h
1325 07-10-2010 01:07:01 14 C 10.25 g/m*3 14 C 0 km/h
Sensor: Nr:Datum:Temp:Abs-Feuchte:Windchill:Wind:
Aussen-T/F 1326 07-10-2010 01:19:01 14.4 C 10.63 g/m*3 14.4 C 0 km/h
1327 07-10-2010 01:31:02 14.3 C 10.57 g/m*3 14.3 C 0 km/h
1328 07-10-2010 01:43:02 14.2 C 10.5 g/m*3 14.2 C 0 km/h
1329 07-10-2010 01:55:01 14.3 C 10.57 g/m*3 14.3 C 0 km/h
1330 07-10-2010 02:07:02 14.3 C 10.57 g/m*3 14.3 C 0 km/h
1331 07-10-2010 02:19:01 14.2 C 10.38 g/m*3 14.2 C 0 km/h
1332 07-10-2010 02:31:01 14.2 C 10.38 g/m*3 14.2 C 0 km/h
1333 07-10-2010 02:43:01 14.3 C 10.44 g/m*3 14.3 C 0 km/h
1334 07-10-2010 02:55:01 14.2 C 10.38 g/m*3 14.2 C 0 km/h
1335 07-10-2010 03:07:01 14.2 C 10.38 g/m*3 14.2 C 0 km/h
1336 07-10-2010 03:19:02 14.2 C 10.38 g/m*3 14.2 C 0 km/h
1337 07-10-2010 03:31:01 14 C 10.25 g/m*3 14 C 0 km/h
1338 07-10-2010 03:43:01 14 C 10.37 g/m*3 14 C 0 km/h
1339 07-10-2010 03:55:01 14 C 10.37 g/m*3 14 C 0 km/h
1340 07-10-2010 04:07:02 14.5 C 10.7 g/m*3 14.5 C 0 km/h
1341 07-10-2010 04:19:01 13.9 C 10.43 g/m*3 13.9 C 0 km/h
1342 07-10-2010 04:31:01 13.9 C 10.43 g/m*3 13.9 C 0 km/h
1343 07-10-2010 04:43:01 13.5 C 10.06 g/m*3 13.5 C 0 km/h
1344 07-10-2010 04:55:01 13.3 C 9.94 g/m*3 13.3 C 0 km/h
1345 07-10-2010 05:07:01 13.1 C 9.93 g/m*3 13.1 C 0 km/h
1346 07-10-2010 05:20:01 13 C 9.87 g/m*3 13 C 0 km/h
1347 07-10-2010 05:31:01 13.1 C 10.04 g/m*3 13.1 C 0 km/h
1348 07-10-2010 05:43:01 13.6 C 10.47 g/m*3 13.6 C 0 km/h
1349 07-10-2010 05:56:01 13.7 C 10.54 g/m*3 13.7 C 0 km/h
1350 07-10-2010 06:07:01 13.8 C 10.48 g/m*3 13.8 C 0 km/h
Sensor: Nr:Datum:Temp:Abs-Feuchte:Windchill:Wind:
Aussen-T/F 1351 07-10-2010 06:19:02 13.8 C 10.48 g/m*3 13.8 C 0 km/h
1352 07-10-2010 06:32:01 13.8 C 10.48 g/m*3 13.8 C 0 km/h
1353 07-10-2010 06:44:01 13.9 C 10.55 g/m*3 13.9 C 0 km/h
1354 07-10-2010 06:55:02 13.9 C 10.55 g/m*3 13.9 C 0 km/h
1355 07-10-2010 07:08:01 13.8 C 10.48 g/m*3 13.8 C 0 km/h
1356 07-10-2010 07:20:01 14 C 10.49 g/m*3 14 C 0 km/h
1357 07-10-2010 07:31:02 14.1 C 10.56 g/m*3 14.1 C 0 km/h
1358 07-10-2010 07:43:02 14.4 C 10.75 g/m*3 14.4 C 0 km/h
1359 07-10-2010 07:56:01 14.3 C 10.69 g/m*3 14.3 C 0 km/h
1360 07-10-2010 08:08:01 14.4 C 10.75 g/m*3 14.4 C 0 km/h
1361 07-10-2010 08:20:01 14.6 C 10.89 g/m*3 14.6 C 0 km/h
1362 07-10-2010 08:32:02 14.7 C 10.95 g/m*3 14.7 C 0 km/h
1363 07-10-2010 08:44:02 14.8 C 11.02 g/m*3 14.8 C 0 km/h
1364 07-10-2010 08:56:01 14.8 C 10.89 g/m*3 14.8 C 0 km/h
1365 07-10-2010 09:08:02 14.8 C 10.77 g/m*3 14.8 C 0 km/h
1366 07-10-2010 09:20:01 14.7 C 10.45 g/m*3 14.7 C 0 km/h
1367 07-10-2010 09:32:01 14.8 C 10.51 g/m*3 14.8 C 0 km/h
1368 07-10-2010 09:44:01 15.3 C 10.71 g/m*3 15.3 C 0 km/h
1369 07-10-2010 09:56:01 15.7 C 10.57 g/m*3 15.7 C 0 km/h
1370 07-10-2010 10:08:01 16.2 C 10.48 g/m*3 16.2 C 0 km/h
1371 07-10-2010 10:20:02 16.1 C 10.14 g/m*3 16.1 C 0 km/h
1372 07-10-2010 10:32:01 16.2 C 10.34 g/m*3 16.2 C 0 km/h
1373 07-10-2010 10:44:01 16.2 C 10.34 g/m*3 16.2 C 0 km/h
1374 07-10-2010 10:56:01 16.2 C 10.34 g/m*3 16.2 C 0 km/h
1375 07-10-2010 11:08:01 16.7 C 10.52 g/m*3 16.7 C 0 km/h
Sensor: Nr:Datum:Temp:Abs-Feuchte:Windchill:Wind:
Aussen-T/F 1376 07-10-2010 11:20:02 17.1 C 10.34 g/m*3 17.1 C 0 km/h
1377 07-10-2010 11:32:01 17.3 C 10.31 g/m*3 17.3 C 0 km/h
1378 07-10-2010 11:44:01 17.4 C 10.08 g/m*3 17.4 C 0 km/h
1379 07-10-2010 11:56:02 17.8 C 10.32 g/m*3 17.8 C 0 km/h
1380 07-10-2010 12:08:01 18.1 C 9.89 g/m*3 18.1 C 0 km/h
1381 07-10-2010 12:20:01 18.3 C 10.01 g/m*3 18.3 C 0 km/h
1382 07-10-2010 12:32:02 18.3 C 10.01 g/m*3 18.3 C 0 km/h
1383 07-10-2010 12:44:02 18.7 C 10.09 g/m*3 18.7 C 0 km/h
1384 07-10-2010 12:56:01 18.6 C 9.87 g/m*3 18.6 C 0 km/h
1385 07-10-2010 13:08:02 18.8 C 10.15 g/m*3 18.8 C 0 km/h
1386 07-10-2010 13:20:01 19.2 C 10.06 g/m*3 19.2 C 0 km/h
1387 07-10-2010 13:32:02 19.3 C 9.62 g/m*3 19.3 C 0 km/h
1388 07-10-2010 13:44:02 19.5 C 9.73 g/m*3 19.5 C 0 km/h
1389 07-10-2010 13:56:01 19.5 C 9.57 g/m*3 19.5 C 0 km/h
1390 07-10-2010 14:08:02 19.7 C 9.85 g/m*3 19.7 C 0 km/h
1391 07-10-2010 14:20:01 19.8 C 9.91 g/m*3 19.8 C 0 km/h
1392 07-10-2010 14:32:01 19.7 C 9.68 g/m*3 19.7 C 0 km/h
1393 07-10-2010 14:44:01 19.9 C 9.79 g/m*3 19.9 C 0 km/h
1394 07-10-2010 14:56:01 20.3 C 9.67 g/m*3 20.3 C 0 km/h
1395 07-10-2010 15:08:01 20.5 C 9.43 g/m*3 20.5 C 0 km/h
1396 07-10-2010 15:20:01 20.8 C 9.6 g/m*3 20.8 C 0 km/h
1397 07-10-2010 15:32:01 20.7 C 9.54 g/m*3 20.7 C 0 km/h
1398 07-10-2010 15:44:01 20.4 C 9.38 g/m*3 20.4 C 0 km/h
1399 07-10-2010 15:56:01 20.1 C 9.56 g/m*3 20.1 C 0 km/h
1400 07-10-2010 16:08:01 20 C 9.68 g/m*3 20 C 0 km/h
Sensor: Nr:Datum:Temp:Abs-Feuchte:Windchill:Wind:
Aussen-T/F 1401 07-10-2010 16:20:02 20.4 C 9.55 g/m*3 20.4 C 0 km/h
1402 07-10-2010 16:32:01 20.1 C 9.39 g/m*3 20.1 C 0 km/h
1403 07-10-2010 16:44:01 19.6 C 9.45 g/m*3 19.6 C 0 km/h
1404 07-10-2010 16:56:02 19.6 C 9.28 g/m*3 19.6 C 0 km/h
1405 07-10-2010 17:08:01 19.6 C 9.45 g/m*3 19.6 C 0 km/h
1406 07-10-2010 17:20:01 19.3 C 9.45 g/m*3 19.3 C 0 km/h
1407 07-10-2010 17:32:02 19.2 C 9.56 g/m*3 19.2 C 0 km/h
1408 07-10-2010 17:44:02 19 C 9.45 g/m*3 19 C 0 km/h
1409 07-10-2010 17:56:01 18.7 C 9.93 g/m*3 18.7 C 0 km/h
1410 07-10-2010 18:08:02 18.3 C 10.01 g/m*3 18.3 C 0 km/h
1411 07-10-2010 18:20:01 18.1 C 10.2 g/m*3 18.1 C 0 km/h
1412 07-10-2010 18:32:02 17.9 C 10.23 g/m*3 17.9 C 0 km/h
1413 07-10-2010 18:44:02 17.7 C 10.26 g/m*3 17.7 C 0 km/h
1414 07-10-2010 18:56:01 17.4 C 10.37 g/m*3 17.4 C 0 km/h
1415 07-10-2010 19:08:02 17.1 C 10.34 g/m*3 17.1 C 0 km/h
1416 07-10-2010 19:20:01 17 C 10.42 g/m*3 17 C 0 km/h
1417 07-10-2010 19:32:01 16.8 C 10.44 g/m*3 16.8 C 0 km/h
1418 07-10-2010 19:44:01 17 C 10.42 g/m*3 17 C 0 km/h
1419 07-10-2010 19:56:01 16.6 C 10.31 g/m*3 16.6 C 0 km/h
1420 07-10-2010 20:08:01 16.5 C 10.39 g/m*3 16.5 C 0 km/h
1421 07-10-2010 20:20:02 16.4 C 10.33 g/m*3 16.4 C 0 km/h
1422 07-10-2010 20:32:01 16.2 C 10.34 g/m*3 16.2 C 0 km/h
1423 07-10-2010 20:44:01 16.2 C 10.34 g/m*3 16.2 C 0 km/h
1424 07-10-2010 20:56:02 16.2 C 10.34 g/m*3 16.2 C 0 km/h
1425 07-10-2010 21:08:01 16.3 C 10.13 g/m*3 16.3 C 0 km/h
Sensor: Nr:Datum:Temp:Abs-Feuchte:Windchill:Wind:
Aussen-T/F 1426 07-10-2010 21:20:02 16.3 C 10.27 g/m*3 16.3 C 0 km/h
1427 07-10-2010 21:32:01 16.2 C 10.2 g/m*3 16.2 C 0 km/h
1428 07-10-2010 21:44:01 16.2 C 10.07 g/m*3 16.2 C 0 km/h
1429 07-10-2010 21:56:02 16.1 C 10.01 g/m*3 16.1 C 0 km/h
1430 07-10-2010 22:08:01 16 C 9.95 g/m*3 16 C 0 km/h
1431 07-10-2010 22:20:02 16 C 9.95 g/m*3 16 C 0 km/h
1432 07-10-2010 22:32:02 16 C 9.95 g/m*3 16 C 0 km/h
1433 07-10-2010 22:44:02 16 C 9.81 g/m*3 16 C 0 km/h
1434 07-10-2010 22:56:02 16 C 9.67 g/m*3 16 C 0 km/h
1435 07-10-2010 23:08:02 16.1 C 9.73 g/m*3 16.1 C 0 km/h
1436 07-10-2010 23:20:02 16 C 9.67 g/m*3 16 C 0 km/h
1437 07-10-2010 23:32:02 16 C 9.67 g/m*3 16 C 0 km/h
1438 07-10-2010 23:44:02 16 C 9.81 g/m*3 16 C 0 km/h
1439 07-10-2010 23:56:02 16 C 9.81 g/m*3 16 C 0 km/h
1440 08-10-2010 00:08:03 15.8 C 9.83 g/m*3 15.8 C 0 km/h
1441 08-10-2010 00:20:03 15.9 C 10.02 g/m*3 15.9 C 0 km/h
1442 08-10-2010 00:32:03 15.8 C 9.96 g/m*3 15.8 C 0 km/h
1443 08-10-2010 00:44:03 15.8 C 9.96 g/m*3 15.8 C 0 km/h
1444 08-10-2010 00:56:03 15.8 C 9.69 g/m*3 15.8 C 0 km/h
1445 08-10-2010 01:08:03 15.7 C 9.77 g/m*3 15.7 C 0 km/h
1446 08-10-2010 01:20:03 15.7 C 9.77 g/m*3 15.7 C 0 km/h
1447 08-10-2010 01:32:03 15.6 C 9.71 g/m*3 15.6 C 0 km/h
1448 08-10-2010 01:44:03 15.5 C 9.52 g/m*3 15.5 C 0 km/h
1449 08-10-2010 01:56:03 15.6 C 9.58 g/m*3 15.6 C 0 km/h
1450 08-10-2010 02:08:03 15.6 C 9.58 g/m*3 15.6 C 0 km/h
Sensor: Nr:Datum:Temp:Abs-Feuchte:Windchill:Wind:
Aussen-T/F 1451 08-10-2010 02:20:03 15.5 C 9.39 g/m*3 15.5 C 0 km/h
1452 08-10-2010 02:32:03 15.4 C 9.33 g/m*3 15.4 C 0 km/h
1453 08-10-2010 02:44:03 15.4 C 9.33 g/m*3 15.4 C 0 km/h
1454 08-10-2010 02:56:03 15.3 C 9.14 g/m*3 15.3 C 0 km/h
1455 08-10-2010 03:08:03 15.2 C 8.96 g/m*3 15.2 C 0 km/h
1456 08-10-2010 03:20:03 15 C 8.98 g/m*3 15 C 0 km/h
1457 08-10-2010 03:32:03 14.9 C 8.79 g/m*3 14.9 C 0 km/h
1458 08-10-2010 03:44:03 14.8 C 8.49 g/m*3 14.8 C 0 km/h
1459 08-10-2010 03:56:03 14.7 C 8.56 g/m*3 14.7 C 0 km/h
1460 08-10-2010 04:08:03 14.7 C 8.56 g/m*3 14.7 C 0 km/h
1461 08-10-2010 04:20:03 14.6 C 8.51 g/m*3 14.6 C 0 km/h
1462 08-10-2010 04:32:04 14.5 C 8.58 g/m*3 14.5 C 0 km/h
1463 08-10-2010 04:44:04 14.4 C 8.53 g/m*3 14.4 C 0 km/h
1464 08-10-2010 04:56:04 14.4 C 8.65 g/m*3 14.4 C 0 km/h
1465 08-10-2010 05:08:04 14.3 C 8.72 g/m*3 14.3 C 0 km/h
1466 08-10-2010 05:20:04 14.3 C 8.85 g/m*3 14.3 C 0 km/h
1467 08-10-2010 05:32:04 14.3 C 8.85 g/m*3 14.3 C 0 km/h
1468 08-10-2010 05:44:04 14.1 C 8.74 g/m*3 14.1 C 0 km/h
1469 08-10-2010 05:56:04 14.2 C 8.91 g/m*3 14.2 C 0 km/h
1470 08-10-2010 06:08:04 14.1 C 8.86 g/m*3 14.1 C 0 km/h
1471 08-10-2010 06:20:04 14 C 8.93 g/m*3 14 C 0 km/h
1472 08-10-2010 06:32:04 14 C 8.93 g/m*3 14 C 0 km/h
1473 08-10-2010 06:44:04 13.9 C 8.99 g/m*3 13.9 C 0 km/h
1474 08-10-2010 06:56:04 13.9 C 9.11 g/m*3 13.9 C 0 km/h
1475 08-10-2010 07:08:04 13.9 C 9.11 g/m*3 13.9 C 0 km/h
Sensor: Nr:Datum:Temp:Abs-Feuchte:Windchill:Wind:
Aussen-T/F 1476 08-10-2010 07:20:01 14 C 9.17 g/m*3 14 C 0 km/h
1477 08-10-2010 07:32:01 14.1 C 9.22 g/m*3 14.1 C 0 km/h
1478 08-10-2010 07:44:01 14.1 C 9.1 g/m*3 14.1 C 0 km/h
1479 08-10-2010 07:56:01 14 C 9.05 g/m*3 14 C 0 km/h
1480 08-10-2010 08:08:02 14 C 9.05 g/m*3 14 C 0 km/h
1481 08-10-2010 08:20:02 14.1 C 9.1 g/m*3 14.1 C 0 km/h
1482 08-10-2010 08:32:01 14.2 C 9.28 g/m*3 14.2 C 0 km/h
1483 08-10-2010 08:44:01 14.3 C 9.34 g/m*3 14.3 C 0 km/h
1484 08-10-2010 08:56:02 14.4 C 9.39 g/m*3 14.4 C 0 km/h
1485 08-10-2010 09:08:01 14.4 C 9.27 g/m*3 14.4 C 0 km/h
1486 08-10-2010 09:20:01 14.5 C 9.33 g/m*3 14.5 C 0 km/h
1487 08-10-2010 09:32:02 14.6 C 9.51 g/m*3 14.6 C 0 km/h
1488 08-10-2010 09:44:02 14.7 C 9.44 g/m*3 14.7 C 0 km/h
1489 08-10-2010 09:56:02 14.8 C 9.5 g/m*3 14.8 C 0 km/h
1490 08-10-2010 10:08:01 14.9 C 9.43 g/m*3 14.9 C 0 km/h
1491 08-10-2010 10:20:02 15.1 C 9.42 g/m*3 15.1 C 0 km/h
1492 08-10-2010 10:32:02 15.3 C 9.53 g/m*3 15.3 C 0 km/h
1493 08-10-2010 10:44:02 15.4 C 9.33 g/m*3 15.4 C 0 km/h
1494 08-10-2010 10:56:02 15.7 C 9.63 g/m*3 15.7 C 0 km/h
1495 08-10-2010 11:08:02 15.7 C 9.23 g/m*3 15.7 C 0 km/h
1496 08-10-2010 11:20:02 15.8 C 9.42 g/m*3 15.8 C 0 km/h
1497 08-10-2010 11:32:02 15.8 C 9.29 g/m*3 15.8 C 0 km/h
1498 08-10-2010 11:44:02 15.9 C 9.21 g/m*3 15.9 C 0 km/h
1499 08-10-2010 11:56:02 16.1 C 9.32 g/m*3 16.1 C 0 km/h
1500 08-10-2010 12:08:02 16.3 C 9.43 g/m*3 16.3 C 0 km/h
Sensor: Nr:Datum:Temp:Abs-Feuchte:Windchill:Wind:
Aussen-T/F 1501 08-10-2010 12:20:03 16.5 C 9.13 g/m*3 16.5 C 0 km/h
1502 08-10-2010 12:32:02 16.6 C 9.04 g/m*3 16.6 C 0 km/h
1503 08-10-2010 12:44:02 16.6 C 8.9 g/m*3 16.6 C 0 km/h
1504 08-10-2010 12:56:02 16.7 C 8.95 g/m*3 16.7 C 0 km/h
1505 08-10-2010 13:08:02 16.7 C 8.81 g/m*3 16.7 C 0 km/h
1506 08-10-2010 13:20:02 17 C 8.83 g/m*3 17 C 0 km/h
1507 08-10-2010 13:32:02 17 C 8.83 g/m*3 17 C 0 km/h
1508 08-10-2010 13:44:02 17 C 8.54 g/m*3 17 C 0 km/h
1509 08-10-2010 13:56:02 17 C 8.83 g/m*3 17 C 0 km/h
1510 08-10-2010 14:08:02 17.6 C 9 g/m*3 17.6 C 0 km/h
1511 08-10-2010 14:20:02 18.1 C 8.81 g/m*3 18.1 C 0 km/h
1512 08-10-2010 14:32:02 18.6 C 8.75 g/m*3 18.6 C 0 km/h
1513 08-10-2010 14:44:02 19.7 C 8.66 g/m*3 19.7 C 0 km/h
1514 08-10-2010 14:56:02 19.8 C 8.54 g/m*3 19.8 C 0 km/h
1515 08-10-2010 15:08:02 19.7 C 8.66 g/m*3 19.7 C 0 km/h
1516 08-10-2010 15:20:01 19.9 C 8.25 g/m*3 19.9 C 0 km/h
1517 08-10-2010 15:32:02 20.4 C 8.67 g/m*3 20.4 C 0 km/h
1518 08-10-2010 15:44:02 20.6 C 8.59 g/m*3 20.6 C 0 km/h
1519 08-10-2010 15:56:02 21 C 8.43 g/m*3 21 C 0 km/h
1520 08-10-2010 16:08:02 22 C 8.73 g/m*3 22 C 0 km/h
1521 08-10-2010 16:20:02 22.1 C 8.98 g/m*3 22.1 C 0 km/h
1522 08-10-2010 16:32:02 22.5 C 9.19 g/m*3 22.5 C 0 km/h
1523 08-10-2010 16:44:02 22.4 C 8.74 g/m*3 22.4 C 0 km/h
1524 08-10-2010 16:56:02 22 C 9.12 g/m*3 22 C 0 km/h
1525 08-10-2010 17:08:02 22.1 C 9.17 g/m*3 22.1 C 0 km/h
Sensor: Nr:Datum:Temp:Abs-Feuchte:Windchill:Wind:
Aussen-T/F 1526 08-10-2010 17:20:03 22.1 C 9.17 g/m*3 22.1 C 0 km/h
1527 08-10-2010 17:32:02 21.9 C 9.26 g/m*3 21.9 C 0 km/h
1528 08-10-2010 17:44:02 21.6 C 9.29 g/m*3 21.6 C 0 km/h
1529 08-10-2010 17:56:02 21.2 C 9.27 g/m*3 21.2 C 0 km/h
1530 08-10-2010 18:08:02 20.6 C 9.49 g/m*3 20.6 C 0 km/h
1531 08-10-2010 18:20:03 20 C 9.51 g/m*3 20 C 0 km/h
1532 08-10-2010 18:32:02 19.3 C 9.62 g/m*3 19.3 C 0 km/h
1533 08-10-2010 18:44:02 18.1 C 9.73 g/m*3 18.1 C 0 km/h
1534 08-10-2010 18:56:02 17.3 C 9.87 g/m*3 17.3 C 0 km/h
1535 08-10-2010 19:08:02 16.9 C 10.21 g/m*3 16.9 C 0 km/h
1536 08-10-2010 19:20:02 16.1 C 10.01 g/m*3 16.1 C 0 km/h
1537 08-10-2010 19:32:02 15.8 C 9.96 g/m*3 15.8 C 0 km/h
1538 08-10-2010 19:44:02 15.4 C 9.85 g/m*3 15.4 C 0 km/h
1539 08-10-2010 19:56:02 15.2 C 9.86 g/m*3 15.2 C 0 km/h
1540 08-10-2010 20:08:02 15 C 9.75 g/m*3 15 C 0 km/h
1541 08-10-2010 20:20:02 14.9 C 9.81 g/m*3 14.9 C 0 km/h
1542 08-10-2010 20:32:02 14.8 C 9.88 g/m*3 14.8 C 0 km/h
1543 08-10-2010 20:44:02 14.7 C 9.82 g/m*3 14.7 C 0 km/h
1544 08-10-2010 20:56:02 14.5 C 9.7 g/m*3 14.5 C 0 km/h
1545 08-10-2010 21:08:02 14.4 C 9.77 g/m*3 14.4 C 0 km/h
1546 08-10-2010 21:20:02 14.2 C 9.65 g/m*3 14.2 C 0 km/h
1547 08-10-2010 21:32:02 14.1 C 9.59 g/m*3 14.1 C 0 km/h
1548 08-10-2010 21:44:02 14 C 9.65 g/m*3 14 C 0 km/h
1549 08-10-2010 21:56:01 13.7 C 9.59 g/m*3 13.7 C 0 km/h
1550 08-10-2010 22:08:01 13.5 C 9.59 g/m*3 13.5 C 0 km/h
Sensor: Nr:Datum:Temp:Abs-Feuchte:Windchill:Wind:
Aussen-T/F 1551 08-10-2010 22:20:02 13.5 C 9.59 g/m*3 13.5 C 0 km/h
1552 08-10-2010 22:33:02 13.3 C 9.47 g/m*3 13.3 C 0 km/h
1553 08-10-2010 22:45:02 13.1 C 9.47 g/m*3 13.1 C 0 km/h
1554 08-10-2010 22:57:02 13 C 9.41 g/m*3 13 C 0 km/h
1555 08-10-2010 23:09:02 12.9 C 9.47 g/m*3 12.9 C 0 km/h
1556 08-10-2010 23:21:02 12.7 C 9.35 g/m*3 12.7 C 0 km/h
1557 08-10-2010 23:33:02 12.6 C 9.29 g/m*3 12.6 C 0 km/h
1558 08-10-2010 23:45:02 12.4 C 9.18 g/m*3 12.4 C 0 km/h
1559 08-10-2010 23:57:02 12.3 C 9.23 g/m*3 12.3 C 0 km/h
1560 09-10-2010 00:09:02 12.1 C 9.12 g/m*3 12.1 C 0 km/h
1561 09-10-2010 00:21:03 12 C 9.06 g/m*3 12 C 0 km/h
1562 09-10-2010 00:33:03 11.9 C 9.11 g/m*3 11.9 C 0 km/h
1563 09-10-2010 00:45:03 11.7 C 9.1 g/m*3 11.7 C 0 km/h
1564 09-10-2010 00:57:03 11.8 C 9.16 g/m*3 11.8 C 0 km/h
1565 09-10-2010 01:09:03 11.5 C 8.99 g/m*3 11.5 C 0 km/h
1566 09-10-2010 01:21:03 11.5 C 8.99 g/m*3 11.5 C 0 km/h
1567 09-10-2010 01:33:03 11.4 C 9.03 g/m*3 11.4 C 0 km/h
1568 09-10-2010 01:45:03 11.2 C 8.92 g/m*3 11.2 C 0 km/h
1569 09-10-2010 01:57:03 11.1 C 8.86 g/m*3 11.1 C 0 km/h
1570 09-10-2010 02:09:03 11 C 8.81 g/m*3 11 C 0 km/h
1571 09-10-2010 02:21:03 10.9 C 8.85 g/m*3 10.9 C 0 km/h
1572 09-10-2010 02:33:03 10.7 C 8.64 g/m*3 10.7 C 0 km/h
1573 09-10-2010 02:45:03 10.6 C 8.59 g/m*3 10.6 C 0 km/h
1574 09-10-2010 02:57:03 10.5 C 8.53 g/m*3 10.5 C 0 km/h
1575 09-10-2010 03:09:03 10.4 C 8.48 g/m*3 10.4 C 0 km/h
Sensor: Nr:Datum:Temp:Abs-Feuchte:Windchill:Wind:
Aussen-T/F 1576 09-10-2010 03:21:03 10.3 C 8.43 g/m*3 10.3 C 0 km/h
1577 09-10-2010 03:33:03 10.2 C 8.37 g/m*3 10.2 C 0 km/h
1578 09-10-2010 03:45:03 10.2 C 8.47 g/m*3 10.2 C 0 km/h
1579 09-10-2010 03:57:03 10.1 C 8.42 g/m*3 10.1 C 0 km/h
1580 09-10-2010 04:09:03 10 C 8.36 g/m*3 10 C 0 km/h
1581 09-10-2010 04:21:03 9.8 C 8.35 g/m*3 9.8 C 0 km/h
1582 09-10-2010 04:33:04 9.8 C 8.35 g/m*3 9.8 C 0 km/h
1583 09-10-2010 04:45:04 9.7 C 8.3 g/m*3 9.7 C 0 km/h
1584 09-10-2010 04:57:04 9.6 C 8.24 g/m*3 9.6 C 0 km/h
1585 09-10-2010 05:09:04 9.6 C 8.34 g/m*3 9.6 C 0 km/h
1586 09-10-2010 05:21:04 9.5 C 8.28 g/m*3 9.5 C 0 km/h
1587 09-10-2010 05:33:04 9.4 C 8.23 g/m*3 9.4 C 0 km/h
1588 09-10-2010 05:45:04 9.5 C 8.28 g/m*3 9.5 C 0 km/h
1589 09-10-2010 05:57:04 9.6 C 8.34 g/m*3 9.6 C 0 km/h
1590 09-10-2010 06:09:04 9.6 C 8.34 g/m*3 9.6 C 0 km/h
1591 09-10-2010 06:21:04 9.5 C 8.37 g/m*3 9.5 C 0 km/h
1592 09-10-2010 06:33:04 9.4 C 8.32 g/m*3 9.4 C 0 km/h
1593 09-10-2010 06:45:04 9.3 C 8.27 g/m*3 9.3 C 0 km/h
1594 09-10-2010 06:57:04 9.3 C 8.27 g/m*3 9.3 C 0 km/h
1595 09-10-2010 07:09:04 9.3 C 8.27 g/m*3 9.3 C 0 km/h
1596 09-10-2010 07:21:04 9.2 C 8.22 g/m*3 9.2 C 0 km/h
1597 09-10-2010 07:33:04 9.1 C 8.16 g/m*3 9.1 C 0 km/h
1598 09-10-2010 07:45:04 9.2 C 8.22 g/m*3 9.2 C 0 km/h
1599 09-10-2010 07:57:04 9.4 C 8.32 g/m*3 9.4 C 0 km/h
1600 09-10-2010 08:09:04 9.2 C 8.22 g/m*3 9.2 C 0 km/h
Sensor: Nr:Datum:Temp:Abs-Feuchte:Windchill:Wind:
Aussen-T/F 1601 09-10-2010 08:21:04 9.2 C 8.22 g/m*3 9.2 C 0 km/h
1602 09-10-2010 08:33:02 9.2 C 8.22 g/m*3 9.2 C 0 km/h
1603 09-10-2010 08:45:02 9.2 C 8.22 g/m*3 9.2 C 0 km/h
1604 09-10-2010 08:57:02 9.2 C 8.22 g/m*3 9.2 C 0 km/h
1605 09-10-2010 09:09:02 9.2 C 8.22 g/m*3 9.2 C 0 km/h
1606 09-10-2010 09:21:02 9.2 C 8.22 g/m*3 9.2 C 0 km/h
1607 09-10-2010 09:33:02 9.2 C 8.13 g/m*3 9.2 C 0 km/h
1608 09-10-2010 09:45:02 9.3 C 8.27 g/m*3 9.3 C 0 km/h
1609 09-10-2010 09:57:02 9.5 C 8.37 g/m*3 9.5 C 0 km/h
1610 09-10-2010 10:09:02 9.7 C 8.48 g/m*3 9.7 C 0 km/h
1611 09-10-2010 10:21:01 10 C 8.55 g/m*3 10 C 0 km/h
1612 09-10-2010 10:33:02 10.5 C 8.92 g/m*3 10.5 C 0 km/h
1613 09-10-2010 10:45:02 10.8 C 9.09 g/m*3 10.8 C 0 km/h
1614 09-10-2010 10:57:02 11.2 C 9.33 g/m*3 11.2 C 0 km/h
1615 09-10-2010 11:09:02 11.7 C 9.62 g/m*3 11.7 C 0 km/h
1616 09-10-2010 11:21:02 12.1 C 9.65 g/m*3 12.1 C 0 km/h
1617 09-10-2010 11:33:02 12.5 C 9.68 g/m*3 12.5 C 0 km/h
1618 09-10-2010 11:45:02 12.9 C 9.47 g/m*3 12.9 C 0 km/h
1619 09-10-2010 11:57:02 13.4 C 9.18 g/m*3 13.4 C 0 km/h
1620 09-10-2010 12:09:02 13.7 C 8.76 g/m*3 13.7 C 0 km/h
1621 09-10-2010 12:21:01 14.4 C 8.28 g/m*3 14.4 C 0 km/h
1622 09-10-2010 12:33:02 14.7 C 7.81 g/m*3 14.7 C 0 km/h
1623 09-10-2010 12:45:01 15.1 C 8.39 g/m*3 15.1 C 0 km/h
1624 09-10-2010 12:57:01 15.5 C 7.67 g/m*3 15.5 C 0 km/h
1625 09-10-2010 13:09:02 16.1 C 7.95 g/m*3 16.1 C 0 km/h
Sensor: Nr:Datum:Temp:Abs-Feuchte:Windchill:Wind:
Aussen-T/F 1626 09-10-2010 13:21:02 16.6 C 8.05 g/m*3 16.6 C 0 km/h
1627 09-10-2010 13:33:02 17 C 8.1 g/m*3 17 C 0 km/h
1628 09-10-2010 13:45:02 17.6 C 7.8 g/m*3 17.6 C 0 km/h
1629 09-10-2010 13:57:02 18.2 C 7.46 g/m*3 18.2 C 0 km/h
1630 09-10-2010 14:09:01 19 C 6.84 g/m*3 19 C 0 km/h
1631 09-10-2010 14:21:02 19.5 C 7.05 g/m*3 19.5 C 0 km/h
1632 09-10-2010 14:33:02 20 C 7.09 g/m*3 20 C 0 km/h
1633 09-10-2010 14:45:02 20.4 C 6.72 g/m*3 20.4 C 0 km/h
1634 09-10-2010 14:57:02 20.9 C 7.47 g/m*3 20.9 C 0 km/h
1635 09-10-2010 15:09:02 21.4 C 6.75 g/m*3 21.4 C 0 km/h
1636 09-10-2010 15:21:02 21.8 C 6.72 g/m*3 21.8 C 0 km/h
1637 09-10-2010 15:33:02 21.7 C 5.91 g/m*3 21.7 C 0 km/h
1638 09-10-2010 15:45:02 22.1 C 6.25 g/m*3 22.1 C 0 km/h
1639 09-10-2010 15:57:02 22.3 C 5.73 g/m*3 22.3 C 0 km/h
1640 09-10-2010 16:09:01 22.4 C 6.16 g/m*3 22.4 C 0 km/h
1641 09-10-2010 16:21:02 22.4 C 6.16 g/m*3 22.4 C 0 km/h
1642 09-10-2010 16:33:02 22.4 C 6.36 g/m*3 22.4 C 0 km/h
1643 09-10-2010 16:45:01 22 C 6.21 g/m*3 22 C 0 km/h
1644 09-10-2010 16:57:01 21.6 C 6.26 g/m*3 21.6 C 0 km/h
1645 09-10-2010 17:09:02 21.3 C 5.96 g/m*3 21.3 C 0 km/h
1646 09-10-2010 17:21:01 21.3 C 6.15 g/m*3 21.3 C 0 km/h
1647 09-10-2010 17:33:01 21.1 C 6.26 g/m*3 21.1 C 0 km/h
1648 09-10-2010 17:45:01 20.6 C 6.26 g/m*3 20.6 C 0 km/h
1649 09-10-2010 17:57:01 19.7 C 6.28 g/m*3 19.7 C 0 km/h
1650 09-10-2010 18:09:02 19.1 C 6.23 g/m*3 19.1 C 0 km/h
Sensor: Nr:Datum:Temp:Abs-Feuchte:Windchill:Wind:
Aussen-T/F 1651 09-10-2010 18:21:01 18.2 C 6.22 g/m*3 18.2 C 0 km/h
1652 09-10-2010 18:33:01 17 C 6.37 g/m*3 17 C 0 km/h
1653 09-10-2010 18:45:01 15.8 C 6.33 g/m*3 15.8 C 0 km/h
1654 09-10-2010 18:57:01 15 C 6.03 g/m*3 15 C 0 km/h
1655 09-10-2010 19:09:02 14.6 C 6.01 g/m*3 14.6 C 0 km/h
1656 09-10-2010 19:21:02 14 C 6.03 g/m*3 14 C 0 km/h
1657 09-10-2010 19:33:01 13.8 C 5.96 g/m*3 13.8 C 0 km/h
1658 09-10-2010 19:45:02 13.4 C 6.28 g/m*3 13.4 C 0 km/h
1659 09-10-2010 19:57:02 13.2 C 6.32 g/m*3 13.2 C 0 km/h
1660 09-10-2010 20:09:01 13 C 6.35 g/m*3 13 C 0 km/h
1661 09-10-2010 20:21:02 13.1 C 6.39 g/m*3 13.1 C 0 km/h
1662 09-10-2010 20:33:01 13 C 6.46 g/m*3 13 C 0 km/h
1663 09-10-2010 20:45:02 12.7 C 6.79 g/m*3 12.7 C 0 km/h
1664 09-10-2010 20:57:02 12.4 C 6.88 g/m*3 12.4 C 0 km/h
1665 09-10-2010 21:09:02 12 C 6.82 g/m*3 12 C 0 km/h
1666 09-10-2010 21:21:02 11.7 C 7.01 g/m*3 11.7 C 0 km/h
1667 09-10-2010 21:33:02 11.5 C 7.02 g/m*3 11.5 C 0 km/h
1668 09-10-2010 21:45:01 11.2 C 7.1 g/m*3 11.2 C 0 km/h
1669 09-10-2010 21:57:01 11 C 7.01 g/m*3 11 C 0 km/h
1670 09-10-2010 22:09:01 11 C 7.01 g/m*3 11 C 0 km/h
1671 09-10-2010 22:21:02 10.8 C 7.12 g/m*3 10.8 C 0 km/h
1672 09-10-2010 22:33:01 10.6 C 7.03 g/m*3 10.6 C 0 km/h
1673 09-10-2010 22:46:02 10.4 C 7.04 g/m*3 10.4 C 0 km/h
1674 09-10-2010 22:58:02 10.2 C 6.95 g/m*3 10.2 C 0 km/h
1675 09-10-2010 23:10:02 10 C 6.86 g/m*3 10 C 0 km/h
Sensor: Nr:Datum:Temp:Abs-Feuchte:Windchill:Wind:
Aussen-T/F 1676 09-10-2010 23:22:02 9.8 C 6.96 g/m*3 9.8 C 0 km/h
1677 09-10-2010 23:34:02 9.7 C 6.91 g/m*3 9.7 C 0 km/h
1678 09-10-2010 23:46:02 9.4 C 6.96 g/m*3 9.4 C 0 km/h
1679 09-10-2010 23:58:02 9.2 C 6.88 g/m*3 9.2 C 0 km/h
1680 10-10-2010 00:10:02 9.1 C 6.92 g/m*3 9.1 C 0 km/h
1681 10-10-2010 00:22:02 9.1 C 7.01 g/m*3 9.1 C 0 km/h
1682 10-10-2010 00:34:02 9 C 6.96 g/m*3 9 C 0 km/h
1683 10-10-2010 00:46:02 8.8 C 7.05 g/m*3 8.8 C 0 km/h
1684 10-10-2010 00:58:02 8.7 C 7.01 g/m*3 8.7 C 0 km/h
1685 10-10-2010 01:10:03 8.5 C 6.92 g/m*3 8.5 C 0 km/h
1686 10-10-2010 01:22:03 8.5 C 7 g/m*3 8.5 C 0 km/h
1687 10-10-2010 01:34:03 8.4 C 6.96 g/m*3 8.4 C 0 km/h
1688 10-10-2010 01:46:03 8.3 C 6.91 g/m*3 8.3 C 0 km/h
1689 10-10-2010 01:58:03 8.2 C 6.87 g/m*3 8.2 C 0 km/h
1690 10-10-2010 02:10:03 8 C 6.86 g/m*3 8 C 0 km/h
1691 10-10-2010 02:22:03 7.9 C 6.9 g/m*3 7.9 C 0 km/h
1692 10-10-2010 02:34:03 7.9 C 6.9 g/m*3 7.9 C 0 km/h
1693 10-10-2010 02:46:03 7.6 C 6.77 g/m*3 7.6 C 0 km/h
1694 10-10-2010 02:58:03 7.4 C 6.68 g/m*3 7.4 C 0 km/h
1695 10-10-2010 03:10:03 7.5 C 6.8 g/m*3 7.5 C 0 km/h
1696 10-10-2010 03:22:03 7.2 C 6.67 g/m*3 7.2 C 0 km/h
1697 10-10-2010 03:34:03 7.1 C 6.63 g/m*3 7.1 C 0 km/h
1698 10-10-2010 03:46:03 7 C 6.59 g/m*3 7 C 0 km/h
1699 10-10-2010 03:58:03 6.9 C 6.62 g/m*3 6.9 C 0 km/h
1700 10-10-2010 04:10:03 7 C 6.59 g/m*3 7 C 0 km/h
Sensor: Nr:Datum:Temp:Abs-Feuchte:Windchill:Wind:
Aussen-T/F 1701 10-10-2010 04:22:03 6.8 C 6.65 g/m*3 6.8 C 0 km/h
1702 10-10-2010 04:34:03 6.7 C 6.61 g/m*3 6.7 C 0 km/h
1703 10-10-2010 04:46:03 6.7 C 6.61 g/m*3 6.7 C 0 km/h
1704 10-10-2010 04:58:03 6.6 C 6.57 g/m*3 6.6 C 0 km/h
1705 10-10-2010 05:10:03 6.5 C 6.52 g/m*3 6.5 C 0 km/h
1706 10-10-2010 05:22:03 6.4 C 6.48 g/m*3 6.4 C 0 km/h
1707 10-10-2010 05:34:03 6.2 C 6.4 g/m*3 6.2 C 0 km/h
1708 10-10-2010 05:46:04 6.2 C 6.4 g/m*3 6.2 C 0 km/h
1709 10-10-2010 05:58:04 6.1 C 6.43 g/m*3 6.1 C 0 km/h
1710 10-10-2010 06:10:04 5.9 C 6.35 g/m*3 5.9 C 0 km/h
1711 10-10-2010 06:22:04 6 C 6.39 g/m*3 6 C 0 km/h
1712 10-10-2010 06:34:04 6 C 6.39 g/m*3 6 C 0 km/h
1713 10-10-2010 06:46:04 5.8 C 6.38 g/m*3 5.8 C 0 km/h
1714 10-10-2010 06:58:04 5.6 C 6.29 g/m*3 5.6 C 0 km/h
1715 10-10-2010 07:10:02 5.5 C 6.25 g/m*3 5.5 C 0 km/h
1716 10-10-2010 07:22:03 5.6 C 6.29 g/m*3 5.6 C 0 km/h
1717 10-10-2010 07:34:02 5.4 C 6.28 g/m*3 5.4 C 0 km/h
1718 10-10-2010 07:46:02 5.4 C 6.28 g/m*3 5.4 C 0 km/h
1719 10-10-2010 07:58:02 5.6 C 6.43 g/m*3 5.6 C 0 km/h
1720 10-10-2010 08:10:01 6 C 6.53 g/m*3 6 C 0 km/h
1721 10-10-2010 08:22:01 6.2 C 6.62 g/m*3 6.2 C 0 km/h
1722 10-10-2010 08:34:01 6.4 C 6.71 g/m*3 6.4 C 0 km/h
1723 10-10-2010 08:46:01 6.5 C 6.75 g/m*3 6.5 C 0 km/h
1724 10-10-2010 08:58:01 6.7 C 6.84 g/m*3 6.7 C 0 km/h
1725 10-10-2010 09:10:02 7 C 6.82 g/m*3 7 C 0 km/h
Sensor: Nr:Datum:Temp:Abs-Feuchte:Windchill:Wind:
Aussen-T/F 1726 10-10-2010 09:22:01 6.9 C 6.85 g/m*3 6.9 C 0 km/h
1727 10-10-2010 09:34:01 7.1 C 6.79 g/m*3 7.1 C 0 km/h
1728 10-10-2010 09:46:01 7.5 C 6.8 g/m*3 7.5 C 0 km/h
1729 10-10-2010 09:58:01 7.8 C 6.69 g/m*3 7.8 C 0 km/h
1730 10-10-2010 10:10:01 8.1 C 6.49 g/m*3 8.1 C 0 km/h
1731 10-10-2010 10:22:02 8.4 C 6.45 g/m*3 8.4 C 0 km/h
1732 10-10-2010 10:34:01 8.8 C 6.7 g/m*3 8.8 C 0 km/h
1733 10-10-2010 10:46:03 9.5 C 6.74 g/m*3 9.5 C 0 km/h
1734 10-10-2010 10:58:03 9.8 C 6.59 g/m*3 9.8 C 0 km/h
1735 10-10-2010 11:10:02 10.2 C 6.47 g/m*3 10.2 C 0 km/h
1736 10-10-2010 11:22:02 10.3 C 6.7 g/m*3 10.3 C 0 km/h
1737 10-10-2010 11:34:02 10.8 C 6.72 g/m*3 10.8 C 0 km/h
1738 10-10-2010 11:46:02 11.5 C 6.51 g/m*3 11.5 C 0 km/h
1739 10-10-2010 11:58:03 11.8 C 6.42 g/m*3 11.8 C 0 km/h
1740 10-10-2010 12:10:01 12 C 6.61 g/m*3 12 C 0 km/h
1741 10-10-2010 12:22:02 12.3 C 6.73 g/m*3 12.3 C 0 km/h
1742 10-10-2010 12:34:02 12.7 C 6.68 g/m*3 12.7 C 0 km/h
1743 10-10-2010 12:46:02 13.2 C 6.2 g/m*3 13.2 C 0 km/h
1744 10-10-2010 12:58:02 13.8 C 6.08 g/m*3 13.8 C 0 km/h
1745 10-10-2010 13:10:03 14.4 C 5.69 g/m*3 14.4 C 0 km/h
1746 10-10-2010 13:22:02 15.2 C 5.58 g/m*3 15.2 C 0 km/h
1747 10-10-2010 13:34:02 16 C 5.86 g/m*3 16 C 0 km/h
1748 10-10-2010 13:46:01 16.5 C 5.76 g/m*3 16.5 C 0 km/h
1749 10-10-2010 13:58:01 17.2 C 5.42 g/m*3 17.2 C 0 km/h
1750 10-10-2010 14:10:02 17.8 C 5.01 g/m*3 17.8 C 0 km/h
Sensor: Nr:Datum:Temp:Abs-Feuchte:Windchill:Wind:
Aussen-T/F 1751 10-10-2010 14:22:01 18.3 C 5.16 g/m*3 18.3 C 0 km/h
1752 10-10-2010 14:34:01 18.7 C 5.76 g/m*3 18.7 C 0 km/h
1753 10-10-2010 14:46:01 19 C 5.7 g/m*3 19 C 0 km/h
1754 10-10-2010 14:58:01 19.3 C 5.64 g/m*3 19.3 C 0 km/h
1755 10-10-2010 15:10:01 19.6 C 5.91 g/m*3 19.6 C 0 km/h
1756 10-10-2010 15:22:02 20 C 6.05 g/m*3 20 C 0 km/h
1757 10-10-2010 15:34:01 20.4 C 6.01 g/m*3 20.4 C 0 km/h
1758 10-10-2010 15:46:02 20.9 C 6.37 g/m*3 20.9 C 0 km/h
1759 10-10-2010 15:58:02 21.1 C 5.16 g/m*3 21.1 C 0 km/h
1760 10-10-2010 16:10:01 21.1 C 5.71 g/m*3 21.1 C 0 km/h
1761 10-10-2010 16:22:02 21.4 C 5.81 g/m*3 21.4 C 0 km/h
1762 10-10-2010 16:34:01 21.3 C 5.78 g/m*3 21.3 C 0 km/h
1763 10-10-2010 16:46:02 21.3 C 5.59 g/m*3 21.3 C 0 km/h
1764 10-10-2010 16:58:02 21.3 C 5.59 g/m*3 21.3 C 0 km/h
1765 10-10-2010 17:10:02 21.2 C 5.56 g/m*3 21.2 C 0 km/h
1766 10-10-2010 17:22:02 21 C 5.86 g/m*3 21 C 0 km/h
1767 10-10-2010 17:34:02 20.8 C 5.79 g/m*3 20.8 C 0 km/h
1768 10-10-2010 17:46:01 20.4 C 5.48 g/m*3 20.4 C 0 km/h
1769 10-10-2010 17:58:01 19.8 C 5.3 g/m*3 19.8 C 0 km/h
1770 10-10-2010 18:10:02 19.1 C 5.41 g/m*3 19.1 C 0 km/h
1771 10-10-2010 18:22:01 18.3 C 5.32 g/m*3 18.3 C 0 km/h
1772 10-10-2010 18:34:02 17.1 C 5.24 g/m*3 17.1 C 0 km/h
1773 10-10-2010 18:46:01 16.2 C 5.65 g/m*3 16.2 C 0 km/h
1774 10-10-2010 18:58:01 15.3 C 5.48 g/m*3 15.3 C 0 km/h
1775 10-10-2010 19:10:02 14.8 C 5.57 g/m*3 14.8 C 0 km/h
Sensor: Nr:Datum:Temp:Abs-Feuchte:Windchill:Wind:
Aussen-T/F 1776 10-10-2010 19:22:01 14.5 C 5.35 g/m*3 14.5 C 0 km/h
1777 10-10-2010 19:34:02 14.2 C 5.62 g/m*3 14.2 C 0 km/h
1778 10-10-2010 19:46:01 13.7 C 5.68 g/m*3 13.7 C 0 km/h
1779 10-10-2010 19:58:01 13.7 C 5.21 g/m*3 13.7 C 0 km/h
1780 10-10-2010 20:10:02 13.4 C 5.23 g/m*3 13.4 C 0 km/h
1781 10-10-2010 20:22:02 13 C 5.22 g/m*3 13 C 0 km/h
1782 10-10-2010 20:34:01 13 C 4.99 g/m*3 13 C 0 km/h
1783 10-10-2010 20:46:02 12.8 C 4.7 g/m*3 12.8 C 0 km/h
1784 10-10-2010 20:58:02 12.9 C 4.4 g/m*3 12.9 C 0 km/h
1785 10-10-2010 21:10:01 12.7 C 4.23 g/m*3 12.7 C 0 km/h
1786 10-10-2010 21:22:02 12.6 C 4.09 g/m*3 12.6 C 0 km/h
1787 10-10-2010 21:34:01 12.5 C 3.85 g/m*3 12.5 C 0 km/h
1788 10-10-2010 21:46:02 12.4 C 3.93 g/m*3 12.4 C 0 km/h
1789 10-10-2010 21:58:03 12 C 3.94 g/m*3 12 C 0 km/h
1790 10-10-2010 22:11:02 11.8 C 3.89 g/m*3 11.8 C 0 km/h
1791 10-10-2010 22:23:03 11.6 C 4.16 g/m*3 11.6 C 0 km/h
1792 10-10-2010 22:35:03 11.4 C 4.11 g/m*3 11.4 C 0 km/h
1793 10-10-2010 22:47:03 11.3 C 4.18 g/m*3 11.3 C 0 km/h
1794 10-10-2010 22:59:03 11.2 C 4.26 g/m*3 11.2 C 0 km/h
1795 10-10-2010 23:11:03 11.1 C 4.33 g/m*3 11.1 C 0 km/h
1796 10-10-2010 23:23:03 10.9 C 4.48 g/m*3 10.9 C 0 km/h
1797 10-10-2010 23:35:03 10.7 C 4.52 g/m*3 10.7 C 0 km/h
1798 10-10-2010 23:47:03 10.6 C 4.59 g/m*3 10.6 C 0 km/h
1799 10-10-2010 23:59:03 10.3 C 4.69 g/m*3 10.3 C 0 km/h
1800 11-10-2010 00:11:03 10.2 C 4.85 g/m*3 10.2 C 0 km/h
Sensor: Nr:Datum:Temp:Abs-Feuchte:Windchill:Wind:
Aussen-T/F 1801 11-10-2010 00:23:03 10 C 4.89 g/m*3 10 C 0 km/h
1802 11-10-2010 00:35:03 9.9 C 4.95 g/m*3 9.9 C 0 km/h
1803 11-10-2010 00:47:03 10 C 4.79 g/m*3 10 C 0 km/h
1804 11-10-2010 00:59:03 9.8 C 4.92 g/m*3 9.8 C 0 km/h
1805 11-10-2010 01:11:03 9.6 C 4.95 g/m*3 9.6 C 0 km/h
1806 11-10-2010 01:23:03 9.5 C 4.92 g/m*3 9.5 C 0 km/h
1807 11-10-2010 01:35:03 9.4 C 4.88 g/m*3 9.4 C 0 km/h
1808 11-10-2010 01:47:03 9.3 C 4.94 g/m*3 9.3 C 0 km/h
1809 11-10-2010 01:59:03 9.4 C 4.88 g/m*3 9.4 C 0 km/h
1810 11-10-2010 02:11:03 9.4 C 4.79 g/m*3 9.4 C 0 km/h
1811 11-10-2010 02:23:03 9.4 C 4.88 g/m*3 9.4 C 0 km/h
1812 11-10-2010 02:35:03 9 C 4.85 g/m*3 9 C 0 km/h
1813 11-10-2010 02:47:04 8.9 C 4.91 g/m*3 8.9 C 0 km/h
1814 11-10-2010 02:59:04 8.7 C 4.93 g/m*3 8.7 C 0 km/h
1815 11-10-2010 03:11:04 8.5 C 4.95 g/m*3 8.5 C 0 km/h
1816 11-10-2010 03:23:04 8.3 C 4.97 g/m*3 8.3 C 0 km/h
1817 11-10-2010 03:35:04 8.2 C 5.02 g/m*3 8.2 C 0 km/h
1818 11-10-2010 03:47:04 8.1 C 4.99 g/m*3 8.1 C 0 km/h
1819 11-10-2010 03:59:04 8.1 C 4.99 g/m*3 8.1 C 0 km/h
1820 11-10-2010 04:11:04 7.7 C 5.03 g/m*3 7.7 C 0 km/h
1821 11-10-2010 04:23:04 7.5 C 5.12 g/m*3 7.5 C 0 km/h
1822 11-10-2010 04:35:04 7.5 C 5.12 g/m*3 7.5 C 0 km/h
1823 11-10-2010 04:47:04 7.6 C 5.16 g/m*3 7.6 C 0 km/h
1824 11-10-2010 04:59:04 7.6 C 5.08 g/m*3 7.6 C 0 km/h
1825 11-10-2010 05:11:04 7.1 C 5.07 g/m*3 7.1 C 0 km/h
Sensor: Nr:Datum:Temp:Abs-Feuchte:Windchill:Wind:
Aussen-T/F 1826 11-10-2010 05:23:04 7 C 5.27 g/m*3 7 C 0 km/h
1827 11-10-2010 05:35:04 6.6 C 5.28 g/m*3 6.6 C 0 km/h
1828 11-10-2010 05:47:04 6.3 C 5.26 g/m*3 6.3 C 0 km/h
1829 11-10-2010 05:59:04 6.2 C 5.29 g/m*3 6.2 C 0 km/h
1830 11-10-2010 06:11:04 6 C 5.23 g/m*3 6 C 0 km/h
1831 11-10-2010 06:23:04 5.8 C 5.23 g/m*3 5.8 C 0 km/h
1832 11-10-2010 06:35:04 5.7 C 5.34 g/m*3 5.7 C 0 km/h
1833 11-10-2010 06:47:04 5.6 C 5.37 g/m*3 5.6 C 0 km/h
1834 11-10-2010 06:59:05 5.5 C 5.41 g/m*3 5.5 C 0 km/h
1835 11-10-2010 07:11:02 5.4 C 5.37 g/m*3 5.4 C 0 km/h
1836 11-10-2010 07:23:02 5.3 C 5.41 g/m*3 5.3 C 0 km/h
1837 11-10-2010 07:35:03 5.3 C 5.41 g/m*3 5.3 C 0 km/h
1838 11-10-2010 07:47:02 5.1 C 5.34 g/m*3 5.1 C 0 km/h
1839 11-10-2010 07:59:02 5 C 5.3 g/m*3 5 C 0 km/h
1840 11-10-2010 08:11:02 4.9 C 5.33 g/m*3 4.9 C 0 km/h
1841 11-10-2010 08:23:02 4.9 C 5.4 g/m*3 4.9 C 0 km/h
1842 11-10-2010 08:35:02 5 C 5.37 g/m*3 5 C 0 km/h
1843 11-10-2010 08:47:02 5 C 5.44 g/m*3 5 C 0 km/h
1844 11-10-2010 08:59:02 5 C 5.44 g/m*3 5 C 0 km/h
1845 11-10-2010 09:11:02 5.3 C 5.61 g/m*3 5.3 C 0 km/h
1846 11-10-2010 09:23:02 5.4 C 5.65 g/m*3 5.4 C 0 km/h
1847 11-10-2010 09:35:02 5.6 C 5.73 g/m*3 5.6 C 0 km/h
1848 11-10-2010 09:47:01 5.8 C 5.73 g/m*3 5.8 C 0 km/h
1849 11-10-2010 09:59:01 5.9 C 5.77 g/m*3 5.9 C 0 km/h
1850 11-10-2010 10:11:01 6.1 C 5.77 g/m*3 6.1 C 0 km/h
Sensor: Nr:Datum:Temp:Abs-Feuchte:Windchill:Wind:
Aussen-T/F 1851 11-10-2010 10:23:01 6.5 C 6 g/m*3 6.5 C 0 km/h
1852 11-10-2010 10:35:01 7.1 C 6.16 g/m*3 7.1 C 0 km/h
1853 11-10-2010 10:47:02 7.7 C 6.32 g/m*3 7.7 C 0 km/h
1854 11-10-2010 10:59:02 8.2 C 6.28 g/m*3 8.2 C 0 km/h
1855 11-10-2010 11:11:02 8.7 C 6.31 g/m*3 8.7 C 0 km/h
1856 11-10-2010 11:23:03 9 C 6.26 g/m*3 9 C 0 km/h
1857 11-10-2010 11:35:02 9.4 C 6.33 g/m*3 9.4 C 0 km/h
1858 11-10-2010 11:47:01 9.9 C 6.44 g/m*3 9.9 C 0 km/h
1859 11-10-2010 11:59:01 10.3 C 6.42 g/m*3 10.3 C 0 km/h
1860 11-10-2010 12:11:02 10.7 C 6.38 g/m*3 10.7 C 0 km/h
1861 11-10-2010 12:23:01 11.3 C 6.43 g/m*3 11.3 C 0 km/h
1862 11-10-2010 12:35:01 11.6 C 6.44 g/m*3 11.6 C 0 km/h
1863 11-10-2010 12:47:01 12 C 6.39 g/m*3 12 C 0 km/h
1864 11-10-2010 12:59:01 12.5 C 6.6 g/m*3 12.5 C 0 km/h
1865 11-10-2010 13:11:01 13.8 C 6.2 g/m*3 13.8 C 0 km/h
1866 11-10-2010 13:23:02 14.5 C 6.09 g/m*3 14.5 C 0 km/h
1867 11-10-2010 13:35:01 14.9 C 5.99 g/m*3 14.9 C 0 km/h
1868 11-10-2010 13:47:02 15.4 C 5.65 g/m*3 15.4 C 0 km/h
1869 11-10-2010 13:59:02 16 C 5.45 g/m*3 16 C 0 km/h
1870 11-10-2010 14:11:02 16.7 C 4.97 g/m*3 16.7 C 0 km/h
1871 11-10-2010 14:23:02 17.1 C 5.82 g/m*3 17.1 C 0 km/h
1872 11-10-2010 14:35:01 17.4 C 5.48 g/m*3 17.4 C 0 km/h
1873 11-10-2010 14:47:01 17.9 C 5.5 g/m*3 17.9 C 0 km/h
1874 11-10-2010 14:59:02 18.3 C 5.47 g/m*3 18.3 C 0 km/h
1875 11-10-2010 15:11:01 18.8 C 5.31 g/m*3 18.8 C 0 km/h
Sensor: Nr:Datum:Temp:Abs-Feuchte:Windchill:Wind:
Aussen-T/F 1876 11-10-2010 15:23:01 19.4 C 5.51 g/m*3 19.4 C 0 km/h
1877 11-10-2010 15:35:01 19.8 C 5.12 g/m*3 19.8 C 0 km/h
1878 11-10-2010 15:47:01 20.3 C 4.57 g/m*3 20.3 C 0 km/h
1879 11-10-2010 15:59:01 20.6 C 4.65 g/m*3 20.6 C 0 km/h
1880 11-10-2010 16:11:02 20.8 C 4.71 g/m*3 20.8 C 0 km/h
1881 11-10-2010 16:23:01 21.1 C 4.97 g/m*3 21.1 C 0 km/h
1882 11-10-2010 16:35:01 21.2 C 4.63 g/m*3 21.2 C 0 km/h
1883 11-10-2010 16:47:01 21 C 4.58 g/m*3 21 C 0 km/h
1884 11-10-2010 16:59:01 20.7 C 4.14 g/m*3 20.7 C 0 km/h
1885 11-10-2010 17:11:02 20.5 C 3.74 g/m*3 20.5 C 0 km/h
1886 11-10-2010 17:23:01 20 C 3.63 g/m*3 20 C 0 km/h
1887 11-10-2010 17:35:01 19.5 C 3.36 g/m*3 19.5 C 0 km/h
1888 11-10-2010 17:47:01 19.1 C 3.44 g/m*3 19.1 C 0 km/h
1889 11-10-2010 17:59:01 18.7 C 3.84 g/m*3 18.7 C 0 km/h
1890 11-10-2010 18:11:01 18 C 4.45 g/m*3 18 C 0 km/h
1891 11-10-2010 18:23:02 16.9 C 4.31 g/m*3 16.9 C 0 km/h
1892 11-10-2010 18:35:01 15.7 C 3.88 g/m*3 15.7 C 0 km/h
1893 11-10-2010 18:47:03 15.1 C 3.61 g/m*3 15.1 C 0 km/h
1894 11-10-2010 18:59:03 14.9 C 3.7 g/m*3 14.9 C 0 km/h
1895 11-10-2010 19:11:02 14.4 C 3.71 g/m*3 14.4 C 0 km/h
1896 11-10-2010 19:23:02 13.7 C 4.14 g/m*3 13.7 C 0 km/h
1897 11-10-2010 19:35:02 13.2 C 4.48 g/m*3 13.2 C 0 km/h
1898 11-10-2010 19:47:02 12.5 C 4.51 g/m*3 12.5 C 0 km/h
1899 11-10-2010 19:59:03 12.1 C 4.72 g/m*3 12.1 C 0 km/h
1900 11-10-2010 20:11:02 11.9 C 4.77 g/m*3 11.9 C 0 km/h
Sensor: Nr:Datum:Temp:Abs-Feuchte:Windchill:Wind:
Aussen-T/F 1901 11-10-2010 20:23:02 11.8 C 4.84 g/m*3 11.8 C 0 km/h
1902 11-10-2010 20:35:02 11.3 C 4.79 g/m*3 11.3 C 0 km/h
1903 11-10-2010 20:47:01 11 C 4.7 g/m*3 11 C 0 km/h
1904 11-10-2010 20:59:01 10.6 C 4.98 g/m*3 10.6 C 0 km/h
1905 11-10-2010 21:11:02 10.3 C 5.08 g/m*3 10.3 C 0 km/h
1906 11-10-2010 21:23:01 10.1 C 4.82 g/m*3 10.1 C 0 km/h
1907 11-10-2010 21:35:02 9.9 C 4.95 g/m*3 9.9 C 0 km/h
1908 11-10-2010 21:48:03 9.8 C 5.01 g/m*3 9.8 C 0 km/h
1909 11-10-2010 22:00:03 9.6 C 4.95 g/m*3 9.6 C 0 km/h
1910 11-10-2010 22:12:03 9.4 C 4.88 g/m*3 9.4 C 0 km/h
1911 11-10-2010 22:24:03 9.3 C 4.76 g/m*3 9.3 C 0 km/h
1912 11-10-2010 22:36:03 8.9 C 4.82 g/m*3 8.9 C 0 km/h
1913 11-10-2010 22:48:03 8.8 C 4.79 g/m*3 8.8 C 0 km/h
1914 11-10-2010 23:00:03 8.7 C 5.02 g/m*3 8.7 C 0 km/h
1915 11-10-2010 23:12:04 8.4 C 4.84 g/m*3 8.4 C 0 km/h
1916 11-10-2010 23:24:04 8.2 C 4.86 g/m*3 8.2 C 0 km/h
1917 11-10-2010 23:36:04 8.1 C 4.83 g/m*3 8.1 C 0 km/h
1918 11-10-2010 23:48:04 7.8 C 4.82 g/m*3 7.8 C 0 km/h
1919 12-10-2010 00:00:04 7.4 C 4.93 g/m*3 7.4 C 0 km/h
1920 12-10-2010 00:12:04 7.3 C 4.98 g/m*3 7.3 C 0 km/h
1921 12-10-2010 00:24:04 7.2 C 4.95 g/m*3 7.2 C 0 km/h
1922 12-10-2010 00:36:04 7.1 C 5.07 g/m*3 7.1 C 0 km/h
1923 12-10-2010 00:48:04 6.8 C 5.12 g/m*3 6.8 C 0 km/h
1924 12-10-2010 01:00:04 6.7 C 5.09 g/m*3 6.7 C 0 km/h
1925 12-10-2010 01:12:04 6.5 C 5.1 g/m*3 6.5 C 0 km/h
Sensor: Nr:Datum:Temp:Abs-Feuchte:Windchill:Wind:
Aussen-T/F 1926 12-10-2010 01:24:04 6.4 C 5.14 g/m*3 6.4 C 0 km/h
1927 12-10-2010 01:36:04 6.3 C 5.18 g/m*3 6.3 C 0 km/h
1928 12-10-2010 01:48:04 6.1 C 5.11 g/m*3 6.1 C 0 km/h
1929 12-10-2010 02:00:04 6 C 5.15 g/m*3 6 C 0 km/h
1930 12-10-2010 02:12:04 5.8 C 5.23 g/m*3 5.8 C 0 km/h
1931 12-10-2010 02:24:04 5.8 C 5.3 g/m*3 5.8 C 0 km/h
1932 12-10-2010 02:36:04 5.6 C 5.23 g/m*3 5.6 C 0 km/h
1933 12-10-2010 02:48:04 5.5 C 5.27 g/m*3 5.5 C 0 km/h
1934 12-10-2010 03:00:04 5.2 C 5.16 g/m*3 5.2 C 0 km/h
1935 12-10-2010 03:12:04 5.3 C 5.41 g/m*3 5.3 C 0 km/h
1936 12-10-2010 03:24:05 5.1 C 5.4 g/m*3 5.1 C 0 km/h
1937 12-10-2010 03:36:05 4.9 C 5.33 g/m*3 4.9 C 0 km/h
1938 12-10-2010 03:48:05 4.7 C 5.26 g/m*3 4.7 C 0 km/h
1939 12-10-2010 04:00:05 4.6 C 5.29 g/m*3 4.6 C 0 km/h
1940 12-10-2010 04:12:05 4.4 C 5.22 g/m*3 4.4 C 0 km/h
1941 12-10-2010 04:24:05 4.5 C 5.39 g/m*3 4.5 C 0 km/h
1942 12-10-2010 04:36:05 4.4 C 5.42 g/m*3 4.4 C 0 km/h
1943 12-10-2010 04:48:05 4.2 C 5.35 g/m*3 4.2 C 0 km/h
1944 12-10-2010 05:00:05 4.1 C 5.38 g/m*3 4.1 C 0 km/h
1945 12-10-2010 05:12:05 4 C 5.34 g/m*3 4 C 0 km/h
1946 12-10-2010 05:24:05 3.7 C 5.3 g/m*3 3.7 C 0 km/h
1947 12-10-2010 05:36:05 3.6 C 5.26 g/m*3 3.6 C 0 km/h
1948 12-10-2010 05:48:05 3.6 C 5.26 g/m*3 3.6 C 0 km/h
1949 12-10-2010 06:00:05 3.6 C 5.26 g/m*3 3.6 C 0 km/h
1950 12-10-2010 06:12:05 3.5 C 5.29 g/m*3 3.5 C 0 km/h
Sensor: Nr:Datum:Temp:Abs-Feuchte:Windchill:Wind:
Aussen-T/F 1951 12-10-2010 06:24:05 3.4 C 5.25 g/m*3 3.4 C 0 km/h
1952 12-10-2010 06:36:05 3.4 C 5.25 g/m*3 3.4 C 0 km/h
1953 12-10-2010 06:48:02 3.4 C 5.25 g/m*3 3.4 C 0 km/h
1954 12-10-2010 07:00:02 3.2 C 5.18 g/m*3 3.2 C 0 km/h
1955 12-10-2010 07:12:03 3.1 C 5.15 g/m*3 3.1 C 0 km/h
1956 12-10-2010 07:24:02 3 C 5.17 g/m*3 3 C 0 km/h
1957 12-10-2010 07:36:02 2.8 C 5.16 g/m*3 2.8 C 0 km/h
1958 12-10-2010 07:48:01 2.6 C 5.09 g/m*3 2.6 C 0 km/h
1959 12-10-2010 08:00:01 2.7 C 5.13 g/m*3 2.7 C 0 km/h
1960 12-10-2010 08:12:02 3.2 C 5.36 g/m*3 3.2 C 0 km/h
1961 12-10-2010 08:24:02 3.6 C 5.57 g/m*3 3.6 C 0 km/h
1962 12-10-2010 08:36:02 4 C 5.72 g/m*3 4 C 0 km/h
1963 12-10-2010 08:48:02 4.3 C 5.84 g/m*3 4.3 C 0 km/h
1964 12-10-2010 09:00:02 4.5 C 5.85 g/m*3 4.5 C 0 km/h
1965 12-10-2010 09:12:02 4.7 C 5.93 g/m*3 4.7 C 0 km/h
1966 12-10-2010 09:24:02 4.8 C 5.9 g/m*3 4.8 C 0 km/h
1967 12-10-2010 09:36:02 5.2 C 5.99 g/m*3 5.2 C 0 km/h
1968 12-10-2010 09:48:02 5.3 C 5.96 g/m*3 5.3 C 0 km/h
1969 12-10-2010 10:00:02 5.3 C 5.89 g/m*3 5.3 C 0 km/h
1970 12-10-2010 10:12:02 5.6 C 6.01 g/m*3 5.6 C 0 km/h
1971 12-10-2010 10:24:02 5.7 C 6.05 g/m*3 5.7 C 0 km/h
1972 12-10-2010 10:36:02 6 C 6.1 g/m*3 6 C 0 km/h
1973 12-10-2010 10:48:02 6.5 C 6.3 g/m*3 6.5 C 0 km/h
1974 12-10-2010 11:00:02 6.5 C 6.3 g/m*3 6.5 C 0 km/h
1975 12-10-2010 11:12:02 6.6 C 6.34 g/m*3 6.6 C 0 km/h
Sensor: Nr:Datum:Temp:Abs-Feuchte:Windchill:Wind:
Aussen-T/F 1976 12-10-2010 11:24:02 7 C 6.43 g/m*3 7 C 0 km/h
1977 12-10-2010 11:36:02 7.7 C 6.41 g/m*3 7.7 C 0 km/h
1978 12-10-2010 11:48:02 8 C 6.28 g/m*3 8 C 0 km/h
1979 12-10-2010 12:00:02 8.4 C 6.28 g/m*3 8.4 C 0 km/h
1980 12-10-2010 12:12:02 9 C 6.17 g/m*3 9 C 0 km/h
1981 12-10-2010 12:24:02 9.6 C 6.14 g/m*3 9.6 C 0 km/h
1982 12-10-2010 12:36:02 10.2 C 6.09 g/m*3 10.2 C 0 km/h
1983 12-10-2010 12:48:02 10.6 C 6.15 g/m*3 10.6 C 0 km/h
1984 12-10-2010 13:00:02 11.5 C 5.78 g/m*3 11.5 C 0 km/h
1985 12-10-2010 13:12:01 12.2 C 5.5 g/m*3 12.2 C 0 km/h
1986 12-10-2010 13:24:02 12.7 C 5.79 g/m*3 12.7 C 0 km/h
1987 12-10-2010 13:36:02 13 C 5.78 g/m*3 13 C 0 km/h
1988 12-10-2010 13:48:02 13.5 C 5.73 g/m*3 13.5 C 0 km/h
1989 12-10-2010 14:00:02 14.1 C 5.83 g/m*3 14.1 C 0 km/h
1990 12-10-2010 14:12:03 15 C 5.39 g/m*3 15 C 0 km/h
1991 12-10-2010 14:24:02 15.4 C 5.65 g/m*3 15.4 C 0 km/h
1992 12-10-2010 14:36:02 15.6 C 5.72 g/m*3 15.6 C 0 km/h
1993 12-10-2010 14:48:01 16.2 C 5.65 g/m*3 16.2 C 0 km/h
1994 12-10-2010 15:00:01 16.4 C 5.58 g/m*3 16.4 C 0 km/h
1995 12-10-2010 15:12:02 17 C 5.5 g/m*3 17 C 0 km/h
1996 12-10-2010 15:24:01 16.8 C 5.29 g/m*3 16.8 C 0 km/h
1997 12-10-2010 15:36:01 17.2 C 5.42 g/m*3 17.2 C 0 km/h
1998 12-10-2010 15:48:01 17.3 C 5.3 g/m*3 17.3 C 0 km/h
1999 12-10-2010 16:00:01 17.5 C 5.52 g/m*3 17.5 C 0 km/h
2000 12-10-2010 16:12:02 17.8 C 5.31 g/m*3 17.8 C 0 km/h
Sensor: Nr:Datum:Temp:Abs-Feuchte:Windchill:Wind:
Aussen-T/F 2001 12-10-2010 16:24:02 17.4 C 5.48 g/m*3 17.4 C 0 km/h
2002 12-10-2010 16:36:01 17.7 C 5.43 g/m*3 17.7 C 0 km/h
2003 12-10-2010 16:48:02 17.9 C 5.34 g/m*3 17.9 C 0 km/h
2004 12-10-2010 17:00:02 17.9 C 4.89 g/m*3 17.9 C 0 km/h
2005 12-10-2010 17:12:01 17.8 C 4.86 g/m*3 17.8 C 0 km/h
2006 12-10-2010 17:24:02 17.4 C 4.45 g/m*3 17.4 C 0 km/h
2007 12-10-2010 17:36:01 16.6 C 4.24 g/m*3 16.6 C 0 km/h
2008 12-10-2010 17:48:02 16.4 C 4.47 g/m*3 16.4 C 0 km/h
2009 12-10-2010 18:00:02 16 C 4.9 g/m*3 16 C 0 km/h
2010 12-10-2010 18:12:02 15.4 C 5.39 g/m*3 15.4 C 0 km/h
2011 12-10-2010 18:24:02 14.4 C 5.69 g/m*3 14.4 C 0 km/h
2012 12-10-2010 18:36:03 13.7 C 5.92 g/m*3 13.7 C 0 km/h
2013 12-10-2010 18:48:02 13 C 6.12 g/m*3 13 C 0 km/h
2014 12-10-2010 19:00:02 12.3 C 6.3 g/m*3 12.3 C 0 km/h
2015 12-10-2010 19:12:02 11.8 C 6.42 g/m*3 11.8 C 0 km/h
2016 12-10-2010 19:24:02 11.3 C 6.43 g/m*3 11.3 C 0 km/h
2017 12-10-2010 19:36:02 10.9 C 6.56 g/m*3 10.9 C 0 km/h
2018 12-10-2010 19:48:02 10.8 C 6.52 g/m*3 10.8 C 0 km/h
2019 12-10-2010 20:00:02 10.4 C 6.46 g/m*3 10.4 C 0 km/h
2020 12-10-2010 20:12:01 10.1 C 6.43 g/m*3 10.1 C 0 km/h
2021 12-10-2010 20:24:02 9.9 C 6.54 g/m*3 9.9 C 0 km/h
2022 12-10-2010 20:36:01 9.5 C 6.46 g/m*3 9.5 C 0 km/h
2023 12-10-2010 20:48:02 9.3 C 6.47 g/m*3 9.3 C 0 km/h
2024 12-10-2010 21:00:02 8.9 C 6.39 g/m*3 8.9 C 0 km/h
2025 12-10-2010 21:12:02 8.6 C 6.27 g/m*3 8.6 C 0 km/h
Sensor: Nr:Datum:Temp:Abs-Feuchte:Windchill:Wind:
Aussen-T/F 2026 12-10-2010 21:24:02 8.3 C 6.24 g/m*3 8.3 C 0 km/h
2027 12-10-2010 21:36:02 8.1 C 6.16 g/m*3 8.1 C 0 km/h
2028 12-10-2010 21:48:02 7.9 C 6.24 g/m*3 7.9 C 0 km/h
2029 12-10-2010 22:00:02 7.7 C 6.16 g/m*3 7.7 C 0 km/h
2030 12-10-2010 22:12:01 7.5 C 6.08 g/m*3 7.5 C 0 km/h
2031 12-10-2010 22:25:03 7.6 C 6.2 g/m*3 7.6 C 0 km/h
2032 12-10-2010 22:37:03 7.9 C 6.24 g/m*3 7.9 C 0 km/h
2033 12-10-2010 22:49:03 8 C 6.04 g/m*3 8 C 0 km/h
2034 12-10-2010 23:01:03 7.9 C 6 g/m*3 7.9 C 0 km/h
2035 12-10-2010 23:13:03 7.7 C 5.92 g/m*3 7.7 C 0 km/h
2036 12-10-2010 23:25:03 7.8 C 6.04 g/m*3 7.8 C 0 km/h
2037 12-10-2010 23:37:03 7.8 C 6.04 g/m*3 7.8 C 0 km/h
2038 12-10-2010 23:49:03 7.7 C 6 g/m*3 7.7 C 0 km/h
2039 13-10-2010 00:01:03 7.7 C 5.92 g/m*3 7.7 C 0 km/h
2040 13-10-2010 00:13:03 7.7 C 5.92 g/m*3 7.7 C 0 km/h
2041 13-10-2010 00:25:03 7.9 C 5.91 g/m*3 7.9 C 0 km/h
2042 13-10-2010 00:37:03 7.4 C 5.81 g/m*3 7.4 C 0 km/h
2043 13-10-2010 00:49:03 7.3 C 5.77 g/m*3 7.3 C 0 km/h
2044 13-10-2010 01:01:03 7.3 C 5.85 g/m*3 7.3 C 0 km/h
2045 13-10-2010 01:13:03 7.3 C 5.85 g/m*3 7.3 C 0 km/h
2046 13-10-2010 01:25:04 7 C 5.73 g/m*3 7 C 0 km/h
2047 13-10-2010 01:37:04 6.8 C 5.81 g/m*3 6.8 C 0 km/h
2048 13-10-2010 01:49:04 6.7 C 5.85 g/m*3 6.7 C 0 km/h
2049 13-10-2010 02:01:04 6.9 C 5.93 g/m*3 6.9 C 0 km/h
2050 13-10-2010 02:13:04 6.9 C 5.85 g/m*3 6.9 C 0 km/h
Sensor: Nr:Datum:Temp:Abs-Feuchte:Windchill:Wind:
Aussen-T/F 2051 13-10-2010 02:25:04 6.8 C 5.81 g/m*3 6.8 C 0 km/h
2052 13-10-2010 02:37:04 6.9 C 5.85 g/m*3 6.9 C 0 km/h
2053 13-10-2010 02:49:04 6.5 C 5.7 g/m*3 6.5 C 0 km/h
2054 13-10-2010 03:01:04 6.4 C 5.74 g/m*3 6.4 C 0 km/h
2055 13-10-2010 03:13:04 6.4 C 5.74 g/m*3 6.4 C 0 km/h
2056 13-10-2010 03:25:04 6.5 C 5.7 g/m*3 6.5 C 0 km/h
2057 13-10-2010 03:37:04 6.5 C 5.7 g/m*3 6.5 C 0 km/h
2058 13-10-2010 03:49:04 6.4 C 5.59 g/m*3 6.4 C 0 km/h
2059 13-10-2010 04:01:04 6.2 C 5.52 g/m*3 6.2 C 0 km/h
2060 13-10-2010 04:13:04 6.1 C 5.55 g/m*3 6.1 C 0 km/h
2061 13-10-2010 04:25:04 6.2 C 5.66 g/m*3 6.2 C 0 km/h
2062 13-10-2010 04:37:04 6.2 C 5.59 g/m*3 6.2 C 0 km/h
2063 13-10-2010 04:49:04 6.3 C 5.63 g/m*3 6.3 C 0 km/h
2064 13-10-2010 05:01:04 6.3 C 5.63 g/m*3 6.3 C 0 km/h
2065 13-10-2010 05:13:04 6.2 C 5.59 g/m*3 6.2 C 0 km/h
2066 13-10-2010 05:25:04 6.1 C 5.55 g/m*3 6.1 C 0 km/h
2067 13-10-2010 05:37:05 6 C 5.59 g/m*3 6 C 0 km/h
2068 13-10-2010 05:49:05 5.9 C 5.62 g/m*3 5.9 C 0 km/h
2069 13-10-2010 06:01:05 6 C 5.66 g/m*3 6 C 0 km/h
2070 13-10-2010 06:13:05 6 C 5.59 g/m*3 6 C 0 km/h
2071 13-10-2010 06:25:05 5.8 C 5.59 g/m*3 5.8 C 0 km/h
2072 13-10-2010 06:37:05 5.8 C 5.59 g/m*3 5.8 C 0 km/h
2073 13-10-2010 06:49:02 5.6 C 5.59 g/m*3 5.6 C 0 km/h
2074 13-10-2010 07:01:02 5.5 C 5.55 g/m*3 5.5 C 0 km/h
2075 13-10-2010 07:13:02 5.4 C 5.51 g/m*3 5.4 C 0 km/h
Sensor: Nr:Datum:Temp:Abs-Feuchte:Windchill:Wind:
Aussen-T/F 2076 13-10-2010 07:25:02 5.2 C 5.44 g/m*3 5.2 C 0 km/h
2077 13-10-2010 07:37:02 5.4 C 5.58 g/m*3 5.4 C 0 km/h
2078 13-10-2010 07:49:01 5.6 C 5.59 g/m*3 5.6 C 0 km/h
2079 13-10-2010 08:01:02 5.7 C 5.55 g/m*3 5.7 C 0 km/h
2080 13-10-2010 08:13:02 5.6 C 5.51 g/m*3 5.6 C 0 km/h
2081 13-10-2010 08:25:02 5.6 C 5.51 g/m*3 5.6 C 0 km/h
2082 13-10-2010 08:37:01 5.6 C 5.44 g/m*3 5.6 C 0 km/h
2083 13-10-2010 08:49:02 5.6 C 5.44 g/m*3 5.6 C 0 km/h
2084 13-10-2010 09:01:02 5.7 C 5.48 g/m*3 5.7 C 0 km/h
2085 13-10-2010 09:13:02 5.7 C 5.48 g/m*3 5.7 C 0 km/h
2086 13-10-2010 09:25:02 5.8 C 5.44 g/m*3 5.8 C 0 km/h
2087 13-10-2010 09:37:03 6 C 5.44 g/m*3 6 C 0 km/h
2088 13-10-2010 09:49:02 6.1 C 5.41 g/m*3 6.1 C 0 km/h
2089 13-10-2010 10:01:02 6.4 C 5.44 g/m*3 6.4 C 0 km/h
2090 13-10-2010 10:13:02 6.6 C 5.36 g/m*3 6.6 C 0 km/h
2091 13-10-2010 10:25:01 6.7 C 5.32 g/m*3 6.7 C 0 km/h
2092 13-10-2010 10:37:02 6.8 C 5.2 g/m*3 6.8 C 0 km/h
2093 13-10-2010 10:49:02 6.8 C 5.2 g/m*3 6.8 C 0 km/h
2094 13-10-2010 11:01:02 7 C 5.11 g/m*3 7 C 0 km/h
2095 13-10-2010 11:13:02 7 C 5.04 g/m*3 7 C 0 km/h
2096 13-10-2010 11:25:02 6.8 C 5.05 g/m*3 6.8 C 0 km/h
2097 13-10-2010 11:37:02 7.1 C 5.15 g/m*3 7.1 C 0 km/h
2098 13-10-2010 11:49:02 7.3 C 5.06 g/m*3 7.3 C 0 km/h
2099 13-10-2010 12:01:02 7.7 C 5.11 g/m*3 7.7 C 0 km/h
2100 13-10-2010 12:13:02 7.9 C 5.01 g/m*3 7.9 C 0 km/h
Sensor: Nr:Datum:Temp:Abs-Feuchte:Windchill:Wind:
Aussen-T/F 2101 13-10-2010 12:25:02 8 C 5.04 g/m*3 8 C 0 km/h
2102 13-10-2010 12:37:02 8.4 C 5.01 g/m*3 8.4 C 0 km/h
2103 13-10-2010 12:49:02 8.7 C 5.1 g/m*3 8.7 C 0 km/h
2104 13-10-2010 13:01:02 9 C 4.94 g/m*3 9 C 0 km/h
2105 13-10-2010 13:13:02 8.8 C 4.87 g/m*3 8.8 C 0 km/h
2106 13-10-2010 13:25:02 9 C 4.94 g/m*3 9 C 0 km/h
2107 13-10-2010 13:37:02 8.5 C 4.87 g/m*3 8.5 C 0 km/h
2108 13-10-2010 13:49:02 8.7 C 4.84 g/m*3 8.7 C 0 km/h
2109 13-10-2010 14:01:02 9.6 C 5.13 g/m*3 9.6 C 0 km/h
2110 13-10-2010 14:13:02 9.4 C 4.79 g/m*3 9.4 C 0 km/h
2111 13-10-2010 14:25:02 9.6 C 4.86 g/m*3 9.6 C 0 km/h
2112 13-10-2010 14:37:01 9.7 C 4.98 g/m*3 9.7 C 0 km/h
2113 13-10-2010 14:49:02 10.7 C 5.01 g/m*3 10.7 C 0 km/h
2114 13-10-2010 15:01:01 11.3 C 5 g/m*3 11.3 C 0 km/h
2115 13-10-2010 15:13:01 11.2 C 4.87 g/m*3 11.2 C 0 km/h
2116 13-10-2010 15:25:01 11.9 C 5.08 g/m*3 11.9 C 0 km/h
2117 13-10-2010 15:37:02 12 C 4.8 g/m*3 12 C 0 km/h
2118 13-10-2010 15:49:02 12.5 C 4.95 g/m*3 12.5 C 0 km/h
2119 13-10-2010 16:01:02 12.1 C 4.93 g/m*3 12.1 C 0 km/h
2120 13-10-2010 16:13:02 11.9 C 4.98 g/m*3 11.9 C 0 km/h
2121 13-10-2010 16:25:01 12.1 C 4.93 g/m*3 12.1 C 0 km/h
2122 13-10-2010 16:37:02 11.8 C 5.05 g/m*3 11.8 C 0 km/h
2123 13-10-2010 16:49:02 12.4 C 5.14 g/m*3 12.4 C 0 km/h
2124 13-10-2010 17:01:02 12.3 C 4.99 g/m*3 12.3 C 0 km/h
2125 13-10-2010 17:13:02 12.2 C 5.07 g/m*3 12.2 C 0 km/h
Sensor: Nr:Datum:Temp:Abs-Feuchte:Windchill:Wind:
Aussen-T/F 2126 13-10-2010 17:25:01 12.5 C 5.39 g/m*3 12.5 C 0 km/h
2127 13-10-2010 17:37:02 12.5 C 5.28 g/m*3 12.5 C 0 km/h
2128 13-10-2010 17:49:01 12.2 C 5.4 g/m*3 12.2 C 0 km/h
2129 13-10-2010 18:01:02 11.6 C 5.4 g/m*3 11.6 C 0 km/h
2130 13-10-2010 18:13:02 10.9 C 5.47 g/m*3 10.9 C 0 km/h
2131 13-10-2010 18:25:02 9.8 C 5.47 g/m*3 9.8 C 0 km/h
2132 13-10-2010 18:37:02 9 C 5.47 g/m*3 9 C 0 km/h
2133 13-10-2010 18:49:02 8.4 C 5.6 g/m*3 8.4 C 0 km/h
2134 13-10-2010 19:01:01 7.9 C 5.67 g/m*3 7.9 C 0 km/h
2135 13-10-2010 19:13:01 7.6 C 5.72 g/m*3 7.6 C 0 km/h
2136 13-10-2010 19:25:02 7.4 C 5.73 g/m*3 7.4 C 0 km/h
2137 13-10-2010 19:37:01 7.3 C 5.85 g/m*3 7.3 C 0 km/h
2138 13-10-2010 19:49:02 7.2 C 5.81 g/m*3 7.2 C 0 km/h
2139 13-10-2010 20:01:02 7.3 C 5.85 g/m*3 7.3 C 0 km/h
2140 13-10-2010 20:13:02 7 C 5.73 g/m*3 7 C 0 km/h
2141 13-10-2010 20:25:02 7 C 5.81 g/m*3 7 C 0 km/h
2142 13-10-2010 20:37:03 6.9 C 5.85 g/m*3 6.9 C 0 km/h
2143 13-10-2010 20:49:02 6.6 C 5.81 g/m*3 6.6 C 0 km/h
2144 13-10-2010 21:01:02 6.3 C 5.77 g/m*3 6.3 C 0 km/h
2145 13-10-2010 21:13:02 6 C 5.73 g/m*3 6 C 0 km/h
2146 13-10-2010 21:25:01 5.8 C 5.73 g/m*3 5.8 C 0 km/h
2147 13-10-2010 21:37:02 5.6 C 5.73 g/m*3 5.6 C 0 km/h
2148 13-10-2010 21:49:02 5.4 C 5.65 g/m*3 5.4 C 0 km/h
2149 13-10-2010 22:02:03 5.4 C 5.72 g/m*3 5.4 C 0 km/h
2150 13-10-2010 22:14:03 5.3 C 5.75 g/m*3 5.3 C 0 km/h
Sensor: Nr:Datum:Temp:Abs-Feuchte:Windchill:Wind:
Aussen-T/F 2151 13-10-2010 22:26:03 5.2 C 5.71 g/m*3 5.2 C 0 km/h
2152 13-10-2010 22:38:03 5.1 C 5.75 g/m*3 5.1 C 0 km/h
2153 13-10-2010 22:50:03 4.8 C 5.7 g/m*3 4.8 C 0 km/h
2154 13-10-2010 23:02:03 4.7 C 5.66 g/m*3 4.7 C 0 km/h
2155 13-10-2010 23:14:03 4.6 C 5.62 g/m*3 4.6 C 0 km/h
2156 13-10-2010 23:26:03 4.6 C 5.62 g/m*3 4.6 C 0 km/h
2157 13-10-2010 23:38:03 4.5 C 5.59 g/m*3 4.5 C 0 km/h
2158 13-10-2010 23:50:03 4.2 C 5.54 g/m*3 4.2 C 0 km/h
2159 14-10-2010 00:02:03 4.1 C 5.5 g/m*3 4.1 C 0 km/h
2160 14-10-2010 00:14:03 4.1 C 5.57 g/m*3 4.1 C 0 km/h
2161 14-10-2010 00:26:03 3.9 C 5.56 g/m*3 3.9 C 0 km/h
2162 14-10-2010 00:38:03 3.7 C 5.48 g/m*3 3.7 C 0 km/h
2163 14-10-2010 00:50:03 3.6 C 5.45 g/m*3 3.6 C 0 km/h
2164 14-10-2010 01:02:04 3.4 C 5.44 g/m*3 3.4 C 0 km/h
2165 14-10-2010 01:14:04 3.4 C 5.44 g/m*3 3.4 C 0 km/h
2166 14-10-2010 01:26:04 3.3 C 5.4 g/m*3 3.3 C 0 km/h
2167 14-10-2010 01:38:04 3.3 C 5.46 g/m*3 3.3 C 0 km/h
2168 14-10-2010 01:50:04 3.5 C 5.6 g/m*3 3.5 C 0 km/h
2169 14-10-2010 02:02:04 3.6 C 5.63 g/m*3 3.6 C 0 km/h
2170 14-10-2010 02:14:04 3.5 C 5.6 g/m*3 3.5 C 0 km/h
2171 14-10-2010 02:26:04 3.6 C 5.63 g/m*3 3.6 C 0 km/h
2172 14-10-2010 02:38:04 3.7 C 5.73 g/m*3 3.7 C 0 km/h
2173 14-10-2010 02:50:04 3.7 C 5.67 g/m*3 3.7 C 0 km/h
2174 14-10-2010 03:02:04 3.6 C 5.63 g/m*3 3.6 C 0 km/h
2175 14-10-2010 03:14:04 3.5 C 5.6 g/m*3 3.5 C 0 km/h
Sensor: Nr:Datum:Temp:Abs-Feuchte:Windchill:Wind:
Aussen-T/F 2176 14-10-2010 03:26:04 3.6 C 5.57 g/m*3 3.6 C 0 km/h
2177 14-10-2010 03:38:04 3.5 C 5.53 g/m*3 3.5 C 0 km/h
2178 14-10-2010 03:50:04 3.4 C 5.5 g/m*3 3.4 C 0 km/h
2179 14-10-2010 04:02:04 3.4 C 5.5 g/m*3 3.4 C 0 km/h
2180 14-10-2010 04:14:04 3.5 C 5.53 g/m*3 3.5 C 0 km/h
2181 14-10-2010 04:26:04 3.6 C 5.57 g/m*3 3.6 C 0 km/h
2182 14-10-2010 04:38:04 3.6 C 5.57 g/m*3 3.6 C 0 km/h
2183 14-10-2010 04:50:04 3.6 C 5.57 g/m*3 3.6 C 0 km/h
2184 14-10-2010 05:02:05 3.5 C 5.53 g/m*3 3.5 C 0 km/h
2185 14-10-2010 05:14:05 3.6 C 5.63 g/m*3 3.6 C 0 km/h
2186 14-10-2010 05:26:05 3.6 C 5.63 g/m*3 3.6 C 0 km/h
2187 14-10-2010 05:38:05 3.6 C 5.63 g/m*3 3.6 C 0 km/h
2188 14-10-2010 05:50:05 3.8 C 5.71 g/m*3 3.8 C 0 km/h
2189 14-10-2010 06:02:05 3.9 C 5.75 g/m*3 3.9 C 0 km/h
2190 14-10-2010 06:14:05 3.9 C 5.75 g/m*3 3.9 C 0 km/h
2191 14-10-2010 06:26:05 3.9 C 5.68 g/m*3 3.9 C 0 km/h
2192 14-10-2010 06:38:05 3.9 C 5.68 g/m*3 3.9 C 0 km/h
2193 14-10-2010 06:50:01 4 C 5.66 g/m*3 4 C 0 km/h
2194 14-10-2010 07:02:02 4 C 5.66 g/m*3 4 C 0 km/h
2195 14-10-2010 07:14:02 4 C 5.72 g/m*3 4 C 0 km/h
2196 14-10-2010 07:26:02 4.1 C 5.76 g/m*3 4.1 C 0 km/h
2197 14-10-2010 07:38:01 4.2 C 5.8 g/m*3 4.2 C 0 km/h
2198 14-10-2010 07:50:02 4.3 C 5.84 g/m*3 4.3 C 0 km/h
2199 14-10-2010 08:02:01 4.4 C 5.88 g/m*3 4.4 C 0 km/h
2200 14-10-2010 08:14:01 4.5 C 5.85 g/m*3 4.5 C 0 km/h
Sensor: Nr:Datum:Temp:Abs-Feuchte:Windchill:Wind:
Aussen-T/F 2201 14-10-2010 08:26:01 4.5 C 5.85 g/m*3 4.5 C 0 km/h
2202 14-10-2010 08:38:02 4.4 C 5.81 g/m*3 4.4 C 0 km/h
2203 14-10-2010 08:50:02 4.4 C 5.81 g/m*3 4.4 C 0 km/h
2204 14-10-2010 09:02:02 4.5 C 5.85 g/m*3 4.5 C 0 km/h
2205 14-10-2010 09:14:02 4.4 C 5.81 g/m*3 4.4 C 0 km/h
2206 14-10-2010 09:26:02 4.6 C 5.89 g/m*3 4.6 C 0 km/h
2207 14-10-2010 09:38:02 4.6 C 5.89 g/m*3 4.6 C 0 km/h
2208 14-10-2010 09:50:02 4.7 C 5.86 g/m*3 4.7 C 0 km/h
2209 14-10-2010 10:02:02 5 C 5.91 g/m*3 5 C 0 km/h
2210 14-10-2010 10:14:02 5 C 5.91 g/m*3 5 C 0 km/h
2211 14-10-2010 10:26:02 5 C 5.78 g/m*3 5 C 0 km/h
2212 14-10-2010 10:38:02 5.2 C 5.85 g/m*3 5.2 C 0 km/h
2213 14-10-2010 10:50:02 5.6 C 5.94 g/m*3 5.6 C 0 km/h
2214 14-10-2010 11:02:02 6 C 5.95 g/m*3 6 C 0 km/h
2215 14-10-2010 11:14:02 5.9 C 5.77 g/m*3 5.9 C 0 km/h
2216 14-10-2010 11:26:02 6.2 C 5.74 g/m*3 6.2 C 0 km/h
2217 14-10-2010 11:38:02 6.1 C 5.55 g/m*3 6.1 C 0 km/h
2218 14-10-2010 11:50:02 6.8 C 5.74 g/m*3 6.8 C 0 km/h
2219 14-10-2010 12:02:02 7 C 5.58 g/m*3 7 C 0 km/h
2220 14-10-2010 12:14:02 7.5 C 5.68 g/m*3 7.5 C 0 km/h
2221 14-10-2010 12:26:02 8 C 5.62 g/m*3 8 C 0 km/h
2222 14-10-2010 12:38:01 8.4 C 5.51 g/m*3 8.4 C 0 km/h
2223 14-10-2010 12:50:02 8.4 C 5.51 g/m*3 8.4 C 0 km/h
2224 14-10-2010 13:02:01 9.2 C 5.63 g/m*3 9.2 C 0 km/h
2225 14-10-2010 13:14:01 8.7 C 5.36 g/m*3 8.7 C 0 km/h
Sensor: Nr:Datum:Temp:Abs-Feuchte:Windchill:Wind:
Aussen-T/F 2226 14-10-2010 13:26:02 9.4 C 5.61 g/m*3 9.4 C 0 km/h
2227 14-10-2010 13:38:02 9.6 C 5.59 g/m*3 9.6 C 0 km/h
2228 14-10-2010 13:50:02 9.9 C 5.7 g/m*3 9.9 C 0 km/h
2229 14-10-2010 14:02:03 10.8 C 5.83 g/m*3 10.8 C 0 km/h
2230 14-10-2010 14:14:03 11.4 C 5.85 g/m*3 11.4 C 0 km/h
2231 14-10-2010 14:26:02 11.9 C 5.82 g/m*3 11.9 C 0 km/h
2232 14-10-2010 14:38:02 12.3 C 5.86 g/m*3 12.3 C 0 km/h
2233 14-10-2010 14:50:01 12.9 C 5.86 g/m*3 12.9 C 0 km/h
2234 14-10-2010 15:02:02 13.1 C 5.71 g/m*3 13.1 C 0 km/h
2235 14-10-2010 15:14:02 13.8 C 5.84 g/m*3 13.8 C 0 km/h
2236 14-10-2010 15:26:01 14 C 5.67 g/m*3 14 C 0 km/h
2237 14-10-2010 15:38:01 14.4 C 5.81 g/m*3 14.4 C 0 km/h
2238 14-10-2010 15:50:01 14.4 C 5.56 g/m*3 14.4 C 0 km/h
2239 14-10-2010 16:02:02 14.7 C 5.67 g/m*3 14.7 C 0 km/h
2240 14-10-2010 16:14:02 14.7 C 5.67 g/m*3 14.7 C 0 km/h
2241 14-10-2010 16:26:02 14.4 C 5.81 g/m*3 14.4 C 0 km/h
2242 14-10-2010 16:38:01 14 C 6.03 g/m*3 14 C 0 km/h
2243 14-10-2010 16:50:02 14.2 C 5.98 g/m*3 14.2 C 0 km/h
2244 14-10-2010 17:02:01 13.5 C 5.5 g/m*3 13.5 C 0 km/h
2245 14-10-2010 17:14:01 13.4 C 5.46 g/m*3 13.4 C 0 km/h
2246 14-10-2010 17:26:02 13.4 C 5.46 g/m*3 13.4 C 0 km/h
2247 14-10-2010 17:38:01 13 C 5.33 g/m*3 13 C 0 km/h
2248 14-10-2010 17:50:02 12.9 C 5.75 g/m*3 12.9 C 0 km/h
2249 14-10-2010 18:02:02 12 C 5.75 g/m*3 12 C 0 km/h
2250 14-10-2010 18:14:02 11.6 C 5.92 g/m*3 11.6 C 0 km/h
Sensor: Nr:Datum:Temp:Abs-Feuchte:Windchill:Wind:
Aussen-T/F 2251 14-10-2010 18:26:02 10.9 C 5.97 g/m*3 10.9 C 0 km/h
2252 14-10-2010 18:38:03 10.5 C 6.01 g/m*3 10.5 C 0 km/h
2253 14-10-2010 18:50:02 10.2 C 6.09 g/m*3 10.2 C 0 km/h
2254 14-10-2010 19:02:02 10.2 C 6.19 g/m*3 10.2 C 0 km/h
2255 14-10-2010 19:14:02 10.2 C 6.19 g/m*3 10.2 C 0 km/h
2256 14-10-2010 19:26:02 10.3 C 6.22 g/m*3 10.3 C 0 km/h
2257 14-10-2010 19:38:02 10.3 C 6.32 g/m*3 10.3 C 0 km/h
2258 14-10-2010 19:50:02 10.3 C 6.32 g/m*3 10.3 C 0 km/h
2259 14-10-2010 20:02:02 10.3 C 6.32 g/m*3 10.3 C 0 km/h
2260 14-10-2010 20:14:02 10.2 C 6.19 g/m*3 10.2 C 0 km/h
2261 14-10-2010 20:26:02 10.2 C 6.19 g/m*3 10.2 C 0 km/h
2262 14-10-2010 20:38:02 10.2 C 6.28 g/m*3 10.2 C 0 km/h
2263 14-10-2010 20:50:02 10.1 C 6.24 g/m*3 10.1 C 0 km/h
2264 14-10-2010 21:02:02 9.9 C 6.26 g/m*3 9.9 C 0 km/h
2265 14-10-2010 21:14:02 9.7 C 6.27 g/m*3 9.7 C 0 km/h
2266 14-10-2010 21:26:02 9.8 C 6.4 g/m*3 9.8 C 0 km/h
2267 14-10-2010 21:38:02 9.8 C 6.4 g/m*3 9.8 C 0 km/h
2268 14-10-2010 21:51:04 9.8 C 6.31 g/m*3 9.8 C 0 km/h
2269 14-10-2010 22:03:04 9.7 C 6.36 g/m*3 9.7 C 0 km/h
2270 14-10-2010 22:15:04 9.7 C 6.45 g/m*3 9.7 C 0 km/h
2271 14-10-2010 22:27:04 9.8 C 6.59 g/m*3 9.8 C 0 km/h
2272 14-10-2010 22:39:05 9.8 C 6.59 g/m*3 9.8 C 0 km/h
2273 14-10-2010 22:51:05 9.7 C 6.55 g/m*3 9.7 C 0 km/h
2274 14-10-2010 23:03:05 9.7 C 6.64 g/m*3 9.7 C 0 km/h
2275 14-10-2010 23:15:05 9.7 C 6.64 g/m*3 9.7 C 0 km/h
Sensor: Nr:Datum:Temp:Abs-Feuchte:Windchill:Wind:
Aussen-T/F 2276 14-10-2010 23:27:05 9.7 C 6.73 g/m*3 9.7 C 0 km/h
2277 14-10-2010 23:39:05 9.7 C 6.73 g/m*3 9.7 C 0 km/h
2278 14-10-2010 23:51:05 9.6 C 6.69 g/m*3 9.6 C 0 km/h
2279 15-10-2010 00:03:05 9.5 C 6.74 g/m*3 9.5 C 0 km/h
2280 15-10-2010 00:15:05 9.5 C 6.74 g/m*3 9.5 C 0 km/h
2281 15-10-2010 00:27:05 9.5 C 6.74 g/m*3 9.5 C 0 km/h
2282 15-10-2010 00:39:05 9.5 C 6.74 g/m*3 9.5 C 0 km/h
2283 15-10-2010 00:51:05 9.5 C 6.83 g/m*3 9.5 C 0 km/h
2284 15-10-2010 01:03:05 9.5 C 6.83 g/m*3 9.5 C 0 km/h
2285 15-10-2010 01:15:05 9.5 C 6.83 g/m*3 9.5 C 0 km/h
2286 15-10-2010 01:27:05 9.5 C 6.92 g/m*3 9.5 C 0 km/h
2287 15-10-2010 01:39:05 9.4 C 6.87 g/m*3 9.4 C 0 km/h
2288 15-10-2010 01:51:05 9.2 C 6.97 g/m*3 9.2 C 0 km/h
2289 15-10-2010 02:03:05 9.2 C 7.05 g/m*3 9.2 C 0 km/h
2290 15-10-2010 02:15:05 9.2 C 7.05 g/m*3 9.2 C 0 km/h
2291 15-10-2010 02:27:05 9.3 C 7.19 g/m*3 9.3 C 0 km/h
2292 15-10-2010 02:39:05 9.2 C 7.14 g/m*3 9.2 C 0 km/h
2293 15-10-2010 02:51:06 9.3 C 7.19 g/m*3 9.3 C 0 km/h
2294 15-10-2010 03:03:06 9.3 C 7.19 g/m*3 9.3 C 0 km/h
2295 15-10-2010 03:15:06 9.3 C 7.28 g/m*3 9.3 C 0 km/h
2296 15-10-2010 03:27:06 9.2 C 7.14 g/m*3 9.2 C 0 km/h
2297 15-10-2010 03:39:06 9.3 C 7.28 g/m*3 9.3 C 0 km/h
2298 15-10-2010 03:51:06 9.3 C 7.37 g/m*3 9.3 C 0 km/h
2299 15-10-2010 04:03:06 9.3 C 7.37 g/m*3 9.3 C 0 km/h
2300 15-10-2010 04:15:06 9.2 C 7.32 g/m*3 9.2 C 0 km/h
Sensor: Nr:Datum:Temp:Abs-Feuchte:Windchill:Wind:
Aussen-T/F 2301 15-10-2010 04:27:06 9.3 C 7.37 g/m*3 9.3 C 0 km/h
2302 15-10-2010 04:39:06 9.3 C 7.37 g/m*3 9.3 C 0 km/h
2303 15-10-2010 04:51:06 9.3 C 7.37 g/m*3 9.3 C 0 km/h
2304 15-10-2010 05:03:06 9.2 C 7.32 g/m*3 9.2 C 0 km/h
2305 15-10-2010 05:15:06 9.2 C 7.32 g/m*3 9.2 C 0 km/h
2306 15-10-2010 05:27:06 9.2 C 7.41 g/m*3 9.2 C 0 km/h
2307 15-10-2010 05:39:06 9.2 C 7.5 g/m*3 9.2 C 0 km/h
2308 15-10-2010 05:51:06 9.2 C 7.5 g/m*3 9.2 C 0 km/h
2309 15-10-2010 06:03:06 9.3 C 7.55 g/m*3 9.3 C 0 km/h
2310 15-10-2010 06:15:06 9.3 C 7.64 g/m*3 9.3 C 0 km/h
2311 15-10-2010 06:27:06 9.3 C 7.64 g/m*3 9.3 C 0 km/h
2312 15-10-2010 06:39:06 9.3 C 7.73 g/m*3 9.3 C 0 km/h
2313 15-10-2010 06:51:07 9.3 C 7.73 g/m*3 9.3 C 0 km/h
2314 15-10-2010 07:03:03 9.3 C 7.73 g/m*3 9.3 C 0 km/h
2315 15-10-2010 07:15:04 9.3 C 7.73 g/m*3 9.3 C 0 km/h
2316 15-10-2010 07:27:04 9.3 C 7.73 g/m*3 9.3 C 0 km/h
2317 15-10-2010 07:39:03 9.3 C 7.73 g/m*3 9.3 C 0 km/h
2318 15-10-2010 07:51:02 9.2 C 7.77 g/m*3 9.2 C 0 km/h
2319 15-10-2010 08:03:01 9.2 C 7.77 g/m*3 9.2 C 0 km/h
2320 15-10-2010 08:15:02 9.2 C 7.86 g/m*3 9.2 C 0 km/h
2321 15-10-2010 08:27:02 9.2 C 7.86 g/m*3 9.2 C 0 km/h
2322 15-10-2010 08:39:01 9.3 C 7.91 g/m*3 9.3 C 0 km/h
2323 15-10-2010 08:51:01 9.3 C 7.91 g/m*3 9.3 C 0 km/h
2324 15-10-2010 09:03:01 9.5 C 8.01 g/m*3 9.5 C 0 km/h
2325 15-10-2010 09:15:02 9.6 C 8.15 g/m*3 9.6 C 0 km/h
Sensor: Nr:Datum:Temp:Abs-Feuchte:Windchill:Wind:
Aussen-T/F 2326 15-10-2010 09:27:02 9.7 C 8.2 g/m*3 9.7 C 0 km/h
2327 15-10-2010 09:39:01 10.1 C 8.32 g/m*3 10.1 C 0 km/h
2328 15-10-2010 09:51:02 10.2 C 8.28 g/m*3 10.2 C 0 km/h
2329 15-10-2010 10:03:01 10.4 C 8.19 g/m*3 10.4 C 0 km/h
2330 15-10-2010 10:15:01 10.5 C 8.15 g/m*3 10.5 C 0 km/h
2331 15-10-2010 10:27:01 10.7 C 8.05 g/m*3 10.7 C 0 km/h
2332 15-10-2010 10:39:01 10.9 C 7.96 g/m*3 10.9 C 0 km/h
2333 15-10-2010 10:51:02 11.1 C 7.96 g/m*3 11.1 C 0 km/h
2334 15-10-2010 11:03:01 11.2 C 7.91 g/m*3 11.2 C 0 km/h
2335 15-10-2010 11:15:02 11.3 C 7.75 g/m*3 11.3 C 0 km/h
2336 15-10-2010 11:27:02 11.4 C 7.7 g/m*3 11.4 C 0 km/h
2337 15-10-2010 11:39:02 11.8 C 7.79 g/m*3 11.8 C 0 km/h
2338 15-10-2010 11:51:02 11.9 C 7.63 g/m*3 11.9 C 0 km/h
2339 15-10-2010 12:03:03 12.3 C 7.6 g/m*3 12.3 C 0 km/h
2340 15-10-2010 12:15:02 12 C 7.25 g/m*3 12 C 0 km/h
2341 15-10-2010 12:27:02 11.9 C 7.31 g/m*3 11.9 C 0 km/h
2342 15-10-2010 12:39:02 12.8 C 7.39 g/m*3 12.8 C 0 km/h
2343 15-10-2010 12:51:01 13.1 C 7.07 g/m*3 13.1 C 0 km/h
2344 15-10-2010 13:03:02 12.9 C 6.99 g/m*3 12.9 C 0 km/h
2345 15-10-2010 13:15:01 12.9 C 6.99 g/m*3 12.9 C 0 km/h
2346 15-10-2010 13:27:01 13.4 C 6.97 g/m*3 13.4 C 0 km/h
2347 15-10-2010 13:39:01 14 C 6.88 g/m*3 14 C 0 km/h
2348 15-10-2010 13:51:01 13.7 C 6.63 g/m*3 13.7 C 0 km/h
2349 15-10-2010 14:03:01 13.4 C 6.63 g/m*3 13.4 C 0 km/h
2350 15-10-2010 14:15:02 12.9 C 6.76 g/m*3 12.9 C 0 km/h
Sensor: Nr:Datum:Temp:Abs-Feuchte:Windchill:Wind:
Aussen-T/F 2351 15-10-2010 14:27:02 12.7 C 6.9 g/m*3 12.7 C 0 km/h
2352 15-10-2010 14:39:01 12.4 C 6.66 g/m*3 12.4 C 0 km/h
2353 15-10-2010 14:51:03 12.5 C 6.82 g/m*3 12.5 C 0 km/h
2354 15-10-2010 15:03:02 13 C 6.8 g/m*3 13 C 0 km/h
2355 15-10-2010 15:15:02 12.9 C 6.76 g/m*3 12.9 C 0 km/h
2356 15-10-2010 15:27:02 12.9 C 6.76 g/m*3 12.9 C 0 km/h
2357 15-10-2010 15:39:03 13 C 6.58 g/m*3 13 C 0 km/h
2358 15-10-2010 15:51:02 12.5 C 6.49 g/m*3 12.5 C 0 km/h
2359 15-10-2010 16:03:02 12.5 C 6.71 g/m*3 12.5 C 0 km/h
2360 15-10-2010 16:15:02 12.4 C 6.77 g/m*3 12.4 C 0 km/h
2361 15-10-2010 16:27:02 12.2 C 6.69 g/m*3 12.2 C 0 km/h
2362 15-10-2010 16:39:02 12.1 C 6.86 g/m*3 12.1 C 0 km/h
2363 15-10-2010 16:51:02 12 C 6.93 g/m*3 12 C 0 km/h
2364 15-10-2010 17:03:02 11.8 C 7.05 g/m*3 11.8 C 0 km/h
2365 15-10-2010 17:15:02 11.7 C 7.11 g/m*3 11.7 C 0 km/h
2366 15-10-2010 17:27:02 11.5 C 7.13 g/m*3 11.5 C 0 km/h
2367 15-10-2010 17:39:02 11.5 C 7.02 g/m*3 11.5 C 0 km/h
2368 15-10-2010 17:51:02 11.3 C 7.04 g/m*3 11.3 C 0 km/h
2369 15-10-2010 18:03:02 11.1 C 7.05 g/m*3 11.1 C 0 km/h
2370 15-10-2010 18:15:03 11 C 7.01 g/m*3 11 C 0 km/h
2371 15-10-2010 18:27:03 10.9 C 7.06 g/m*3 10.9 C 0 km/h
2372 15-10-2010 18:39:02 10.7 C 6.97 g/m*3 10.7 C 0 km/h
2373 15-10-2010 18:51:01 10.7 C 7.07 g/m*3 10.7 C 0 km/h
2374 15-10-2010 19:03:02 10.6 C 7.03 g/m*3 10.6 C 0 km/h
2375 15-10-2010 19:15:01 10.5 C 6.98 g/m*3 10.5 C 0 km/h
Sensor: Nr:Datum:Temp:Abs-Feuchte:Windchill:Wind:
Aussen-T/F 2376 15-10-2010 19:27:01 10.5 C 7.08 g/m*3 10.5 C 0 km/h
2377 15-10-2010 19:39:01 10.5 C 6.98 g/m*3 10.5 C 0 km/h
2378 15-10-2010 19:51:01 10.5 C 6.98 g/m*3 10.5 C 0 km/h
2379 15-10-2010 20:03:01 10.4 C 6.94 g/m*3 10.4 C 0 km/h
2380 15-10-2010 20:15:02 10.3 C 6.99 g/m*3 10.3 C 0 km/h
2381 15-10-2010 20:27:02 10.2 C 6.95 g/m*3 10.2 C 0 km/h
2382 15-10-2010 20:39:01 10.4 C 7.13 g/m*3 10.4 C 0 km/h
2383 15-10-2010 20:51:03 10.5 C 7.08 g/m*3 10.5 C 0 km/h
2384 15-10-2010 21:03:02 10.5 C 7.08 g/m*3 10.5 C 0 km/h
2385 15-10-2010 21:15:02 10.4 C 7.04 g/m*3 10.4 C 0 km/h
2386 15-10-2010 21:27:02 10.2 C 7.04 g/m*3 10.2 C 0 km/h
2387 15-10-2010 21:39:03 9.8 C 7.33 g/m*3 9.8 C 0 km/h
2388 15-10-2010 21:51:02 9.6 C 7.42 g/m*3 9.6 C 0 km/h
2389 15-10-2010 22:03:02 9.5 C 7.55 g/m*3 9.5 C 0 km/h
2390 15-10-2010 22:15:02 9.3 C 7.55 g/m*3 9.3 C 0 km/h
2391 15-10-2010 22:27:02 9.3 C 7.64 g/m*3 9.3 C 0 km/h
2392 15-10-2010 22:39:01 9.2 C 7.77 g/m*3 9.2 C 0 km/h
2393 15-10-2010 22:52:04 9.2 C 7.86 g/m*3 9.2 C 0 km/h
2394 15-10-2010 23:04:04 9.2 C 7.95 g/m*3 9.2 C 0 km/h
2395 15-10-2010 23:16:04 9.3 C 8 g/m*3 9.3 C 0 km/h
2396 15-10-2010 23:28:04 9.3 C 8.09 g/m*3 9.3 C 0 km/h
2397 15-10-2010 23:40:04 9.1 C 8.07 g/m*3 9.1 C 0 km/h
2398 15-10-2010 23:52:04 9.1 C 8.07 g/m*3 9.1 C 0 km/h
2399 16-10-2010 00:04:04 9.1 C 8.16 g/m*3 9.1 C 0 km/h
2400 16-10-2010 00:16:04 9 C 8.11 g/m*3 9 C 0 km/h
Sensor: Nr:Datum:Temp:Abs-Feuchte:Windchill:Wind:
Aussen-T/F 2401 16-10-2010 00:28:04 9 C 8.11 g/m*3 9 C 0 km/h
2402 16-10-2010 00:40:04 9 C 8.2 g/m*3 9 C 0 km/h
2403 16-10-2010 00:52:04 9 C 8.2 g/m*3 9 C 0 km/h
2404 16-10-2010 01:04:04 8.9 C 8.23 g/m*3 8.9 C 0 km/h
2405 16-10-2010 01:16:04 8.9 C 8.23 g/m*3 8.9 C 0 km/h
2406 16-10-2010 01:28:04 8.8 C 8.18 g/m*3 8.8 C 0 km/h
2407 16-10-2010 01:40:04 8.8 C 8.18 g/m*3 8.8 C 0 km/h
2408 16-10-2010 01:52:04 8.7 C 8.13 g/m*3 8.7 C 0 km/h
2409 16-10-2010 02:04:04 8.7 C 8.13 g/m*3 8.7 C 0 km/h
2410 16-10-2010 02:16:05 8.8 C 8.18 g/m*3 8.8 C 0 km/h
2411 16-10-2010 02:28:05 8.8 C 8.27 g/m*3 8.8 C 0 km/h
2412 16-10-2010 02:40:05 8.8 C 8.27 g/m*3 8.8 C 0 km/h
2413 16-10-2010 02:52:05 8.8 C 8.27 g/m*3 8.8 C 0 km/h
2414 16-10-2010 03:04:05 8.7 C 8.22 g/m*3 8.7 C 0 km/h
2415 16-10-2010 03:16:05 8.7 C 8.22 g/m*3 8.7 C 0 km/h
2416 16-10-2010 03:28:05 8.7 C 8.22 g/m*3 8.7 C 0 km/h
2417 16-10-2010 03:40:05 8.7 C 8.22 g/m*3 8.7 C 0 km/h
2418 16-10-2010 03:52:05 8.6 C 8.16 g/m*3 8.6 C 0 km/h
2419 16-10-2010 04:04:05 8.6 C 8.16 g/m*3 8.6 C 0 km/h
2420 16-10-2010 04:16:05 8.6 C 8.16 g/m*3 8.6 C 0 km/h
2421 16-10-2010 04:28:05 8.5 C 8.11 g/m*3 8.5 C 0 km/h
2422 16-10-2010 04:40:05 8.5 C 8.11 g/m*3 8.5 C 0 km/h
2423 16-10-2010 04:52:05 8.5 C 8.11 g/m*3 8.5 C 0 km/h
2424 16-10-2010 05:04:05 8.5 C 8.11 g/m*3 8.5 C 0 km/h
2425 16-10-2010 05:16:05 8.4 C 8.06 g/m*3 8.4 C 0 km/h
Sensor: Nr:Datum:Temp:Abs-Feuchte:Windchill:Wind:
Aussen-T/F 2426 16-10-2010 05:28:05 8.3 C 8.01 g/m*3 8.3 C 0 km/h
2427 16-10-2010 05:40:05 8.3 C 8.01 g/m*3 8.3 C 0 km/h
2428 16-10-2010 05:52:05 8.3 C 8.01 g/m*3 8.3 C 0 km/h
2429 16-10-2010 06:04:05 8.3 C 8.01 g/m*3 8.3 C 0 km/h
2430 16-10-2010 06:16:05 8.4 C 8.06 g/m*3 8.4 C 0 km/h
2431 16-10-2010 06:28:05 8.3 C 8.01 g/m*3 8.3 C 0 km/h
2432 16-10-2010 06:40:06 8.3 C 8.01 g/m*3 8.3 C 0 km/h
2433 16-10-2010 06:52:06 8.2 C 7.96 g/m*3 8.2 C 0 km/h
2434 16-10-2010 07:04:06 8.2 C 7.96 g/m*3 8.2 C 0 km/h
2435 16-10-2010 07:16:06 8.2 C 7.96 g/m*3 8.2 C 0 km/h
2436 16-10-2010 07:28:06 8.1 C 7.9 g/m*3 8.1 C 0 km/h
2437 16-10-2010 07:40:04 8.1 C 7.82 g/m*3 8.1 C 0 km/h
2438 16-10-2010 07:52:02 8 C 7.77 g/m*3 8 C 0 km/h
2439 16-10-2010 08:04:02 8.1 C 7.82 g/m*3 8.1 C 0 km/h
2440 16-10-2010 08:16:01 8.1 C 7.82 g/m*3 8.1 C 0 km/h
2441 16-10-2010 08:28:01 8.1 C 7.74 g/m*3 8.1 C 0 km/h
2442 16-10-2010 08:40:01 8.1 C 7.74 g/m*3 8.1 C 0 km/h
2443 16-10-2010 08:52:01 8.1 C 7.74 g/m*3 8.1 C 0 km/h
2444 16-10-2010 09:04:01 8.2 C 7.79 g/m*3 8.2 C 0 km/h
2445 16-10-2010 09:16:02 8.2 C 7.79 g/m*3 8.2 C 0 km/h
2446 16-10-2010 09:28:02 8.2 C 7.79 g/m*3 8.2 C 0 km/h
2447 16-10-2010 09:40:01 8.2 C 7.79 g/m*3 8.2 C 0 km/h
2448 16-10-2010 09:52:02 8.4 C 7.89 g/m*3 8.4 C 0 km/h
2449 16-10-2010 10:04:02 8.5 C 7.94 g/m*3 8.5 C 0 km/h
2450 16-10-2010 10:16:02 8.6 C 7.99 g/m*3 8.6 C 0 km/h
Sensor: Nr:Datum:Temp:Abs-Feuchte:Windchill:Wind:
Aussen-T/F 2451 16-10-2010 10:28:02 8.8 C 8.18 g/m*3 8.8 C 0 km/h
2452 16-10-2010 10:40:01 8.6 C 7.99 g/m*3 8.6 C 0 km/h
2453 16-10-2010 10:52:02 8.7 C 8.04 g/m*3 8.7 C 0 km/h
2454 16-10-2010 11:04:01 8.9 C 8.15 g/m*3 8.9 C 0 km/h
2455 16-10-2010 11:16:01 8.8 C 8.09 g/m*3 8.8 C 0 km/h
2456 16-10-2010 11:28:01 9 C 8.11 g/m*3 9 C 0 km/h
2457 16-10-2010 11:40:01 9.1 C 8.16 g/m*3 9.1 C 0 km/h
2458 16-10-2010 11:52:01 9 C 8.02 g/m*3 9 C 0 km/h
2459 16-10-2010 12:04:02 9.3 C 8.18 g/m*3 9.3 C 0 km/h
2460 16-10-2010 12:16:01 9.1 C 7.99 g/m*3 9.1 C 0 km/h
2461 16-10-2010 12:28:01 9.1 C 7.9 g/m*3 9.1 C 0 km/h
2462 16-10-2010 12:40:01 9.7 C 8.3 g/m*3 9.7 C 0 km/h
2463 16-10-2010 12:52:01 9.7 C 8.2 g/m*3 9.7 C 0 km/h
2464 16-10-2010 13:04:02 9.6 C 8.15 g/m*3 9.6 C 0 km/h
2465 16-10-2010 13:16:01 9.9 C 8.31 g/m*3 9.9 C 0 km/h
2466 16-10-2010 13:28:01 9.8 C 8.26 g/m*3 9.8 C 0 km/h
2467 16-10-2010 13:40:02 9.6 C 8.06 g/m*3 9.6 C 0 km/h
2468 16-10-2010 13:52:02 9.7 C 8.02 g/m*3 9.7 C 0 km/h
2469 16-10-2010 14:04:02 9.9 C 8.12 g/m*3 9.9 C 0 km/h
2470 16-10-2010 14:16:01 10 C 7.89 g/m*3 10 C 0 km/h
2471 16-10-2010 14:28:01 10.1 C 7.94 g/m*3 10.1 C 0 km/h
2472 16-10-2010 14:40:02 10 C 7.8 g/m*3 10 C 0 km/h
2473 16-10-2010 14:52:01 9.8 C 7.7 g/m*3 9.8 C 0 km/h
2474 16-10-2010 15:04:02 9.8 C 7.79 g/m*3 9.8 C 0 km/h
2475 16-10-2010 15:16:02 9.9 C 7.84 g/m*3 9.9 C 0 km/h
Sensor: Nr:Datum:Temp:Abs-Feuchte:Windchill:Wind:
Aussen-T/F 2476 16-10-2010 15:28:02 10.3 C 7.95 g/m*3 10.3 C 0 km/h
2477 16-10-2010 15:40:02 10.1 C 7.66 g/m*3 10.1 C 0 km/h
2478 16-10-2010 15:52:01 10.3 C 7.85 g/m*3 10.3 C 0 km/h
2479 16-10-2010 16:04:02 10.2 C 7.8 g/m*3 10.2 C 0 km/h
2480 16-10-2010 16:16:02 10.2 C 7.8 g/m*3 10.2 C 0 km/h
2481 16-10-2010 16:28:02 9.9 C 7.84 g/m*3 9.9 C 0 km/h
2482 16-10-2010 16:40:01 9.6 C 7.79 g/m*3 9.6 C 0 km/h
2483 16-10-2010 16:52:02 9.6 C 7.97 g/m*3 9.6 C 0 km/h
2484 16-10-2010 17:04:01 9.6 C 8.06 g/m*3 9.6 C 0 km/h
2485 16-10-2010 17:16:02 9.6 C 8.15 g/m*3 9.6 C 0 km/h
2486 16-10-2010 17:28:02 9.2 C 7.86 g/m*3 9.2 C 0 km/h
2487 16-10-2010 17:40:01 9.3 C 7.82 g/m*3 9.3 C 0 km/h
2488 16-10-2010 17:52:02 9.1 C 7.63 g/m*3 9.1 C 0 km/h
2489 16-10-2010 18:04:02 8.9 C 7.36 g/m*3 8.9 C 0 km/h
2490 16-10-2010 18:16:02 8.7 C 7.18 g/m*3 8.7 C 0 km/h
2491 16-10-2010 18:28:02 8.4 C 6.96 g/m*3 8.4 C 0 km/h
2492 16-10-2010 18:40:03 8.1 C 6.74 g/m*3 8.1 C 0 km/h
2493 16-10-2010 18:52:02 7.8 C 6.69 g/m*3 7.8 C 0 km/h
2494 16-10-2010 19:04:01 7.5 C 6.56 g/m*3 7.5 C 0 km/h
2495 16-10-2010 19:16:02 7.2 C 6.59 g/m*3 7.2 C 0 km/h
2496 16-10-2010 19:28:02 7 C 6.59 g/m*3 7 C 0 km/h
2497 16-10-2010 19:40:01 6.7 C 6.61 g/m*3 6.7 C 0 km/h
2498 16-10-2010 19:52:02 6.4 C 6.41 g/m*3 6.4 C 0 km/h
2499 16-10-2010 20:04:01 6.5 C 6.45 g/m*3 6.5 C 0 km/h
2500 16-10-2010 20:16:01 6.5 C 6.3 g/m*3 6.5 C 0 km/h
Sensor: Nr:Datum:Temp:Abs-Feuchte:Windchill:Wind:
Aussen-T/F 2501 16-10-2010 20:28:01 6.6 C 6.27 g/m*3 6.6 C 0 km/h
2502 16-10-2010 20:40:02 6.6 C 6.27 g/m*3 6.6 C 0 km/h
2503 16-10-2010 20:52:02 6.6 C 6.27 g/m*3 6.6 C 0 km/h
2504 16-10-2010 21:04:02 6.5 C 6.22 g/m*3 6.5 C 0 km/h
2505 16-10-2010 21:16:01 6.3 C 6.14 g/m*3 6.3 C 0 km/h
2506 16-10-2010 21:28:01 6.3 C 6.22 g/m*3 6.3 C 0 km/h
2507 16-10-2010 21:40:02 6.2 C 6.25 g/m*3 6.2 C 0 km/h
2508 16-10-2010 21:52:02 6.1 C 6.21 g/m*3 6.1 C 0 km/h
2509 16-10-2010 22:04:02 6 C 6.24 g/m*3 6 C 0 km/h
2510 16-10-2010 22:16:02 5.9 C 6.35 g/m*3 5.9 C 0 km/h
2511 16-10-2010 22:28:02 5.8 C 6.38 g/m*3 5.8 C 0 km/h
2512 16-10-2010 22:40:02 5.9 C 6.42 g/m*3 5.9 C 0 km/h
2513 16-10-2010 22:52:02 5.9 C 6.49 g/m*3 5.9 C 0 km/h
2514 16-10-2010 23:04:02 5.9 C 6.49 g/m*3 5.9 C 0 km/h
2515 16-10-2010 23:16:03 5.9 C 6.56 g/m*3 5.9 C 0 km/h
2516 16-10-2010 23:28:03 6 C 6.53 g/m*3 6 C 0 km/h
2517 16-10-2010 23:41:04 6 C 6.6 g/m*3 6 C 0 km/h
2518 16-10-2010 23:53:04 6 C 6.6 g/m*3 6 C 0 km/h
2519 17-10-2010 00:05:04 6 C 6.6 g/m*3 6 C 0 km/h
2520 17-10-2010 00:17:04 6.1 C 6.65 g/m*3 6.1 C 0 km/h
2521 17-10-2010 00:29:04 6.2 C 6.77 g/m*3 6.2 C 0 km/h
2522 17-10-2010 00:41:04 6.2 C 6.77 g/m*3 6.2 C 0 km/h
2523 17-10-2010 00:53:04 6.2 C 6.69 g/m*3 6.2 C 0 km/h
2524 17-10-2010 01:05:04 6.2 C 6.69 g/m*3 6.2 C 0 km/h
2525 17-10-2010 01:17:04 6.2 C 6.69 g/m*3 6.2 C 0 km/h
Sensor: Nr:Datum:Temp:Abs-Feuchte:Windchill:Wind:
Aussen-T/F 2526 17-10-2010 01:29:04 6.3 C 6.74 g/m*3 6.3 C 0 km/h
2527 17-10-2010 01:41:04 6.2 C 6.69 g/m*3 6.2 C 0 km/h
2528 17-10-2010 01:53:04 6.3 C 6.74 g/m*3 6.3 C 0 km/h
2529 17-10-2010 02:05:04 6.3 C 6.74 g/m*3 6.3 C 0 km/h
2530 17-10-2010 02:17:05 6.2 C 6.62 g/m*3 6.2 C 0 km/h
2531 17-10-2010 02:29:05 6.2 C 6.62 g/m*3 6.2 C 0 km/h
2532 17-10-2010 02:41:05 6.2 C 6.55 g/m*3 6.2 C 0 km/h
2533 17-10-2010 02:53:05 6.2 C 6.55 g/m*3 6.2 C 0 km/h
2534 17-10-2010 03:05:05 6.2 C 6.55 g/m*3 6.2 C 0 km/h
2535 17-10-2010 03:17:05 6.3 C 6.51 g/m*3 6.3 C 0 km/h
2536 17-10-2010 03:29:05 6.3 C 6.51 g/m*3 6.3 C 0 km/h
2537 17-10-2010 03:41:05 6.2 C 6.47 g/m*3 6.2 C 0 km/h
2538 17-10-2010 03:53:05 6.2 C 6.4 g/m*3 6.2 C 0 km/h
2539 17-10-2010 04:05:05 6.2 C 6.32 g/m*3 6.2 C 0 km/h
2540 17-10-2010 04:17:05 6.2 C 6.32 g/m*3 6.2 C 0 km/h
2541 17-10-2010 04:29:05 6.2 C 6.32 g/m*3 6.2 C 0 km/h
2542 17-10-2010 04:41:05 6.2 C 6.32 g/m*3 6.2 C 0 km/h
2543 17-10-2010 04:53:05 6.3 C 6.37 g/m*3 6.3 C 0 km/h
2544 17-10-2010 05:05:05 6.3 C 6.37 g/m*3 6.3 C 0 km/h
2545 17-10-2010 05:17:05 6.3 C 6.44 g/m*3 6.3 C 0 km/h
2546 17-10-2010 05:29:05 6.3 C 6.44 g/m*3 6.3 C 0 km/h
2547 17-10-2010 05:41:05 6.3 C 6.44 g/m*3 6.3 C 0 km/h
2548 17-10-2010 05:53:05 6.3 C 6.44 g/m*3 6.3 C 0 km/h
2549 17-10-2010 06:05:05 6.3 C 6.44 g/m*3 6.3 C 0 km/h
2550 17-10-2010 06:17:06 6.3 C 6.44 g/m*3 6.3 C 0 km/h
Sensor: Nr:Datum:Temp:Abs-Feuchte:Windchill:Wind:
Aussen-T/F 2551 17-10-2010 06:29:06 6.4 C 6.48 g/m*3 6.4 C 0 km/h
2552 17-10-2010 06:41:06 6.4 C 6.48 g/m*3 6.4 C 0 km/h
2553 17-10-2010 06:53:06 6.3 C 6.44 g/m*3 6.3 C 0 km/h
2554 17-10-2010 07:05:06 6.3 C 6.37 g/m*3 6.3 C 0 km/h
2555 17-10-2010 07:17:06 6.3 C 6.37 g/m*3 6.3 C 0 km/h
2556 17-10-2010 07:29:06 6.3 C 6.22 g/m*3 6.3 C 0 km/h
2557 17-10-2010 07:41:06 6.4 C 6.26 g/m*3 6.4 C 0 km/h
2558 17-10-2010 07:53:06 6.4 C 6.26 g/m*3 6.4 C 0 km/h
2559 17-10-2010 08:05:06 6.5 C 6.22 g/m*3 6.5 C 0 km/h
2560 17-10-2010 08:17:06 6.5 C 6.15 g/m*3 6.5 C 0 km/h
2561 17-10-2010 08:29:06 6.5 C 6.15 g/m*3 6.5 C 0 km/h
2562 17-10-2010 08:41:06 6.6 C 6.11 g/m*3 6.6 C 0 km/h
2563 17-10-2010 08:53:01 6.8 C 6.19 g/m*3 6.8 C 0 km/h
2564 17-10-2010 09:05:02 6.8 C 6.12 g/m*3 6.8 C 0 km/h
2565 17-10-2010 09:17:02 6.8 C 6.12 g/m*3 6.8 C 0 km/h
2566 17-10-2010 09:29:02 6.9 C 6.24 g/m*3 6.9 C 0 km/h
2567 17-10-2010 09:41:01 6.9 C 6.16 g/m*3 6.9 C 0 km/h
2568 17-10-2010 09:53:02 7 C 6.12 g/m*3 7 C 0 km/h
2569 17-10-2010 10:05:01 7.1 C 6.08 g/m*3 7.1 C 0 km/h
2570 17-10-2010 10:17:02 7.2 C 6.12 g/m*3 7.2 C 0 km/h
2571 17-10-2010 10:29:02 7.3 C 6.16 g/m*3 7.3 C 0 km/h
2572 17-10-2010 10:41:01 7.4 C 6.12 g/m*3 7.4 C 0 km/h
2573 17-10-2010 10:53:02 7.6 C 6.2 g/m*3 7.6 C 0 km/h
2574 17-10-2010 11:05:02 7.7 C 6.16 g/m*3 7.7 C 0 km/h
2575 17-10-2010 11:17:02 7.8 C 6.04 g/m*3 7.8 C 0 km/h
Sensor: Nr:Datum:Temp:Abs-Feuchte:Windchill:Wind:
Aussen-T/F 2576 17-10-2010 11:29:02 7.7 C 5.92 g/m*3 7.7 C 0 km/h
2577 17-10-2010 11:41:02 7.6 C 5.88 g/m*3 7.6 C 0 km/h
2578 17-10-2010 11:53:02 7.7 C 5.92 g/m*3 7.7 C 0 km/h
2579 17-10-2010 12:05:02 7.8 C 5.96 g/m*3 7.8 C 0 km/h
2580 17-10-2010 12:17:01 7.8 C 5.96 g/m*3 7.8 C 0 km/h
2581 17-10-2010 12:29:01 7.9 C 6 g/m*3 7.9 C 0 km/h
2582 17-10-2010 12:41:02 8 C 5.95 g/m*3 8 C 0 km/h
2583 17-10-2010 12:53:02 7.9 C 6 g/m*3 7.9 C 0 km/h
2584 17-10-2010 13:05:02 7.9 C 5.91 g/m*3 7.9 C 0 km/h
2585 17-10-2010 13:17:01 8.1 C 5.91 g/m*3 8.1 C 0 km/h
2586 17-10-2010 13:29:01 8.1 C 5.91 g/m*3 8.1 C 0 km/h
2587 17-10-2010 13:41:02 8.2 C 6.03 g/m*3 8.2 C 0 km/h
2588 17-10-2010 13:53:01 8.2 C 6.03 g/m*3 8.2 C 0 km/h
2589 17-10-2010 14:05:02 8.3 C 6.15 g/m*3 8.3 C 0 km/h
2590 17-10-2010 14:17:02 8.3 C 6.07 g/m*3 8.3 C 0 km/h
2591 17-10-2010 14:29:02 8.4 C 6.19 g/m*3 8.4 C 0 km/h
2592 17-10-2010 14:41:02 8.4 C 6.19 g/m*3 8.4 C 0 km/h
2593 17-10-2010 14:53:02 8.4 C 6.11 g/m*3 8.4 C 0 km/h
2594 17-10-2010 15:05:02 8.5 C 6.15 g/m*3 8.5 C 0 km/h
2595 17-10-2010 15:17:02 8.5 C 6.06 g/m*3 8.5 C 0 km/h
2596 17-10-2010 15:29:02 8.6 C 6.1 g/m*3 8.6 C 0 km/h
2597 17-10-2010 15:41:01 8.6 C 6.1 g/m*3 8.6 C 0 km/h
2598 17-10-2010 15:53:02 8.4 C 6.19 g/m*3 8.4 C 0 km/h
2599 17-10-2010 16:05:01 8.4 C 6.19 g/m*3 8.4 C 0 km/h
2600 17-10-2010 16:17:01 8.4 C 6.28 g/m*3 8.4 C 0 km/h
Sensor: Nr:Datum:Temp:Abs-Feuchte:Windchill:Wind:
Aussen-T/F 2601 17-10-2010 16:29:01 8.5 C 6.32 g/m*3 8.5 C 0 km/h
2602 17-10-2010 16:41:02 8.5 C 6.32 g/m*3 8.5 C 0 km/h
2603 17-10-2010 16:53:02 8.5 C 6.32 g/m*3 8.5 C 0 km/h
2604 17-10-2010 17:05:02 8.5 C 6.32 g/m*3 8.5 C 0 km/h
2605 17-10-2010 17:17:02 8.3 C 6.24 g/m*3 8.3 C 0 km/h
2606 17-10-2010 17:29:02 8.3 C 6.32 g/m*3 8.3 C 0 km/h
2607 17-10-2010 17:41:02 8.2 C 6.36 g/m*3 8.2 C 0 km/h
2608 17-10-2010 17:53:02 8.2 C 6.36 g/m*3 8.2 C 0 km/h
2609 17-10-2010 18:05:03 8.1 C 6.32 g/m*3 8.1 C 0 km/h
2610 17-10-2010 18:17:02 8 C 6.28 g/m*3 8 C 0 km/h
2611 17-10-2010 18:29:02 7.9 C 6.32 g/m*3 7.9 C 0 km/h
2612 17-10-2010 18:41:02 7.8 C 6.37 g/m*3 7.8 C 0 km/h
2613 17-10-2010 18:53:01 7.7 C 6.32 g/m*3 7.7 C 0 km/h
2614 17-10-2010 19:05:02 7.7 C 6.32 g/m*3 7.7 C 0 km/h
2615 17-10-2010 19:17:01 7.7 C 6.41 g/m*3 7.7 C 0 km/h
2616 17-10-2010 19:29:01 7.7 C 6.41 g/m*3 7.7 C 0 km/h
2617 17-10-2010 19:41:01 7.7 C 6.41 g/m*3 7.7 C 0 km/h
2618 17-10-2010 19:53:01 7.6 C 6.36 g/m*3 7.6 C 0 km/h
2619 17-10-2010 20:05:02 7.6 C 6.36 g/m*3 7.6 C 0 km/h
2620 17-10-2010 20:17:01 7.7 C 6.49 g/m*3 7.7 C 0 km/h
2621 17-10-2010 20:29:01 7.7 C 6.49 g/m*3 7.7 C 0 km/h
2622 17-10-2010 20:41:01 7.7 C 6.41 g/m*3 7.7 C 0 km/h
2623 17-10-2010 20:53:02 7.7 C 6.41 g/m*3 7.7 C 0 km/h
2624 17-10-2010 21:05:02 7.7 C 6.41 g/m*3 7.7 C 0 km/h
2625 17-10-2010 21:17:02 7.7 C 6.49 g/m*3 7.7 C 0 km/h
Sensor: Nr:Datum:Temp:Abs-Feuchte:Windchill:Wind:
Aussen-T/F 2626 17-10-2010 21:29:02 7.7 C 6.49 g/m*3 7.7 C 0 km/h
2627 17-10-2010 21:41:02 7.5 C 6.4 g/m*3 7.5 C 0 km/h
2628 17-10-2010 21:53:02 7.5 C 6.4 g/m*3 7.5 C 0 km/h
2629 17-10-2010 22:06:02 7.5 C 6.48 g/m*3 7.5 C 0 km/h
2630 17-10-2010 22:18:02 7.5 C 6.48 g/m*3 7.5 C 0 km/h
2631 17-10-2010 22:30:02 7.4 C 6.44 g/m*3 7.4 C 0 km/h
2632 17-10-2010 22:42:02 7.3 C 6.4 g/m*3 7.3 C 0 km/h
2633 17-10-2010 22:54:02 7.2 C 6.36 g/m*3 7.2 C 0 km/h
2634 17-10-2010 23:06:02 7.1 C 6.32 g/m*3 7.1 C 0 km/h
2635 17-10-2010 23:18:02 7.1 C 6.32 g/m*3 7.1 C 0 km/h
2636 17-10-2010 23:30:02 7.1 C 6.32 g/m*3 7.1 C 0 km/h
2637 17-10-2010 23:42:02 7 C 6.28 g/m*3 7 C 0 km/h
2638 17-10-2010 23:54:02 6.9 C 6.31 g/m*3 6.9 C 0 km/h
2639 18-10-2010 00:06:02 6.9 C 6.31 g/m*3 6.9 C 0 km/h
2640 18-10-2010 00:18:02 6.8 C 6.27 g/m*3 6.8 C 0 km/h
2641 18-10-2010 00:30:02 6.7 C 6.23 g/m*3 6.7 C 0 km/h
2642 18-10-2010 00:42:02 6.3 C 6.14 g/m*3 6.3 C 0 km/h
2643 18-10-2010 00:54:02 5.7 C 5.98 g/m*3 5.7 C 0 km/h
2644 18-10-2010 01:06:02 5.3 C 5.89 g/m*3 5.3 C 0 km/h
2645 18-10-2010 01:18:02 5.1 C 5.88 g/m*3 5.1 C 0 km/h
2646 18-10-2010 01:30:02 5 C 5.91 g/m*3 5 C 0 km/h
2647 18-10-2010 01:42:02 5.2 C 6.06 g/m*3 5.2 C 0 km/h
2648 18-10-2010 01:54:03 5.3 C 6.1 g/m*3 5.3 C 0 km/h
2649 18-10-2010 02:06:03 5.5 C 6.18 g/m*3 5.5 C 0 km/h
2650 18-10-2010 02:18:03 5.7 C 6.33 g/m*3 5.7 C 0 km/h
Sensor: Nr:Datum:Temp:Abs-Feuchte:Windchill:Wind:
Aussen-T/F 2651 18-10-2010 02:30:03 5.9 C 6.42 g/m*3 5.9 C 0 km/h
2652 18-10-2010 02:42:03 5.9 C 6.42 g/m*3 5.9 C 0 km/h
2653 18-10-2010 02:54:03 6 C 6.39 g/m*3 6 C 0 km/h
2654 18-10-2010 03:06:03 6 C 6.31 g/m*3 6 C 0 km/h
2655 18-10-2010 03:18:03 6 C 6.31 g/m*3 6 C 0 km/h
2656 18-10-2010 03:30:03 6 C 6.31 g/m*3 6 C 0 km/h
2657 18-10-2010 03:42:03 6 C 6.31 g/m*3 6 C 0 km/h
2658 18-10-2010 03:54:03 6 C 6.24 g/m*3 6 C 0 km/h
2659 18-10-2010 04:06:03 6 C 6.24 g/m*3 6 C 0 km/h
2660 18-10-2010 04:18:03 6.1 C 6.28 g/m*3 6.1 C 0 km/h
2661 18-10-2010 04:30:03 6.1 C 6.28 g/m*3 6.1 C 0 km/h
2662 18-10-2010 04:42:03 6 C 6.24 g/m*3 6 C 0 km/h
2663 18-10-2010 04:54:03 5.9 C 6.2 g/m*3 5.9 C 0 km/h
2664 18-10-2010 05:06:03 5.9 C 6.13 g/m*3 5.9 C 0 km/h
2665 18-10-2010 05:18:03 5.9 C 6.13 g/m*3 5.9 C 0 km/h
2666 18-10-2010 05:30:03 5.8 C 6.09 g/m*3 5.8 C 0 km/h
2667 18-10-2010 05:42:03 5.8 C 6.09 g/m*3 5.8 C 0 km/h
2668 18-10-2010 05:54:03 5.8 C 6.09 g/m*3 5.8 C 0 km/h
2669 18-10-2010 06:06:03 5.8 C 6.16 g/m*3 5.8 C 0 km/h
2670 18-10-2010 06:18:04 5.8 C 6.16 g/m*3 5.8 C 0 km/h
2671 18-10-2010 06:30:04 5.8 C 6.16 g/m*3 5.8 C 0 km/h
2672 18-10-2010 06:42:04 5.8 C 6.16 g/m*3 5.8 C 0 km/h
2673 18-10-2010 06:54:04 5.8 C 6.16 g/m*3 5.8 C 0 km/h
2674 18-10-2010 07:06:02 5.8 C 6.16 g/m*3 5.8 C 0 km/h
2675 18-10-2010 07:18:02 5.8 C 6.16 g/m*3 5.8 C 0 km/h
Sensor: Nr:Datum:Temp:Abs-Feuchte:Windchill:Wind:
Aussen-T/F 2676 18-10-2010 07:30:02 5.8 C 6.16 g/m*3 5.8 C 0 km/h
2677 18-10-2010 07:42:02 5.7 C 6.12 g/m*3 5.7 C 0 km/h
2678 18-10-2010 07:54:02 5.7 C 6.12 g/m*3 5.7 C 0 km/h
2679 18-10-2010 08:06:02 5.7 C 6.19 g/m*3 5.7 C 0 km/h
2680 18-10-2010 08:18:02 5.7 C 6.12 g/m*3 5.7 C 0 km/h
2681 18-10-2010 08:30:02 5.7 C 6.19 g/m*3 5.7 C 0 km/h
2682 18-10-2010 08:42:02 5.8 C 6.23 g/m*3 5.8 C 0 km/h
2683 18-10-2010 08:54:02 6 C 6.24 g/m*3 6 C 0 km/h
2684 18-10-2010 09:06:02 6.2 C 6.32 g/m*3 6.2 C 0 km/h
2685 18-10-2010 09:18:02 6.3 C 6.37 g/m*3 6.3 C 0 km/h
2686 18-10-2010 09:30:02 6.7 C 6.46 g/m*3 6.7 C 0 km/h
2687 18-10-2010 09:42:01 6.9 C 6.54 g/m*3 6.9 C 0 km/h
2688 18-10-2010 09:54:02 7.2 C 6.52 g/m*3 7.2 C 0 km/h
2689 18-10-2010 10:06:01 7.4 C 6.6 g/m*3 7.4 C 0 km/h
2690 18-10-2010 10:18:02 7.6 C 6.36 g/m*3 7.6 C 0 km/h
2691 18-10-2010 10:30:03 7.6 C 5.88 g/m*3 7.6 C 0 km/h
2692 18-10-2010 10:42:01 7.6 C 5.56 g/m*3 7.6 C 0 km/h
2693 18-10-2010 10:54:02 7.6 C 5.56 g/m*3 7.6 C 0 km/h
2694 18-10-2010 11:06:02 7.5 C 5.12 g/m*3 7.5 C 0 km/h
2695 18-10-2010 11:18:02 7.6 C 5.08 g/m*3 7.6 C 0 km/h
2696 18-10-2010 11:30:02 7.8 C 5.14 g/m*3 7.8 C 0 km/h
2697 18-10-2010 11:42:02 8 C 4.96 g/m*3 8 C 0 km/h
2698 18-10-2010 11:54:02 7.9 C 5.01 g/m*3 7.9 C 0 km/h
2699 18-10-2010 12:06:02 8 C 4.96 g/m*3 8 C 0 km/h
2700 18-10-2010 12:18:01 8.3 C 5.06 g/m*3 8.3 C 0 km/h
Sensor: Nr:Datum:Temp:Abs-Feuchte:Windchill:Wind:
Aussen-T/F 2701 18-10-2010 12:30:01 8.4 C 5.01 g/m*3 8.4 C 0 km/h
2702 18-10-2010 12:42:02 8.2 C 4.94 g/m*3 8.2 C 0 km/h
2703 18-10-2010 12:54:02 8.4 C 4.92 g/m*3 8.4 C 0 km/h
2704 18-10-2010 13:06:02 9 C 4.85 g/m*3 9 C 0 km/h
2705 18-10-2010 13:18:02 8.7 C 4.76 g/m*3 8.7 C 0 km/h
2706 18-10-2010 13:30:02 8.7 C 4.76 g/m*3 8.7 C 0 km/h
2707 18-10-2010 13:42:02 8.8 C 4.96 g/m*3 8.8 C 0 km/h
2708 18-10-2010 13:54:01 8.9 C 4.91 g/m*3 8.9 C 0 km/h
2709 18-10-2010 14:06:02 9 C 4.94 g/m*3 9 C 0 km/h
2710 18-10-2010 14:18:01 8.8 C 4.79 g/m*3 8.8 C 0 km/h
2711 18-10-2010 14:30:01 8.8 C 4.87 g/m*3 8.8 C 0 km/h
2712 18-10-2010 14:42:01 8.8 C 4.87 g/m*3 8.8 C 0 km/h
2713 18-10-2010 14:54:01 9 C 4.85 g/m*3 9 C 0 km/h
2714 18-10-2010 15:06:02 8.9 C 4.82 g/m*3 8.9 C 0 km/h
2715 18-10-2010 15:18:01 8.7 C 4.76 g/m*3 8.7 C 0 km/h
2716 18-10-2010 15:30:01 8.7 C 4.84 g/m*3 8.7 C 0 km/h
2717 18-10-2010 15:42:01 8.7 C 4.93 g/m*3 8.7 C 0 km/h
2718 18-10-2010 15:54:01 8.7 C 4.93 g/m*3 8.7 C 0 km/h
2719 18-10-2010 16:06:01 8.7 C 4.84 g/m*3 8.7 C 0 km/h
2720 18-10-2010 16:18:02 8.6 C 4.81 g/m*3 8.6 C 0 km/h
2721 18-10-2010 16:30:02 8.7 C 4.84 g/m*3 8.7 C 0 km/h
2722 18-10-2010 16:42:01 8.9 C 4.99 g/m*3 8.9 C 0 km/h
2723 18-10-2010 16:54:03 8.8 C 5.05 g/m*3 8.8 C 0 km/h
2724 18-10-2010 17:06:02 8.8 C 5.05 g/m*3 8.8 C 0 km/h
2725 18-10-2010 17:18:02 8.7 C 4.84 g/m*3 8.7 C 0 km/h
Sensor: Nr:Datum:Temp:Abs-Feuchte:Windchill:Wind:
Aussen-T/F 2726 18-10-2010 17:30:02 8.5 C 4.78 g/m*3 8.5 C 0 km/h
2727 18-10-2010 17:42:02 8.4 C 4.84 g/m*3 8.4 C 0 km/h
2728 18-10-2010 17:54:02 8.2 C 4.77 g/m*3 8.2 C 0 km/h
2729 18-10-2010 18:06:01 8 C 4.88 g/m*3 8 C 0 km/h
2730 18-10-2010 18:18:02 7.9 C 5.01 g/m*3 7.9 C 0 km/h
2731 18-10-2010 18:30:02 7.8 C 5.06 g/m*3 7.8 C 0 km/h
2732 18-10-2010 18:42:02 7.7 C 5.03 g/m*3 7.7 C 0 km/h
2733 18-10-2010 18:54:02 7.4 C 4.85 g/m*3 7.4 C 0 km/h
2734 18-10-2010 19:06:01 6.8 C 4.82 g/m*3 6.8 C 0 km/h
2735 18-10-2010 19:18:01 6.6 C 4.83 g/m*3 6.6 C 0 km/h
2736 18-10-2010 19:30:01 6.3 C 4.89 g/m*3 6.3 C 0 km/h
2737 18-10-2010 19:42:02 6.1 C 4.89 g/m*3 6.1 C 0 km/h
2738 18-10-2010 19:54:02 5.8 C 5.01 g/m*3 5.8 C 0 km/h
2739 18-10-2010 20:06:02 5.7 C 5.05 g/m*3 5.7 C 0 km/h
2740 18-10-2010 20:18:01 5.7 C 5.05 g/m*3 5.7 C 0 km/h
2741 18-10-2010 20:30:01 5.6 C 5.02 g/m*3 5.6 C 0 km/h
2742 18-10-2010 20:42:02 5.5 C 5.06 g/m*3 5.5 C 0 km/h
2743 18-10-2010 20:54:02 5.5 C 5.06 g/m*3 5.5 C 0 km/h
2744 18-10-2010 21:06:02 5.3 C 4.99 g/m*3 5.3 C 0 km/h
2745 18-10-2010 21:18:02 5.3 C 5.06 g/m*3 5.3 C 0 km/h
2746 18-10-2010 21:30:02 5.3 C 5.06 g/m*3 5.3 C 0 km/h
2747 18-10-2010 21:42:02 5.1 C 4.99 g/m*3 5.1 C 0 km/h
2748 18-10-2010 21:54:02 4.9 C 5.06 g/m*3 4.9 C 0 km/h
2749 18-10-2010 22:06:02 5 C 5.03 g/m*3 5 C 0 km/h
2750 18-10-2010 22:18:02 5 C 5.03 g/m*3 5 C 0 km/h
Sensor: Nr:Datum:Temp:Abs-Feuchte:Windchill:Wind:
Aussen-T/F 2751 18-10-2010 22:30:02 5 C 5.03 g/m*3 5 C 0 km/h
2752 18-10-2010 22:42:02 4.8 C 5.1 g/m*3 4.8 C 0 km/h
2753 18-10-2010 22:54:02 4.8 C 5.1 g/m*3 4.8 C 0 km/h
2754 18-10-2010 23:06:02 4.8 C 5.1 g/m*3 4.8 C 0 km/h
2755 18-10-2010 23:18:02 4.9 C 5.13 g/m*3 4.9 C 0 km/h
2756 18-10-2010 23:30:02 4.9 C 5.2 g/m*3 4.9 C 0 km/h
2757 18-10-2010 23:42:02 4.9 C 5.2 g/m*3 4.9 C 0 km/h
2758 18-10-2010 23:54:02 4.8 C 5.23 g/m*3 4.8 C 0 km/h
2759 19-10-2010 00:06:01 5 C 5.23 g/m*3 5 C 0 km/h
2760 19-10-2010 00:18:02 5.1 C 5.2 g/m*3 5.1 C 0 km/h
2761 19-10-2010 00:30:02 5.1 C 5.27 g/m*3 5.1 C 0 km/h
2762 19-10-2010 00:42:01 5.2 C 5.23 g/m*3 5.2 C 0 km/h
2763 19-10-2010 00:54:02 5.3 C 5.27 g/m*3 5.3 C 0 km/h
2764 19-10-2010 01:06:01 5.4 C 5.23 g/m*3 5.4 C 0 km/h
2765 19-10-2010 01:18:02 5.4 C 5.23 g/m*3 5.4 C 0 km/h
2766 19-10-2010 01:30:02 5.4 C 5.3 g/m*3 5.4 C 0 km/h
2767 19-10-2010 01:42:01 5.4 C 5.3 g/m*3 5.4 C 0 km/h
2768 19-10-2010 01:54:02 5.5 C 5.27 g/m*3 5.5 C 0 km/h
2769 19-10-2010 02:06:02 5.6 C 5.23 g/m*3 5.6 C 0 km/h
2770 19-10-2010 02:18:02 5.6 C 5.23 g/m*3 5.6 C 0 km/h
2771 19-10-2010 02:30:02 5.6 C 5.3 g/m*3 5.6 C 0 km/h
2772 19-10-2010 02:42:03 5.4 C 5.37 g/m*3 5.4 C 0 km/h
2773 19-10-2010 02:55:04 5.3 C 5.48 g/m*3 5.3 C 0 km/h
2774 19-10-2010 03:07:04 5.3 C 5.54 g/m*3 5.3 C 0 km/h
2775 19-10-2010 03:19:03 5 C 5.64 g/m*3 5 C 0 km/h
Sensor: Nr:Datum:Temp:Abs-Feuchte:Windchill:Wind:
Aussen-T/F 2776 19-10-2010 03:31:02 4.9 C 5.81 g/m*3 4.9 C 0 km/h
2777 19-10-2010 03:43:02 4.8 C 5.83 g/m*3 4.8 C 0 km/h
2778 19-10-2010 03:55:02 4.8 C 5.9 g/m*3 4.8 C 0 km/h
2779 19-10-2010 04:07:01 4.8 C 5.97 g/m*3 4.8 C 0 km/h
2780 19-10-2010 04:19:01 4.9 C 6.08 g/m*3 4.9 C 0 km/h
2781 19-10-2010 04:31:02 5 C 6.05 g/m*3 5 C 0 km/h
2782 19-10-2010 04:43:02 5.2 C 6.06 g/m*3 5.2 C 0 km/h
2783 19-10-2010 04:55:02 5.3 C 6.03 g/m*3 5.3 C 0 km/h
2784 19-10-2010 05:07:02 5.4 C 6 g/m*3 5.4 C 0 km/h
2785 19-10-2010 05:19:02 5.5 C 5.97 g/m*3 5.5 C 0 km/h
2786 19-10-2010 05:31:02 5.5 C 6.04 g/m*3 5.5 C 0 km/h
2787 19-10-2010 05:43:02 5.4 C 6.14 g/m*3 5.4 C 0 km/h
2788 19-10-2010 05:55:01 5.3 C 6.17 g/m*3 5.3 C 0 km/h
2789 19-10-2010 06:07:02 5.3 C 6.17 g/m*3 5.3 C 0 km/h
2790 19-10-2010 06:19:01 5.5 C 6.32 g/m*3 5.5 C 0 km/h
2791 19-10-2010 06:31:01 5.7 C 6.33 g/m*3 5.7 C 0 km/h
2792 19-10-2010 06:43:02 5.7 C 6.33 g/m*3 5.7 C 0 km/h
2793 19-10-2010 06:55:02 5.8 C 6.38 g/m*3 5.8 C 0 km/h
2794 19-10-2010 07:07:02 5.9 C 6.42 g/m*3 5.9 C 0 km/h
2795 19-10-2010 07:19:02 5.9 C 6.42 g/m*3 5.9 C 0 km/h
2796 19-10-2010 07:31:02 6 C 6.39 g/m*3 6 C 0 km/h
2797 19-10-2010 07:43:02 6 C 6.31 g/m*3 6 C 0 km/h
2798 19-10-2010 07:55:02 6.1 C 6.36 g/m*3 6.1 C 0 km/h
2799 19-10-2010 08:07:02 6.1 C 6.36 g/m*3 6.1 C 0 km/h
2800 19-10-2010 08:19:02 6 C 6.39 g/m*3 6 C 0 km/h
Sensor: Nr:Datum:Temp:Abs-Feuchte:Windchill:Wind:
Aussen-T/F 2801 19-10-2010 08:31:02 5.9 C 6.42 g/m*3 5.9 C 0 km/h
2802 19-10-2010 08:43:03 5.9 C 6.49 g/m*3 5.9 C 0 km/h
2803 19-10-2010 08:55:02 6 C 6.46 g/m*3 6 C 0 km/h
2804 19-10-2010 09:07:02 6.2 C 6.55 g/m*3 6.2 C 0 km/h
2805 19-10-2010 09:19:02 6.4 C 6.63 g/m*3 6.4 C 0 km/h
2806 19-10-2010 09:31:02 6.6 C 6.64 g/m*3 6.6 C 0 km/h
2807 19-10-2010 09:43:02 6.7 C 6.61 g/m*3 6.7 C 0 km/h
2808 19-10-2010 09:55:02 6.8 C 6.65 g/m*3 6.8 C 0 km/h
2809 19-10-2010 10:07:02 7.1 C 6.63 g/m*3 7.1 C 0 km/h
2810 19-10-2010 10:19:03 7.3 C 6.64 g/m*3 7.3 C 0 km/h
2811 19-10-2010 10:31:02 7.4 C 6.68 g/m*3 7.4 C 0 km/h
2812 19-10-2010 10:43:02 7.4 C 6.6 g/m*3 7.4 C 0 km/h
2813 19-10-2010 10:55:02 7.5 C 6.72 g/m*3 7.5 C 0 km/h
2814 19-10-2010 11:07:02 7.3 C 6.72 g/m*3 7.3 C 0 km/h
2815 19-10-2010 11:19:02 7.4 C 6.92 g/m*3 7.4 C 0 km/h
2816 19-10-2010 11:31:02 7.5 C 6.96 g/m*3 7.5 C 0 km/h
2817 19-10-2010 11:43:02 7.6 C 7.01 g/m*3 7.6 C 0 km/h
2818 19-10-2010 11:55:02 7.7 C 7.05 g/m*3 7.7 C 0 km/h
2819 19-10-2010 12:07:01 7.9 C 7.06 g/m*3 7.9 C 0 km/h
2820 19-10-2010 12:19:02 8 C 6.94 g/m*3 8 C 0 km/h
2821 19-10-2010 12:31:01 7.9 C 7.06 g/m*3 7.9 C 0 km/h
2822 19-10-2010 12:43:01 8 C 7.11 g/m*3 8 C 0 km/h
2823 19-10-2010 12:55:02 8.1 C 7.24 g/m*3 8.1 C 0 km/h
2824 19-10-2010 13:07:02 8.5 C 7.43 g/m*3 8.5 C 0 km/h
2825 19-10-2010 13:19:02 8.9 C 7.62 g/m*3 8.9 C 0 km/h
Sensor: Nr:Datum:Temp:Abs-Feuchte:Windchill:Wind:
Aussen-T/F 2826 19-10-2010 13:31:02 9 C 7.49 g/m*3 9 C 0 km/h
2827 19-10-2010 13:43:02 9.3 C 7.46 g/m*3 9.3 C 0 km/h
2828 19-10-2010 13:55:02 9.7 C 7.38 g/m*3 9.7 C 0 km/h
2829 19-10-2010 14:07:02 10 C 7.24 g/m*3 10 C 0 km/h
2830 19-10-2010 14:19:02 9.7 C 7.19 g/m*3 9.7 C 0 km/h
2831 19-10-2010 14:31:01 9.7 C 7.47 g/m*3 9.7 C 0 km/h
2832 19-10-2010 14:43:01 9.6 C 7.6 g/m*3 9.6 C 0 km/h
2833 19-10-2010 14:55:02 10 C 7.61 g/m*3 10 C 0 km/h
2834 19-10-2010 15:07:01 9.8 C 7.42 g/m*3 9.8 C 0 km/h
2835 19-10-2010 15:19:01 10.2 C 7.33 g/m*3 10.2 C 0 km/h
2836 19-10-2010 15:31:02 10.3 C 7.18 g/m*3 10.3 C 0 km/h
2837 19-10-2010 15:43:02 10.2 C 7.23 g/m*3 10.2 C 0 km/h
2838 19-10-2010 15:55:02 11.2 C 7.7 g/m*3 11.2 C 0 km/h
2839 19-10-2010 16:07:02 12.6 C 7.52 g/m*3 12.6 C 0 km/h
2840 19-10-2010 16:19:02 14.2 C 7.45 g/m*3 14.2 C 0 km/h
2841 19-10-2010 16:31:02 14.1 C 6.43 g/m*3 14.1 C 0 km/h
2842 19-10-2010 16:43:02 11 C 6.41 g/m*3 11 C 0 km/h
2843 19-10-2010 16:55:02 10.4 C 7.04 g/m*3 10.4 C 0 km/h
2844 19-10-2010 17:07:03 9.9 C 7.28 g/m*3 9.9 C 0 km/h
2845 19-10-2010 17:19:02 9.7 C 7.1 g/m*3 9.7 C 0 km/h
2846 19-10-2010 17:31:02 10.1 C 7 g/m*3 10.1 C 0 km/h
2847 19-10-2010 17:43:02 10.8 C 7.41 g/m*3 10.8 C 0 km/h
2848 19-10-2010 17:55:01 11 C 7.31 g/m*3 11 C 0 km/h
2849 19-10-2010 18:07:02 10.3 C 6.99 g/m*3 10.3 C 0 km/h
2850 19-10-2010 18:19:02 9.3 C 6.92 g/m*3 9.3 C 0 km/h
Sensor: Nr:Datum:Temp:Abs-Feuchte:Windchill:Wind:
Aussen-T/F 2851 19-10-2010 18:31:01 8.9 C 7.01 g/m*3 8.9 C 0 km/h
2852 19-10-2010 18:43:01 8.4 C 6.87 g/m*3 8.4 C 0 km/h
2853 19-10-2010 18:55:01 8.3 C 7 g/m*3 8.3 C 0 km/h
2854 19-10-2010 19:07:01 8.1 C 6.91 g/m*3 8.1 C 0 km/h
2855 19-10-2010 19:19:02 8 C 6.86 g/m*3 8 C 0 km/h
2856 19-10-2010 19:31:01 8.1 C 6.99 g/m*3 8.1 C 0 km/h
2857 19-10-2010 19:43:01 7.9 C 6.9 g/m*3 7.9 C 0 km/h
2858 19-10-2010 19:55:02 7.8 C 6.61 g/m*3 7.8 C 0 km/h
2859 19-10-2010 20:07:01 7.4 C 6.44 g/m*3 7.4 C 0 km/h
2860 19-10-2010 20:19:01 7.4 C 6.52 g/m*3 7.4 C 0 km/h
2861 19-10-2010 20:31:01 7.3 C 6.4 g/m*3 7.3 C 0 km/h
2862 19-10-2010 20:43:01 7.3 C 6.48 g/m*3 7.3 C 0 km/h
2863 19-10-2010 20:55:02 7.4 C 6.44 g/m*3 7.4 C 0 km/h
2864 19-10-2010 21:07:02 7.4 C 6.36 g/m*3 7.4 C 0 km/h
2865 19-10-2010 21:19:02 7 C 6.2 g/m*3 7 C 0 km/h
2866 19-10-2010 21:31:02 6.9 C 6.24 g/m*3 6.9 C 0 km/h
2867 19-10-2010 21:43:02 6.7 C 6.15 g/m*3 6.7 C 0 km/h
2868 19-10-2010 21:55:02 6.7 C 6.15 g/m*3 6.7 C 0 km/h
2869 19-10-2010 22:07:02 6.5 C 6.15 g/m*3 6.5 C 0 km/h
2870 19-10-2010 22:20:03 6.5 C 6.15 g/m*3 6.5 C 0 km/h
2871 19-10-2010 22:32:03 6.5 C 6.15 g/m*3 6.5 C 0 km/h
2872 19-10-2010 22:44:03 6.5 C 6.15 g/m*3 6.5 C 0 km/h
2873 19-10-2010 22:56:03 6.6 C 6.19 g/m*3 6.6 C 0 km/h
2874 19-10-2010 23:08:03 6.7 C 6.23 g/m*3 6.7 C 0 km/h
2875 19-10-2010 23:20:03 6.7 C 6.23 g/m*3 6.7 C 0 km/h
Sensor: Nr:Datum:Temp:Abs-Feuchte:Windchill:Wind:
Aussen-T/F 2876 19-10-2010 23:32:04 6.5 C 6.15 g/m*3 6.5 C 0 km/h
2877 19-10-2010 23:44:04 6.4 C 6.18 g/m*3 6.4 C 0 km/h
2878 19-10-2010 23:56:04 6.4 C 6.18 g/m*3 6.4 C 0 km/h
2879 20-10-2010 00:08:04 6.3 C 6.14 g/m*3 6.3 C 0 km/h
2880 20-10-2010 00:20:04 6.4 C 6.18 g/m*3 6.4 C 0 km/h
2881 20-10-2010 00:32:04 6.2 C 6.1 g/m*3 6.2 C 0 km/h
2882 20-10-2010 00:44:04 6.4 C 6.18 g/m*3 6.4 C 0 km/h
2883 20-10-2010 00:56:04 6.4 C 6.18 g/m*3 6.4 C 0 km/h
2884 20-10-2010 01:08:04 6.4 C 6.18 g/m*3 6.4 C 0 km/h
2885 20-10-2010 01:20:04 6.5 C 6.15 g/m*3 6.5 C 0 km/h
2886 20-10-2010 01:32:04 6.4 C 6.11 g/m*3 6.4 C 0 km/h
2887 20-10-2010 01:44:04 6.4 C 6.18 g/m*3 6.4 C 0 km/h
2888 20-10-2010 01:56:04 6.2 C 6.18 g/m*3 6.2 C 0 km/h
2889 20-10-2010 02:08:04 6.1 C 6.28 g/m*3 6.1 C 0 km/h
2890 20-10-2010 02:20:04 6 C 6.31 g/m*3 6 C 0 km/h
2891 20-10-2010 02:32:04 5.9 C 6.42 g/m*3 5.9 C 0 km/h
2892 20-10-2010 02:44:04 5.9 C 6.49 g/m*3 5.9 C 0 km/h
2893 20-10-2010 02:56:04 5.8 C 6.45 g/m*3 5.8 C 0 km/h
2894 20-10-2010 03:08:04 5.8 C 6.52 g/m*3 5.8 C 0 km/h
2895 20-10-2010 03:20:04 5.7 C 6.48 g/m*3 5.7 C 0 km/h
2896 20-10-2010 03:32:04 5.7 C 6.48 g/m*3 5.7 C 0 km/h
2897 20-10-2010 03:44:05 5.8 C 6.59 g/m*3 5.8 C 0 km/h
2898 20-10-2010 03:56:05 5.8 C 6.59 g/m*3 5.8 C 0 km/h
2899 20-10-2010 04:08:05 5.8 C 6.52 g/m*3 5.8 C 0 km/h
2900 20-10-2010 04:20:05 5.8 C 6.52 g/m*3 5.8 C 0 km/h
Sensor: Nr:Datum:Temp:Abs-Feuchte:Windchill:Wind:
Aussen-T/F 2901 20-10-2010 04:32:05 5.9 C 6.56 g/m*3 5.9 C 0 km/h
2902 20-10-2010 04:44:05 5.9 C 6.49 g/m*3 5.9 C 0 km/h
2903 20-10-2010 04:56:05 5.8 C 6.45 g/m*3 5.8 C 0 km/h
2904 20-10-2010 05:08:05 5.7 C 6.48 g/m*3 5.7 C 0 km/h
2905 20-10-2010 05:20:05 5.7 C 6.55 g/m*3 5.7 C 0 km/h
2906 20-10-2010 05:32:05 5.6 C 6.57 g/m*3 5.6 C 0 km/h
2907 20-10-2010 05:44:05 5.6 C 6.57 g/m*3 5.6 C 0 km/h
2908 20-10-2010 05:56:05 5.5 C 6.6 g/m*3 5.5 C 0 km/h
2909 20-10-2010 06:08:05 5.5 C 6.6 g/m*3 5.5 C 0 km/h
2910 20-10-2010 06:20:05 5.5 C 6.6 g/m*3 5.5 C 0 km/h
2911 20-10-2010 06:32:05 5.5 C 6.6 g/m*3 5.5 C 0 km/h
2912 20-10-2010 06:44:05 5.5 C 6.6 g/m*3 5.5 C 0 km/h
2913 20-10-2010 06:56:05 5.6 C 6.65 g/m*3 5.6 C 0 km/h
2914 20-10-2010 07:08:05 5.5 C 6.67 g/m*3 5.5 C 0 km/h
2915 20-10-2010 07:20:05 5.5 C 6.67 g/m*3 5.5 C 0 km/h
2916 20-10-2010 07:32:05 5.5 C 6.67 g/m*3 5.5 C 0 km/h
2917 20-10-2010 07:44:05 5.5 C 6.6 g/m*3 5.5 C 0 km/h
2918 20-10-2010 07:56:06 5.5 C 6.6 g/m*3 5.5 C 0 km/h
2919 20-10-2010 08:08:03 5.5 C 6.6 g/m*3 5.5 C 0 km/h
2920 20-10-2010 08:20:04 5.5 C 6.6 g/m*3 5.5 C 0 km/h
2921 20-10-2010 08:32:03 5.6 C 6.65 g/m*3 5.6 C 0 km/h
2922 20-10-2010 08:44:03 5.6 C 6.65 g/m*3 5.6 C 0 km/h
2923 20-10-2010 08:56:02 5.8 C 6.81 g/m*3 5.8 C 0 km/h
2924 20-10-2010 09:08:02 5.8 C 6.81 g/m*3 5.8 C 0 km/h
2925 20-10-2010 09:20:02 5.8 C 6.73 g/m*3 5.8 C 0 km/h
Sensor: Nr:Datum:Temp:Abs-Feuchte:Windchill:Wind:
Aussen-T/F 2926 20-10-2010 09:32:02 5.9 C 6.78 g/m*3 5.9 C 0 km/h
2927 20-10-2010 09:44:02 6.1 C 6.87 g/m*3 6.1 C 0 km/h
2928 20-10-2010 09:56:02 6.4 C 7 g/m*3 6.4 C 0 km/h
2929 20-10-2010 10:08:01 6.8 C 7.11 g/m*3 6.8 C 0 km/h
2930 20-10-2010 10:20:02 6.8 C 7.04 g/m*3 6.8 C 0 km/h
2931 20-10-2010 10:32:02 7 C 6.97 g/m*3 7 C 0 km/h
2932 20-10-2010 10:44:02 7.1 C 6.94 g/m*3 7.1 C 0 km/h
2933 20-10-2010 10:56:01 6.9 C 6.7 g/m*3 6.9 C 0 km/h
2934 20-10-2010 11:08:02 6.9 C 6.54 g/m*3 6.9 C 0 km/h
2935 20-10-2010 11:20:01 6.9 C 6.54 g/m*3 6.9 C 0 km/h
2936 20-10-2010 11:32:02 6.9 C 6.54 g/m*3 6.9 C 0 km/h
2937 20-10-2010 11:44:02 6.8 C 6.35 g/m*3 6.8 C 0 km/h
2938 20-10-2010 11:56:02 6.7 C 6.23 g/m*3 6.7 C 0 km/h
2939 20-10-2010 12:08:02 6.7 C 6.23 g/m*3 6.7 C 0 km/h
2940 20-10-2010 12:20:01 7 C 6.43 g/m*3 7 C 0 km/h
2941 20-10-2010 12:32:02 6.9 C 6.47 g/m*3 6.9 C 0 km/h
2942 20-10-2010 12:44:02 6.9 C 6.39 g/m*3 6.9 C 0 km/h
2943 20-10-2010 12:56:02 7.1 C 6.4 g/m*3 7.1 C 0 km/h
2944 20-10-2010 13:08:02 7.4 C 6.44 g/m*3 7.4 C 0 km/h
2945 20-10-2010 13:20:01 7.6 C 6.36 g/m*3 7.6 C 0 km/h
2946 20-10-2010 13:32:02 7.9 C 6.32 g/m*3 7.9 C 0 km/h
2947 20-10-2010 13:44:02 8.4 C 6.02 g/m*3 8.4 C 0 km/h
2948 20-10-2010 13:56:02 8.3 C 5.82 g/m*3 8.3 C 0 km/h
2949 20-10-2010 14:08:02 8.4 C 5.77 g/m*3 8.4 C 0 km/h
2950 20-10-2010 14:20:02 9.2 C 5.98 g/m*3 9.2 C 0 km/h
Sensor: Nr:Datum:Temp:Abs-Feuchte:Windchill:Wind:
Aussen-T/F 2951 20-10-2010 14:32:02 9.5 C 5.73 g/m*3 9.5 C 0 km/h
2952 20-10-2010 14:44:02 10.2 C 5.71 g/m*3 10.2 C 0 km/h
2953 20-10-2010 14:56:02 10.1 C 5.11 g/m*3 10.1 C 0 km/h
2954 20-10-2010 15:08:02 7.8 C 5.22 g/m*3 7.8 C 0 km/h
2955 20-10-2010 15:20:02 7.2 C 5.65 g/m*3 7.2 C 0 km/h
2956 20-10-2010 15:32:02 7.6 C 5.72 g/m*3 7.6 C 0 km/h
2957 20-10-2010 15:44:02 7.8 C 5.63 g/m*3 7.8 C 0 km/h
2958 20-10-2010 15:56:02 8 C 5.54 g/m*3 8 C 0 km/h
2959 20-10-2010 16:08:01 8.2 C 5.28 g/m*3 8.2 C 0 km/h
2960 20-10-2010 16:20:02 7.6 C 5.16 g/m*3 7.6 C 0 km/h
2961 20-10-2010 16:32:02 7 C 4.88 g/m*3 7 C 0 km/h
2962 20-10-2010 16:44:02 6.9 C 4.93 g/m*3 6.9 C 0 km/h
2963 20-10-2010 16:56:02 7.1 C 5.07 g/m*3 7.1 C 0 km/h
2964 20-10-2010 17:08:01 7.3 C 4.9 g/m*3 7.3 C 0 km/h
2965 20-10-2010 17:20:01 7.3 C 4.66 g/m*3 7.3 C 0 km/h
2966 20-10-2010 17:32:02 6.9 C 4.93 g/m*3 6.9 C 0 km/h
2967 20-10-2010 17:44:02 6.9 C 5.08 g/m*3 6.9 C 0 km/h
2968 20-10-2010 17:56:02 6.7 C 5.01 g/m*3 6.7 C 0 km/h
2969 20-10-2010 18:08:02 6.4 C 4.99 g/m*3 6.4 C 0 km/h
2970 20-10-2010 18:20:02 6.2 C 5 g/m*3 6.2 C 0 km/h
2971 20-10-2010 18:32:02 6.3 C 5.11 g/m*3 6.3 C 0 km/h
2972 20-10-2010 18:44:02 6.3 C 5.03 g/m*3 6.3 C 0 km/h
2973 20-10-2010 18:56:02 6.4 C 5.07 g/m*3 6.4 C 0 km/h
2974 20-10-2010 19:08:02 5.5 C 4.99 g/m*3 5.5 C 0 km/h
2975 20-10-2010 19:20:02 4.7 C 5.13 g/m*3 4.7 C 0 km/h
Sensor: Nr:Datum:Temp:Abs-Feuchte:Windchill:Wind:
Aussen-T/F 2976 20-10-2010 19:32:02 4.5 C 5.32 g/m*3 4.5 C 0 km/h
2977 20-10-2010 19:44:02 4.2 C 5.35 g/m*3 4.2 C 0 km/h
2978 20-10-2010 19:56:01 4.3 C 5.38 g/m*3 4.3 C 0 km/h
2979 20-10-2010 20:08:01 4.5 C 5.39 g/m*3 4.5 C 0 km/h
2980 20-10-2010 20:20:02 4.5 C 5.32 g/m*3 4.5 C 0 km/h
2981 20-10-2010 20:32:01 4.5 C 5.26 g/m*3 4.5 C 0 km/h
2982 20-10-2010 20:44:01 4.7 C 5.2 g/m*3 4.7 C 0 km/h
2983 20-10-2010 20:56:01 4.5 C 5.06 g/m*3 4.5 C 0 km/h
2984 20-10-2010 21:08:01 4.5 C 5.13 g/m*3 4.5 C 0 km/h
2985 20-10-2010 21:20:02 4.5 C 5.13 g/m*3 4.5 C 0 km/h
2986 20-10-2010 21:32:01 4.5 C 5.13 g/m*3 4.5 C 0 km/h
2987 20-10-2010 21:44:01 4.5 C 5.13 g/m*3 4.5 C 0 km/h
2988 20-10-2010 21:56:03 4.3 C 5.06 g/m*3 4.3 C 0 km/h
2989 20-10-2010 22:08:02 4.2 C 5.09 g/m*3 4.2 C 0 km/h
2990 20-10-2010 22:20:02 4.4 C 5.09 g/m*3 4.4 C 0 km/h
2991 20-10-2010 22:32:02 4.6 C 5.16 g/m*3 4.6 C 0 km/h
2992 20-10-2010 22:44:02 4.6 C 5.03 g/m*3 4.6 C 0 km/h
2993 20-10-2010 22:57:04 4.6 C 4.96 g/m*3 4.6 C 0 km/h
2994 20-10-2010 23:09:04 4.5 C 5 g/m*3 4.5 C 0 km/h
2995 20-10-2010 23:21:04 4.2 C 5.03 g/m*3 4.2 C 0 km/h
2996 20-10-2010 23:33:04 4.3 C 5.06 g/m*3 4.3 C 0 km/h
2997 20-10-2010 23:45:04 4.2 C 5.03 g/m*3 4.2 C 0 km/h
2998 20-10-2010 23:57:04 4.4 C 5.16 g/m*3 4.4 C 0 km/h
2999 21-10-2010 00:09:04 4.5 C 5.13 g/m*3 4.5 C 0 km/h
3000 21-10-2010 00:21:04 4.5 C 5.06 g/m*3 4.5 C 0 km/h
Sensor: Nr:Datum:Temp:Abs-Feuchte:Windchill:Wind:
Aussen-T/F 3001 21-10-2010 00:33:04 4.6 C 5.1 g/m*3 4.6 C 0 km/h
3002 21-10-2010 00:45:04 4.7 C 5.13 g/m*3 4.7 C 0 km/h
3003 21-10-2010 00:57:04 4.7 C 5.13 g/m*3 4.7 C 0 km/h
3004 21-10-2010 01:09:04 4.6 C 5.1 g/m*3 4.6 C 0 km/h
3005 21-10-2010 01:21:04 4.5 C 5.06 g/m*3 4.5 C 0 km/h
3006 21-10-2010 01:33:04 4.3 C 4.99 g/m*3 4.3 C 0 km/h
3007 21-10-2010 01:45:04 4.5 C 5.06 g/m*3 4.5 C 0 km/h
3008 21-10-2010 01:57:04 4.3 C 4.99 g/m*3 4.3 C 0 km/h
3009 21-10-2010 02:09:04 4.1 C 4.93 g/m*3 4.1 C 0 km/h
3010 21-10-2010 02:21:04 3.8 C 4.96 g/m*3 3.8 C 0 km/h
3011 21-10-2010 02:33:05 3.7 C 4.99 g/m*3 3.7 C 0 km/h
3012 21-10-2010 02:45:05 3.6 C 5.01 g/m*3 3.6 C 0 km/h
3013 21-10-2010 02:57:05 3.5 C 4.98 g/m*3 3.5 C 0 km/h
3014 21-10-2010 03:09:05 3.5 C 4.98 g/m*3 3.5 C 0 km/h
3015 21-10-2010 03:21:05 3.4 C 5.01 g/m*3 3.4 C 0 km/h
3016 21-10-2010 03:33:05 3.4 C 5.01 g/m*3 3.4 C 0 km/h
3017 21-10-2010 03:45:05 3.3 C 4.97 g/m*3 3.3 C 0 km/h
3018 21-10-2010 03:57:05 3 C 4.93 g/m*3 3 C 0 km/h
3019 21-10-2010 04:09:05 3 C 4.93 g/m*3 3 C 0 km/h
3020 21-10-2010 04:21:05 3 C 4.99 g/m*3 3 C 0 km/h
3021 21-10-2010 04:33:05 2.5 C 4.83 g/m*3 2.5 C 0 km/h
3022 21-10-2010 04:45:05 2.3 C 4.82 g/m*3 2.3 C 0 km/h
3023 21-10-2010 04:57:05 2.4 C 4.91 g/m*3 2.4 C 0 km/h
3024 21-10-2010 05:09:05 2.4 C 4.97 g/m*3 2.4 C 0 km/h
3025 21-10-2010 05:21:05 2.1 C 4.87 g/m*3 2.1 C 0 km/h
Sensor: Nr:Datum:Temp:Abs-Feuchte:Windchill:Wind:
Aussen-T/F 3026 21-10-2010 05:33:05 1.8 C 4.77 g/m*3 1.8 C 0 km/h
3027 21-10-2010 05:45:05 1.6 C 4.7 g/m*3 1.6 C 0 km/h
3028 21-10-2010 05:57:05 1.7 C 4.79 g/m*3 1.7 C 0 km/h
3029 21-10-2010 06:09:05 1.5 C 4.73 g/m*3 1.5 C 0 km/h
3030 21-10-2010 06:21:05 1.6 C 4.81 g/m*3 1.6 C 0 km/h
3031 21-10-2010 06:33:06 1.8 C 4.93 g/m*3 1.8 C 0 km/h
3032 21-10-2010 06:45:06 1.8 C 4.99 g/m*3 1.8 C 0 km/h
3033 21-10-2010 06:57:06 1.8 C 5.04 g/m*3 1.8 C 0 km/h
3034 21-10-2010 07:09:06 1.7 C 5.01 g/m*3 1.7 C 0 km/h
3035 21-10-2010 07:21:06 1.8 C 5.04 g/m*3 1.8 C 0 km/h
3036 21-10-2010 07:33:06 1.6 C 4.97 g/m*3 1.6 C 0 km/h
3037 21-10-2010 07:45:06 1.6 C 4.97 g/m*3 1.6 C 0 km/h
3038 21-10-2010 07:57:06 1.6 C 4.97 g/m*3 1.6 C 0 km/h
3039 21-10-2010 08:09:06 1.7 C 5.01 g/m*3 1.7 C 0 km/h
3040 21-10-2010 08:21:03 1.8 C 5.04 g/m*3 1.8 C 0 km/h
3041 21-10-2010 08:33:04 1.9 C 5.08 g/m*3 1.9 C 0 km/h
3042 21-10-2010 08:45:02 2.5 C 5.29 g/m*3 2.5 C 0 km/h
3043 21-10-2010 08:57:03 2.6 C 5.27 g/m*3 2.6 C 0 km/h
3044 21-10-2010 09:09:02 2.6 C 5.27 g/m*3 2.6 C 0 km/h
3045 21-10-2010 09:21:02 2.8 C 5.28 g/m*3 2.8 C 0 km/h
3046 21-10-2010 09:33:02 3 C 5.23 g/m*3 3 C 0 km/h
3047 21-10-2010 09:45:01 3.2 C 5.24 g/m*3 3.2 C 0 km/h
3048 21-10-2010 09:57:01 3.4 C 5.19 g/m*3 3.4 C 0 km/h
3049 21-10-2010 10:09:02 3.7 C 5.17 g/m*3 3.7 C 0 km/h
3050 21-10-2010 10:21:01 3.9 C 5.05 g/m*3 3.9 C 0 km/h
Sensor: Nr:Datum:Temp:Abs-Feuchte:Windchill:Wind:
Aussen-T/F 3051 21-10-2010 10:33:02 4.1 C 4.99 g/m*3 4.1 C 0 km/h
3052 21-10-2010 10:45:02 4.3 C 4.99 g/m*3 4.3 C 0 km/h
3053 21-10-2010 10:57:02 4.8 C 5.1 g/m*3 4.8 C 0 km/h
3054 21-10-2010 11:09:02 5.1 C 4.99 g/m*3 5.1 C 0 km/h
3055 21-10-2010 11:21:01 5.4 C 5.09 g/m*3 5.4 C 0 km/h
3056 21-10-2010 11:33:02 5.7 C 4.98 g/m*3 5.7 C 0 km/h
3057 21-10-2010 11:45:02 5.9 C 4.98 g/m*3 5.9 C 0 km/h
3058 21-10-2010 11:57:02 6.1 C 4.89 g/m*3 6.1 C 0 km/h
3059 21-10-2010 12:09:02 6.4 C 4.84 g/m*3 6.4 C 0 km/h
3060 21-10-2010 12:21:01 6.7 C 4.71 g/m*3 6.7 C 0 km/h
3061 21-10-2010 12:33:02 7 C 4.57 g/m*3 7 C 0 km/h
3062 21-10-2010 12:45:02 7.2 C 4.47 g/m*3 7.2 C 0 km/h
3063 21-10-2010 12:57:02 7.6 C 4.51 g/m*3 7.6 C 0 km/h
3064 21-10-2010 13:09:02 7.9 C 4.44 g/m*3 7.9 C 0 km/h
3065 21-10-2010 13:21:02 8.3 C 4.3 g/m*3 8.3 C 0 km/h
3066 21-10-2010 13:33:02 8.7 C 4.06 g/m*3 8.7 C 0 km/h
3067 21-10-2010 13:45:02 9.1 C 3.99 g/m*3 9.1 C 0 km/h
3068 21-10-2010 13:57:02 9.5 C 3.82 g/m*3 9.5 C 0 km/h
3069 21-10-2010 14:09:02 9.9 C 3.92 g/m*3 9.9 C 0 km/h
3070 21-10-2010 14:21:02 10.1 C 3.78 g/m*3 10.1 C 0 km/h
3071 21-10-2010 14:33:01 10.5 C 3.88 g/m*3 10.5 C 0 km/h
3072 21-10-2010 14:45:02 10.6 C 3.9 g/m*3 10.6 C 0 km/h
3073 21-10-2010 14:57:02 10.8 C 3.85 g/m*3 10.8 C 0 km/h
3074 21-10-2010 15:09:01 10.7 C 3.63 g/m*3 10.7 C 0 km/h
3075 21-10-2010 15:21:02 10.6 C 3.61 g/m*3 10.6 C 0 km/h
Sensor: Nr:Datum:Temp:Abs-Feuchte:Windchill:Wind:
Aussen-T/F 3076 21-10-2010 15:33:01 10.6 C 3.51 g/m*3 10.6 C 0 km/h
3077 21-10-2010 15:45:02 10.7 C 3.73 g/m*3 10.7 C 0 km/h
3078 21-10-2010 15:57:03 10.7 C 3.63 g/m*3 10.7 C 0 km/h
3079 21-10-2010 16:09:02 10.9 C 3.78 g/m*3 10.9 C 0 km/h
3080 21-10-2010 16:21:02 10.6 C 3.61 g/m*3 10.6 C 0 km/h
3081 21-10-2010 16:33:02 10.2 C 3.52 g/m*3 10.2 C 0 km/h
3082 21-10-2010 16:45:02 9.9 C 3.64 g/m*3 9.9 C 0 km/h
3083 21-10-2010 16:57:02 10.4 C 3.66 g/m*3 10.4 C 0 km/h
3084 21-10-2010 17:09:02 11.2 C 3.65 g/m*3 11.2 C 0 km/h
3085 21-10-2010 17:21:01 11.4 C 3.59 g/m*3 11.4 C 0 km/h
3086 21-10-2010 17:33:02 11.3 C 3.47 g/m*3 11.3 C 0 km/h
3087 21-10-2010 17:45:02 10.9 C 3.58 g/m*3 10.9 C 0 km/h
3088 21-10-2010 17:57:02 10 C 3.48 g/m*3 10 C 0 km/h
3089 21-10-2010 18:09:02 8.9 C 3.94 g/m*3 8.9 C 0 km/h
3090 21-10-2010 18:21:01 7.8 C 3.92 g/m*3 7.8 C 0 km/h
3091 21-10-2010 18:33:02 7.2 C 3.92 g/m*3 7.2 C 0 km/h
3092 21-10-2010 18:45:02 6.7 C 4.03 g/m*3 6.7 C 0 km/h
3093 21-10-2010 18:57:02 6.3 C 4.07 g/m*3 6.3 C 0 km/h
3094 21-10-2010 19:09:02 6.1 C 4.02 g/m*3 6.1 C 0 km/h
3095 21-10-2010 19:21:01 5.8 C 4.01 g/m*3 5.8 C 0 km/h
3096 21-10-2010 19:33:02 5.6 C 4.03 g/m*3 5.6 C 0 km/h
3097 21-10-2010 19:45:02 5.5 C 4.07 g/m*3 5.5 C 0 km/h
3098 21-10-2010 19:57:02 5.2 C 4.13 g/m*3 5.2 C 0 km/h
3099 21-10-2010 20:09:02 5 C 4.08 g/m*3 5 C 0 km/h
3100 21-10-2010 20:21:02 4.8 C 4.09 g/m*3 4.8 C 0 km/h
Sensor: Nr:Datum:Temp:Abs-Feuchte:Windchill:Wind:
Aussen-T/F 3101 21-10-2010 20:33:02 4.7 C 4.06 g/m*3 4.7 C 0 km/h
3102 21-10-2010 20:45:02 4.7 C 3.86 g/m*3 4.7 C 0 km/h
3103 21-10-2010 20:57:02 5.1 C 3.69 g/m*3 5.1 C 0 km/h
3104 21-10-2010 21:09:02 5 C 3.6 g/m*3 5 C 0 km/h
3105 21-10-2010 21:21:02 4.9 C 3.71 g/m*3 4.9 C 0 km/h
3106 21-10-2010 21:33:02 4.6 C 3.77 g/m*3 4.6 C 0 km/h
3107 21-10-2010 21:45:02 4.5 C 3.75 g/m*3 4.5 C 0 km/h
3108 21-10-2010 21:57:02 4.1 C 3.84 g/m*3 4.1 C 0 km/h
3109 21-10-2010 22:09:02 4 C 3.81 g/m*3 4 C 0 km/h
3110 21-10-2010 22:22:04 4.1 C 3.78 g/m*3 4.1 C 0 km/h
3111 21-10-2010 22:34:04 3.8 C 3.83 g/m*3 3.8 C 0 km/h
3112 21-10-2010 22:46:04 3.7 C 3.86 g/m*3 3.7 C 0 km/h
3113 21-10-2010 22:58:04 3.6 C 3.9 g/m*3 3.6 C 0 km/h
3114 21-10-2010 23:10:04 3.5 C 3.87 g/m*3 3.5 C 0 km/h
3115 21-10-2010 23:22:04 3.5 C 3.87 g/m*3 3.5 C 0 km/h
3116 21-10-2010 23:34:04 3.3 C 3.88 g/m*3 3.3 C 0 km/h
3117 21-10-2010 23:46:04 2.9 C 3.9 g/m*3 2.9 C 0 km/h
3118 21-10-2010 23:58:04 2.5 C 3.91 g/m*3 2.5 C 0 km/h
3119 22-10-2010 00:10:04 2.2 C 4 g/m*3 2.2 C 0 km/h
3120 22-10-2010 00:22:04 2.2 C 4.06 g/m*3 2.2 C 0 km/h
3121 22-10-2010 00:34:05 2.8 C 4.11 g/m*3 2.8 C 0 km/h
3122 22-10-2010 00:46:05 2.5 C 4.08 g/m*3 2.5 C 0 km/h
3123 22-10-2010 00:58:05 2.2 C 4.06 g/m*3 2.2 C 0 km/h
3124 22-10-2010 01:10:05 1.6 C 4 g/m*3 1.6 C 0 km/h
3125 22-10-2010 01:22:05 1.3 C 4.03 g/m*3 1.3 C 0 km/h
Sensor: Nr:Datum:Temp:Abs-Feuchte:Windchill:Wind:
Aussen-T/F 3126 22-10-2010 01:34:05 1.8 C 4.22 g/m*3 1.8 C 0 km/h
3127 22-10-2010 01:46:05 2 C 4.17 g/m*3 2 C 0 km/h
3128 22-10-2010 01:58:05 2 C 4.11 g/m*3 2 C 0 km/h
3129 22-10-2010 02:10:05 2.1 C 4.08 g/m*3 2.1 C 0 km/h
3130 22-10-2010 02:22:05 2.1 C 4.08 g/m*3 2.1 C 0 km/h
3131 22-10-2010 02:34:05 2 C 4.06 g/m*3 2 C 0 km/h
3132 22-10-2010 02:46:05 2.2 C 4.11 g/m*3 2.2 C 0 km/h
3133 22-10-2010 02:58:05 2.2 C 4.11 g/m*3 2.2 C 0 km/h
3134 22-10-2010 03:10:05 2.1 C 4.08 g/m*3 2.1 C 0 km/h
3135 22-10-2010 03:22:05 2.3 C 4.08 g/m*3 2.3 C 0 km/h
3136 22-10-2010 03:34:05 2.1 C 4.03 g/m*3 2.1 C 0 km/h
3137 22-10-2010 03:46:05 2.3 C 4.14 g/m*3 2.3 C 0 km/h
3138 22-10-2010 03:58:05 2 C 4.06 g/m*3 2 C 0 km/h
3139 22-10-2010 04:10:05 1.7 C 4.03 g/m*3 1.7 C 0 km/h
3140 22-10-2010 04:22:05 1.4 C 4.05 g/m*3 1.4 C 0 km/h
3141 22-10-2010 04:34:06 1.4 C 4.11 g/m*3 1.4 C 0 km/h
3142 22-10-2010 04:46:06 1.5 C 4.14 g/m*3 1.5 C 0 km/h
3143 22-10-2010 04:58:06 1.4 C 4.11 g/m*3 1.4 C 0 km/h
3144 22-10-2010 05:10:06 1.2 C 4.1 g/m*3 1.2 C 0 km/h
3145 22-10-2010 05:22:06 1.3 C 4.13 g/m*3 1.3 C 0 km/h
3146 22-10-2010 05:34:06 1.6 C 4.16 g/m*3 1.6 C 0 km/h
3147 22-10-2010 05:46:06 1.4 C 4.05 g/m*3 1.4 C 0 km/h
3148 22-10-2010 05:58:06 1.4 C 4.11 g/m*3 1.4 C 0 km/h
3149 22-10-2010 06:10:06 1.5 C 4.08 g/m*3 1.5 C 0 km/h
3150 22-10-2010 06:22:06 1.6 C 4.11 g/m*3 1.6 C 0 km/h
Sensor: Nr:Datum:Temp:Abs-Feuchte:Windchill:Wind:
Aussen-T/F 3151 22-10-2010 06:34:06 1.8 C 4.06 g/m*3 1.8 C 0 km/h
3152 22-10-2010 06:46:06 1.7 C 4.03 g/m*3 1.7 C 0 km/h
3153 22-10-2010 06:58:06 1.7 C 4.03 g/m*3 1.7 C 0 km/h
3154 22-10-2010 07:10:02 1.4 C 4 g/m*3 1.4 C 0 km/h
3155 22-10-2010 07:22:03 1 C 3.89 g/m*3 1 C 0 km/h
3156 22-10-2010 07:34:03 0.7 C 3.92 g/m*3 0.7 C 0 km/h
3157 22-10-2010 07:46:02 0.6 C 3.99 g/m*3 0.6 C 0 km/h
3158 22-10-2010 07:58:02 1 C 4.1 g/m*3 1 C 0 km/h
3159 22-10-2010 08:10:01 1.5 C 4.14 g/m*3 1.5 C 0 km/h
3160 22-10-2010 08:22:02 1.3 C 4.03 g/m*3 1.3 C 0 km/h
3161 22-10-2010 08:34:02 1.1 C 3.97 g/m*3 1.1 C 0 km/h
3162 22-10-2010 08:46:02 1.1 C 3.97 g/m*3 1.1 C 0 km/h
3163 22-10-2010 08:58:02 1.4 C 4.11 g/m*3 1.4 C 0 km/h
3164 22-10-2010 09:10:03 1.3 C 4.13 g/m*3 1.3 C 0 km/h
3165 22-10-2010 09:22:02 1.4 C 4.16 g/m*3 1.4 C 0 km/h
3166 22-10-2010 09:34:02 1.9 C 4.3 g/m*3 1.9 C 0 km/h
3167 22-10-2010 09:46:01 2.5 C 4.43 g/m*3 2.5 C 0 km/h
3168 22-10-2010 09:58:01 3.2 C 4.46 g/m*3 3.2 C 0 km/h
3169 22-10-2010 10:10:02 3.8 C 4.58 g/m*3 3.8 C 0 km/h
3170 22-10-2010 10:22:01 4.1 C 4.29 g/m*3 4.1 C 0 km/h
3171 22-10-2010 10:34:01 4.3 C 4.15 g/m*3 4.3 C 0 km/h
3172 22-10-2010 10:46:01 4.6 C 4.1 g/m*3 4.6 C 0 km/h
3173 22-10-2010 10:58:01 4.7 C 4 g/m*3 4.7 C 0 km/h
3174 22-10-2010 11:10:02 4.8 C 4.02 g/m*3 4.8 C 0 km/h
3175 22-10-2010 11:22:01 5.1 C 3.9 g/m*3 5.1 C 0 km/h
Sensor: Nr:Datum:Temp:Abs-Feuchte:Windchill:Wind:
Aussen-T/F 3176 22-10-2010 11:34:01 5.4 C 3.91 g/m*3 5.4 C 0 km/h
3177 22-10-2010 11:46:01 5.7 C 3.91 g/m*3 5.7 C 0 km/h
3178 22-10-2010 11:58:01 5.8 C 3.94 g/m*3 5.8 C 0 km/h
3179 22-10-2010 12:10:02 6.1 C 3.87 g/m*3 6.1 C 0 km/h
3180 22-10-2010 12:22:02 6.5 C 3.9 g/m*3 6.5 C 0 km/h
3181 22-10-2010 12:34:01 6.5 C 3.82 g/m*3 6.5 C 0 km/h
3182 22-10-2010 12:46:02 6.8 C 3.98 g/m*3 6.8 C 0 km/h
3183 22-10-2010 12:58:02 6.9 C 3.93 g/m*3 6.9 C 0 km/h
3184 22-10-2010 13:10:01 7 C 3.87 g/m*3 7 C 0 km/h
3185 22-10-2010 13:22:02 7.1 C 3.82 g/m*3 7.1 C 0 km/h
3186 22-10-2010 13:34:01 7.2 C 3.92 g/m*3 7.2 C 0 km/h
3187 22-10-2010 13:46:02 7.3 C 3.87 g/m*3 7.3 C 0 km/h
3188 22-10-2010 13:58:02 7.3 C 3.95 g/m*3 7.3 C 0 km/h
3189 22-10-2010 14:10:02 7.3 C 3.87 g/m*3 7.3 C 0 km/h
3190 22-10-2010 14:22:02 7.5 C 3.92 g/m*3 7.5 C 0 km/h
3191 22-10-2010 14:34:03 7.5 C 3.84 g/m*3 7.5 C 0 km/h
3192 22-10-2010 14:46:02 7.3 C 3.87 g/m*3 7.3 C 0 km/h
3193 22-10-2010 14:58:03 7.2 C 3.85 g/m*3 7.2 C 0 km/h
3194 22-10-2010 15:10:01 7.2 C 3.69 g/m*3 7.2 C 0 km/h
3195 22-10-2010 15:22:02 7.3 C 3.79 g/m*3 7.3 C 0 km/h
3196 22-10-2010 15:34:02 7.2 C 3.77 g/m*3 7.2 C 0 km/h
3197 22-10-2010 15:46:02 7.1 C 3.82 g/m*3 7.1 C 0 km/h
3198 22-10-2010 15:58:02 7.3 C 4.03 g/m*3 7.3 C 0 km/h
3199 22-10-2010 16:10:03 7.4 C 4.06 g/m*3 7.4 C 0 km/h
3200 22-10-2010 16:22:02 7.5 C 4.08 g/m*3 7.5 C 0 km/h
Sensor: Nr:Datum:Temp:Abs-Feuchte:Windchill:Wind:
Aussen-T/F 3201 22-10-2010 16:34:02 7.4 C 4.29 g/m*3 7.4 C 0 km/h
3202 22-10-2010 16:46:01 7.4 C 4.53 g/m*3 7.4 C 0 km/h
3203 22-10-2010 16:58:01 7.4 C 4.69 g/m*3 7.4 C 0 km/h
3204 22-10-2010 17:10:02 7.5 C 4.4 g/m*3 7.5 C 0 km/h
3205 22-10-2010 17:22:01 7.7 C 4.14 g/m*3 7.7 C 0 km/h
3206 22-10-2010 17:34:01 7.6 C 4.19 g/m*3 7.6 C 0 km/h
3207 22-10-2010 17:46:01 6.9 C 4.31 g/m*3 6.9 C 0 km/h
3208 22-10-2010 17:58:01 6.4 C 4.32 g/m*3 6.4 C 0 km/h
3209 22-10-2010 18:10:02 6.4 C 4.17 g/m*3 6.4 C 0 km/h
3210 22-10-2010 18:22:01 6.2 C 4.19 g/m*3 6.2 C 0 km/h
3211 22-10-2010 18:34:01 6 C 4.21 g/m*3 6 C 0 km/h
3212 22-10-2010 18:46:01 6.1 C 4.09 g/m*3 6.1 C 0 km/h
3213 22-10-2010 18:58:01 6.2 C 3.82 g/m*3 6.2 C 0 km/h
3214 22-10-2010 19:10:01 6.2 C 3.68 g/m*3 6.2 C 0 km/h
3215 22-10-2010 19:22:02 6.2 C 3.68 g/m*3 6.2 C 0 km/h
3216 22-10-2010 19:34:01 6.2 C 3.68 g/m*3 6.2 C 0 km/h
3217 22-10-2010 19:46:03 6.2 C 3.68 g/m*3 6.2 C 0 km/h
3218 22-10-2010 19:58:03 6.2 C 3.75 g/m*3 6.2 C 0 km/h
3219 22-10-2010 20:10:02 6.2 C 3.75 g/m*3 6.2 C 0 km/h
3220 22-10-2010 20:22:02 6 C 3.77 g/m*3 6 C 0 km/h
3221 22-10-2010 20:34:02 6 C 3.77 g/m*3 6 C 0 km/h
3222 22-10-2010 20:46:02 6 C 3.85 g/m*3 6 C 0 km/h
3223 22-10-2010 20:58:02 5.9 C 3.97 g/m*3 5.9 C 0 km/h
3224 22-10-2010 21:10:02 6 C 3.85 g/m*3 6 C 0 km/h
3225 22-10-2010 21:22:02 5.9 C 3.97 g/m*3 5.9 C 0 km/h
Sensor: Nr:Datum:Temp:Abs-Feuchte:Windchill:Wind:
Aussen-T/F 3226 22-10-2010 21:34:02 5.7 C 3.91 g/m*3 5.7 C 0 km/h
3227 22-10-2010 21:46:01 5.7 C 3.91 g/m*3 5.7 C 0 km/h
3228 22-10-2010 21:58:01 5.3 C 3.88 g/m*3 5.3 C 0 km/h
3229 22-10-2010 22:10:02 4.9 C 3.92 g/m*3 4.9 C 0 km/h
3230 22-10-2010 22:22:01 4.3 C 3.96 g/m*3 4.3 C 0 km/h
3231 22-10-2010 22:35:03 4.1 C 4.1 g/m*3 4.1 C 0 km/h
3232 22-10-2010 22:47:03 3.8 C 4.2 g/m*3 3.8 C 0 km/h
3233 22-10-2010 22:59:03 3.6 C 4.27 g/m*3 3.6 C 0 km/h
3234 22-10-2010 23:11:03 3.4 C 4.28 g/m*3 3.4 C 0 km/h
3235 22-10-2010 23:23:03 3.1 C 4.31 g/m*3 3.1 C 0 km/h
3236 22-10-2010 23:35:03 2.7 C 4.31 g/m*3 2.7 C 0 km/h
3237 22-10-2010 23:47:03 2.4 C 4.28 g/m*3 2.4 C 0 km/h
3238 22-10-2010 23:59:03 2.2 C 4.34 g/m*3 2.2 C 0 km/h
3239 23-10-2010 00:11:03 2 C 4.28 g/m*3 2 C 0 km/h